<?xml version="1.0" encoding="UTF-8" standalone="no" ?><gpx xmlns="http://www.topografix.com/GPX/1/1" xmlns:gpxx="http://www.garmin.com/xmlschemas/GpxExtensions/v3" xmlns:wptx1="http://www.garmin.com/xmlschemas/WaypointExtension/v1" xmlns:gpxtpx="http://www.garmin.com/xmlschemas/TrackPointExtension/v1" creator="GuideVTT.com" version="1.1" xmlns:xsi="http://www.w3.org/2001/XMLSchema-instance" xsi:schemaLocation="http://www.topografix.com/GPX/1/1 http://www.topografix.com/GPX/1/1/gpx.xsd http://www.garmin.com/xmlschemas/GpxExtensions/v3 http://www8.garmin.com/xmlschemas/GpxExtensionsv3.xsd http://www.garmin.com/xmlschemas/WaypointExtension/v1 http://www8.garmin.com/xmlschemas/WaypointExtensionv1.xsd http://www.garmin.com/xmlschemas/TrackPointExtension/v1 http://www.garmin.com/xmlschemas/TrackPointExtensionv1.xsd">
<metadata><link href="http://www.garmin.com"><text>Garmin International</text></link><time>2013-06-22T15:13:50Z</time></metadata>
<trk><name>gollion-chatel_i.gpx</name><extensions><gpxx:TrackExtension><gpxx:DisplayColor>Cyan</gpxx:DisplayColor></gpxx:TrackExtension></extensions><trkseg>
<trkpt lat="46.58462302" lon="6.50582897"><ele>510.600006</ele><time>2008-04-19T11:17:22Z</time></trkpt>
<trkpt lat="46.58465303" lon="6.50582001"><ele>511.079987</ele><time>2008-04-19T11:19:02Z</time></trkpt>
<trkpt lat="46.58480298" lon="6.50573401"><ele>512.039978</ele><time>2008-04-19T11:19:12Z</time></trkpt>
<trkpt lat="46.58481102" lon="6.50568397"><ele>512.039978</ele><time>2008-04-19T11:19:13Z</time></trkpt>
<trkpt lat="46.58486903" lon="6.50501702"><ele>514.919983</ele><time>2008-04-19T11:19:26Z</time></trkpt>
<trkpt lat="46.58464598" lon="6.50451100"><ele>517.809998</ele><time>2008-04-19T11:19:38Z</time></trkpt>
<trkpt lat="46.58459301" lon="6.50389904"><ele>521.650024</ele><time>2008-04-19T11:19:51Z</time></trkpt>
<trkpt lat="46.58482502" lon="6.50317099"><ele>528.859985</ele><time>2008-04-19T11:20:07Z</time></trkpt>
<trkpt lat="46.58506097" lon="6.50229701"><ele>530.299988</ele><time>2008-04-19T11:20:26Z</time></trkpt>
<trkpt lat="46.58529399" lon="6.50165697"><ele>533.190002</ele><time>2008-04-19T11:20:41Z</time></trkpt>
<trkpt lat="46.58556003" lon="6.50097803"><ele>538.960022</ele><time>2008-04-19T11:20:59Z</time></trkpt>
<trkpt lat="46.58560404" lon="6.50046900"><ele>539.919983</ele><time>2008-04-19T11:21:14Z</time></trkpt>
<trkpt lat="46.58562097" lon="6.49984103"><ele>542.799988</ele><time>2008-04-19T11:21:32Z</time></trkpt>
<trkpt lat="46.58565097" lon="6.49902396"><ele>540.880005</ele><time>2008-04-19T11:21:46Z</time></trkpt>
<trkpt lat="46.58570697" lon="6.49774396"><ele>537.51001</ele><time>2008-04-19T11:21:58Z</time></trkpt>
<trkpt lat="46.58589397" lon="6.49612097"><ele>534.630005</ele><time>2008-04-19T11:22:12Z</time></trkpt>
<trkpt lat="46.58610804" lon="6.49483200"><ele>537.51001</ele><time>2008-04-19T11:22:28Z</time></trkpt>
<trkpt lat="46.58633100" lon="6.49456001"><ele>540.400024</ele><time>2008-04-19T11:22:38Z</time></trkpt>
<trkpt lat="46.58677398" lon="6.49432800"><ele>542.799988</ele><time>2008-04-19T11:22:52Z</time></trkpt>
<trkpt lat="46.58701102" lon="6.49366801"><ele>541.359985</ele><time>2008-04-19T11:23:07Z</time></trkpt>
<trkpt lat="46.58704103" lon="6.49317197"><ele>541.840027</ele><time>2008-04-19T11:23:17Z</time></trkpt>
<trkpt lat="46.58698202" lon="6.49287298"><ele>541.359985</ele><time>2008-04-19T11:23:22Z</time></trkpt>
<trkpt lat="46.58705201" lon="6.49212096"><ele>536.070007</ele><time>2008-04-19T11:23:35Z</time></trkpt>
<trkpt lat="46.58731403" lon="6.49182399"><ele>530.789978</ele><time>2008-04-19T11:23:43Z</time></trkpt>
<trkpt lat="46.58747798" lon="6.49144898"><ele>537.030029</ele><time>2008-04-19T11:23:49Z</time></trkpt>
<trkpt lat="46.58752701" lon="6.49116701"><ele>540.880005</ele><time>2008-04-19T11:23:54Z</time></trkpt>
<trkpt lat="46.58756398" lon="6.49024802"><ele>544.719971</ele><time>2008-04-19T11:24:10Z</time></trkpt>
<trkpt lat="46.58774100" lon="6.48979498"><ele>543.280029</ele><time>2008-04-19T11:24:20Z</time></trkpt>
<trkpt lat="46.58760496" lon="6.48953598"><ele>543.280029</ele><time>2008-04-19T11:24:25Z</time></trkpt>
<trkpt lat="46.58743104" lon="6.48939198"><ele>540.880005</ele><time>2008-04-19T11:24:28Z</time></trkpt>
<trkpt lat="46.58714396" lon="6.48927698"><ele>539.440002</ele><time>2008-04-19T11:24:32Z</time></trkpt>
<trkpt lat="46.58700398" lon="6.48922199"><ele>539.919983</ele><time>2008-04-19T11:24:34Z</time></trkpt>
<trkpt lat="46.58649998" lon="6.48877298"><ele>540.880005</ele><time>2008-04-19T11:24:44Z</time></trkpt>
<trkpt lat="46.58579196" lon="6.48847902"><ele>542.799988</ele><time>2008-04-19T11:24:58Z</time></trkpt>
<trkpt lat="46.58487003" lon="6.48794602"><ele>539.440002</ele><time>2008-04-19T11:25:15Z</time></trkpt>
<trkpt lat="46.58481698" lon="6.48791702"><ele>538.47998</ele><time>2008-04-19T11:25:16Z</time></trkpt>
<trkpt lat="46.58478202" lon="6.48763203"><ele>537.51001</ele><time>2008-04-19T11:25:22Z</time></trkpt>
<trkpt lat="46.58480298" lon="6.48759096"><ele>537.51001</ele><time>2008-04-19T11:25:23Z</time></trkpt>
<trkpt lat="46.58518201" lon="6.48673198"><ele>547.130005</ele><time>2008-04-19T11:25:42Z</time></trkpt>
<trkpt lat="46.58545601" lon="6.48581198"><ele>550.48999</ele><time>2008-04-19T11:26:01Z</time></trkpt>
<trkpt lat="46.58567998" lon="6.48497597"><ele>551.929993</ele><time>2008-04-19T11:26:17Z</time></trkpt>
<trkpt lat="46.58589900" lon="6.48388197"><ele>550.01001</ele><time>2008-04-19T11:26:30Z</time></trkpt>
<trkpt lat="46.58616403" lon="6.48252997"><ele>541.359985</ele><time>2008-04-19T11:26:44Z</time></trkpt>
<trkpt lat="46.58632899" lon="6.48171801"><ele>538.47998</ele><time>2008-04-19T11:26:54Z</time></trkpt>
<trkpt lat="46.58619303" lon="6.48150997"><ele>539.440002</ele><time>2008-04-19T11:26:59Z</time></trkpt>
<trkpt lat="46.58608600" lon="6.48153001"><ele>538.47998</ele><time>2008-04-19T11:27:01Z</time></trkpt>
<trkpt lat="46.58601299" lon="6.48127402"><ele>540.880005</ele><time>2008-04-19T11:27:07Z</time></trkpt>
<trkpt lat="46.58633703" lon="6.48043097"><ele>546.650024</ele><time>2008-04-19T11:27:22Z</time></trkpt>
<trkpt lat="46.58648103" lon="6.48004297"><ele>546.650024</ele><time>2008-04-19T11:27:29Z</time></trkpt>
<trkpt lat="46.58651196" lon="6.47974701"><ele>545.200012</ele><time>2008-04-19T11:27:34Z</time></trkpt>
<trkpt lat="46.58657701" lon="6.47887403"><ele>546.169983</ele><time>2008-04-19T11:27:49Z</time></trkpt>
<trkpt lat="46.58656502" lon="6.47788798"><ele>556.73999</ele><time>2008-04-19T11:28:05Z</time></trkpt>
<trkpt lat="46.58651196" lon="6.47742497"><ele>558.179993</ele><time>2008-04-19T11:28:13Z</time></trkpt>
<trkpt lat="46.58640501" lon="6.47613902"><ele>554.820007</ele><time>2008-04-19T11:28:34Z</time></trkpt>
<trkpt lat="46.58628398" lon="6.47501500"><ele>556.73999</ele><time>2008-04-19T11:28:54Z</time></trkpt>
<trkpt lat="46.58619898" lon="6.47405896"><ele>560.109985</ele><time>2008-04-19T11:29:10Z</time></trkpt>
<trkpt lat="46.58606001" lon="6.47301701"><ele>562.030029</ele><time>2008-04-19T11:29:29Z</time></trkpt>
<trkpt lat="46.58602900" lon="6.47290997"><ele>561.070007</ele><time>2008-04-19T11:29:31Z</time></trkpt>
<trkpt lat="46.58559599" lon="6.47299396"><ele>557.700012</ele><time>2008-04-19T11:29:40Z</time></trkpt>
<trkpt lat="46.58495100" lon="6.47313704"><ele>557.700012</ele><time>2008-04-19T11:29:53Z</time></trkpt>
<trkpt lat="46.58405699" lon="6.47329596"><ele>559.619995</ele><time>2008-04-19T11:30:12Z</time></trkpt>
<trkpt lat="46.58360696" lon="6.47333804"><ele>558.179993</ele><time>2008-04-19T11:30:21Z</time></trkpt>
<trkpt lat="46.58339004" lon="6.47316998"><ele>559.140015</ele><time>2008-04-19T11:30:28Z</time></trkpt>
<trkpt lat="46.58324897" lon="6.47244704"><ele>565.869995</ele><time>2008-04-19T11:30:44Z</time></trkpt>
<trkpt lat="46.58314202" lon="6.47184597"><ele>569.23999</ele><time>2008-04-19T11:30:58Z</time></trkpt>
<trkpt lat="46.58296600" lon="6.47096403"><ele>570.200012</ele><time>2008-04-19T11:31:17Z</time></trkpt>
<trkpt lat="46.58282996" lon="6.47028099"><ele>570.200012</ele><time>2008-04-19T11:31:33Z</time></trkpt>
<trkpt lat="46.58273198" lon="6.46969199"><ele>568.280029</ele><time>2008-04-19T11:31:45Z</time></trkpt>
<trkpt lat="46.58262301" lon="6.46965503"><ele>568.280029</ele><time>2008-04-19T11:31:49Z</time></trkpt>
<trkpt lat="46.58193301" lon="6.46986499"><ele>566.349976</ele><time>2008-04-19T11:32:06Z</time></trkpt>
<trkpt lat="46.58115098" lon="6.47007002"><ele>564.429993</ele><time>2008-04-19T11:32:24Z</time></trkpt>
<trkpt lat="46.58048202" lon="6.47023103"><ele>565.390015</ele><time>2008-04-19T11:32:38Z</time></trkpt>
<trkpt lat="46.57973302" lon="6.47041996"><ele>563.950012</ele><time>2008-04-19T11:32:54Z</time></trkpt>
<trkpt lat="46.57886398" lon="6.47072498"><ele>564.429993</ele><time>2008-04-19T11:33:11Z</time></trkpt>
<trkpt lat="46.57852904" lon="6.47079597"><ele>562.98999</ele><time>2008-04-19T11:33:17Z</time></trkpt>
<trkpt lat="46.57816501" lon="6.47079002"><ele>560.590027</ele><time>2008-04-19T11:33:23Z</time></trkpt>
<trkpt lat="46.57795404" lon="6.47081601"><ele>560.590027</ele><time>2008-04-19T11:33:27Z</time></trkpt>
<trkpt lat="46.57778498" lon="6.47043899"><ele>561.549988</ele><time>2008-04-19T11:33:34Z</time></trkpt>
<trkpt lat="46.57773997" lon="6.46875498"><ele>561.549988</ele><time>2008-04-19T11:33:54Z</time></trkpt>
<trkpt lat="46.57767802" lon="6.46741304"><ele>562.51001</ele><time>2008-04-19T11:34:13Z</time></trkpt>
<trkpt lat="46.57764299" lon="6.46653201"><ele>563.950012</ele><time>2008-04-19T11:34:28Z</time></trkpt>
<trkpt lat="46.57761902" lon="6.46580698"><ele>567.320007</ele><time>2008-04-19T11:34:44Z</time></trkpt>
<trkpt lat="46.57760602" lon="6.46510097"><ele>572.119995</ele><time>2008-04-19T11:34:59Z</time></trkpt>
<trkpt lat="46.57756797" lon="6.46417301"><ele>576.450012</ele><time>2008-04-19T11:35:20Z</time></trkpt>
<trkpt lat="46.57753897" lon="6.46352098"><ele>582.219971</ele><time>2008-04-19T11:35:37Z</time></trkpt>
<trkpt lat="46.57751500" lon="6.46297700"><ele>583.179993</ele><time>2008-04-19T11:35:53Z</time></trkpt>
<trkpt lat="46.57749597" lon="6.46240803"><ele>583.659973</ele><time>2008-04-19T11:36:07Z</time></trkpt>
<trkpt lat="46.57747300" lon="6.46143699"><ele>586.539978</ele><time>2008-04-19T11:36:26Z</time></trkpt>
<trkpt lat="46.57730796" lon="6.46072604"><ele>587.02002</ele><time>2008-04-19T11:36:40Z</time></trkpt>
<trkpt lat="46.57712398" lon="6.46002003"><ele>587.97998</ele><time>2008-04-19T11:36:55Z</time></trkpt>
<trkpt lat="46.57691100" lon="6.45914898"><ele>588.950012</ele><time>2008-04-19T11:37:10Z</time></trkpt>
<trkpt lat="46.57684503" lon="6.45893298"><ele>587.97998</ele><time>2008-04-19T11:37:13Z</time></trkpt>
<trkpt lat="46.57674604" lon="6.45874397"><ele>587.97998</ele><time>2008-04-19T11:37:16Z</time></trkpt>
<trkpt lat="46.57666197" lon="6.45865403"><ele>587.02002</ele><time>2008-04-19T11:37:18Z</time></trkpt>
<trkpt lat="46.57651302" lon="6.45824801"><ele>586.539978</ele><time>2008-04-19T11:37:25Z</time></trkpt>
<trkpt lat="46.57650900" lon="6.45717102"><ele>589.429993</ele><time>2008-04-19T11:37:43Z</time></trkpt>
<trkpt lat="46.57650397" lon="6.45636200"><ele>591.349976</ele><time>2008-04-19T11:37:58Z</time></trkpt>
<trkpt lat="46.57652903" lon="6.45542700"><ele>592.789978</ele><time>2008-04-19T11:38:15Z</time></trkpt>
<trkpt lat="46.57650498" lon="6.45471403"><ele>594.22998</ele><time>2008-04-19T11:38:29Z</time></trkpt>
<trkpt lat="46.57650799" lon="6.45468000"><ele>593.75</ele><time>2008-04-19T11:38:30Z</time></trkpt>
<trkpt lat="46.57659198" lon="6.45465704"><ele>592.789978</ele><time>2008-04-19T11:38:34Z</time></trkpt>
<trkpt lat="46.57693799" lon="6.45463600"><ele>586.539978</ele><time>2008-04-19T11:38:43Z</time></trkpt>
<trkpt lat="46.57748700" lon="6.45472501"><ele>584.619995</ele><time>2008-04-19T11:38:58Z</time></trkpt>
<trkpt lat="46.57776603" lon="6.45480900"><ele>588.950012</ele><time>2008-04-19T11:39:09Z</time></trkpt>
<trkpt lat="46.57781700" lon="6.45484404"><ele>588.460022</ele><time>2008-04-19T11:39:12Z</time></trkpt>
<trkpt lat="46.57783401" lon="6.45459803"><ele>589.429993</ele><time>2008-04-19T11:39:22Z</time></trkpt>
<trkpt lat="46.57782303" lon="6.45461203"><ele>588.460022</ele><time>2008-04-19T11:39:37Z</time></trkpt>
<trkpt lat="46.57782203" lon="6.45468403"><ele>587.97998</ele><time>2008-04-19T11:39:41Z</time></trkpt>
<trkpt lat="46.57764299" lon="6.45472996"><ele>587.97998</ele><time>2008-04-19T11:39:50Z</time></trkpt>
<trkpt lat="46.57704896" lon="6.45455997"><ele>589.429993</ele><time>2008-04-19T11:40:08Z</time></trkpt>
<trkpt lat="46.57649802" lon="6.45460297"><ele>588.950012</ele><time>2008-04-19T11:40:22Z</time></trkpt>
<trkpt lat="46.57595697" lon="6.45466098"><ele>593.27002</ele><time>2008-04-19T11:40:35Z</time></trkpt>
<trkpt lat="46.57545397" lon="6.45472401"><ele>594.710022</ele><time>2008-04-19T11:40:46Z</time></trkpt>
<trkpt lat="46.57545498" lon="6.45451404"><ele>592.309998</ele><time>2008-04-19T11:40:52Z</time></trkpt>
<trkpt lat="46.57577299" lon="6.45387299"><ele>601.919983</ele><time>2008-04-19T11:41:08Z</time></trkpt>
<trkpt lat="46.57604104" lon="6.45320999"><ele>597.119995</ele><time>2008-04-19T11:41:23Z</time></trkpt>
<trkpt lat="46.57635997" lon="6.45262803"><ele>590.390015</ele><time>2008-04-19T11:41:35Z</time></trkpt>
<trkpt lat="46.57640104" lon="6.45252502"><ele>588.950012</ele><time>2008-04-19T11:41:37Z</time></trkpt>
<trkpt lat="46.57658201" lon="6.45207499"><ele>587.5</ele><time>2008-04-19T11:41:45Z</time></trkpt>
<trkpt lat="46.57671796" lon="6.45176704"><ele>587.02002</ele><time>2008-04-19T11:41:51Z</time></trkpt>
<trkpt lat="46.57690597" lon="6.45106900"><ele>589.429993</ele><time>2008-04-19T11:42:05Z</time></trkpt>
<trkpt lat="46.57688099" lon="6.45015000"><ele>599.039978</ele><time>2008-04-19T11:42:23Z</time></trkpt>
<trkpt lat="46.57682500" lon="6.44914904"><ele>602.400024</ele><time>2008-04-19T11:42:42Z</time></trkpt>
<trkpt lat="46.57680497" lon="6.44852400"><ele>600</ele><time>2008-04-19T11:42:50Z</time></trkpt>
<trkpt lat="46.57695802" lon="6.44825804"><ele>599.52002</ele><time>2008-04-19T11:42:55Z</time></trkpt>
<trkpt lat="46.57814297" lon="6.44780299"><ele>597.599976</ele><time>2008-04-19T11:43:15Z</time></trkpt>
<trkpt lat="46.57896398" lon="6.44747400"><ele>598.080017</ele><time>2008-04-19T11:43:31Z</time></trkpt>
<trkpt lat="46.57979496" lon="6.44713797"><ele>603.849976</ele><time>2008-04-19T11:43:49Z</time></trkpt>
<trkpt lat="46.58042301" lon="6.44688198"><ele>607.690002</ele><time>2008-04-19T11:44:05Z</time></trkpt>
<trkpt lat="46.58114696" lon="6.44658904"><ele>609.609985</ele><time>2008-04-19T11:44:25Z</time></trkpt>
<trkpt lat="46.58129398" lon="6.44650899"><ele>609.130005</ele><time>2008-04-19T11:44:29Z</time></trkpt>
<trkpt lat="46.58176697" lon="6.44609400"><ele>608.650024</ele><time>2008-04-19T11:44:43Z</time></trkpt>
<trkpt lat="46.58234599" lon="6.44575403"><ele>607.690002</ele><time>2008-04-19T11:44:58Z</time></trkpt>
<trkpt lat="46.58244196" lon="6.44568597"><ele>606.25</ele><time>2008-04-19T11:45:00Z</time></trkpt>
<trkpt lat="46.58255604" lon="6.44532898"><ele>609.609985</ele><time>2008-04-19T11:45:05Z</time></trkpt>
<trkpt lat="46.58244900" lon="6.44419801"><ele>615.380005</ele><time>2008-04-19T11:45:22Z</time></trkpt>
<trkpt lat="46.58238103" lon="6.44326896"><ele>616.340027</ele><time>2008-04-19T11:45:38Z</time></trkpt>
<trkpt lat="46.58227701" lon="6.44195803"><ele>611.539978</ele><time>2008-04-19T11:45:54Z</time></trkpt>
<trkpt lat="46.58227600" lon="6.44184697"><ele>611.059998</ele><time>2008-04-19T11:45:55Z</time></trkpt>
<trkpt lat="46.58250399" lon="6.44098104"><ele>608.169983</ele><time>2008-04-19T11:46:05Z</time></trkpt>
<trkpt lat="46.58293398" lon="6.44005802"><ele>611.059998</ele><time>2008-04-19T11:46:22Z</time></trkpt>
<trkpt lat="46.58308997" lon="6.43927298"><ele>616.820007</ele><time>2008-04-19T11:46:36Z</time></trkpt>
<trkpt lat="46.58314202" lon="6.43843504"><ele>619.22998</ele><time>2008-04-19T11:46:51Z</time></trkpt>
<trkpt lat="46.58320396" lon="6.43782500"><ele>624.98999</ele><time>2008-04-19T11:47:07Z</time></trkpt>
<trkpt lat="46.58328502" lon="6.43699301"><ele>623.070007</ele><time>2008-04-19T11:47:21Z</time></trkpt>
<trkpt lat="46.58341996" lon="6.43581896"><ele>626.440002</ele><time>2008-04-19T11:47:38Z</time></trkpt>
<trkpt lat="46.58347403" lon="6.43519099"><ele>630.280029</ele><time>2008-04-19T11:47:52Z</time></trkpt>
<trkpt lat="46.58358500" lon="6.43427803"><ele>633.169983</ele><time>2008-04-19T11:48:12Z</time></trkpt>
<trkpt lat="46.58364602" lon="6.43362097"><ele>637.48999</ele><time>2008-04-19T11:48:29Z</time></trkpt>
<trkpt lat="46.58373697" lon="6.43293902"><ele>640.380005</ele><time>2008-04-19T11:48:47Z</time></trkpt>
<trkpt lat="46.58374300" lon="6.43230502"><ele>642.780029</ele><time>2008-04-19T11:49:04Z</time></trkpt>
<trkpt lat="46.58338702" lon="6.43217199"><ele>643.73999</ele><time>2008-04-19T11:49:18Z</time></trkpt>
<trkpt lat="46.58317303" lon="6.43181300"><ele>646.140015</ele><time>2008-04-19T11:49:31Z</time></trkpt>
<trkpt lat="46.58296499" lon="6.43118897"><ele>649.98999</ele><time>2008-04-19T11:49:49Z</time></trkpt>
<trkpt lat="46.58288201" lon="6.43080197"><ele>650.950012</ele><time>2008-04-19T11:50:01Z</time></trkpt>
<trkpt lat="46.58319298" lon="6.43025002"><ele>646.619995</ele><time>2008-04-19T11:50:14Z</time></trkpt>
<trkpt lat="46.58375197" lon="6.42970797"><ele>644.219971</ele><time>2008-04-19T11:50:27Z</time></trkpt>
<trkpt lat="46.58395397" lon="6.42939800"><ele>646.619995</ele><time>2008-04-19T11:50:33Z</time></trkpt>
<trkpt lat="46.58397099" lon="6.42936397"><ele>648.070007</ele><time>2008-04-19T11:50:37Z</time></trkpt>
<trkpt lat="46.58396001" lon="6.42948300"><ele>648.549988</ele><time>2008-04-19T11:50:41Z</time></trkpt>
<trkpt lat="46.58438598" lon="6.42962398"><ele>645.179993</ele><time>2008-04-19T11:50:49Z</time></trkpt>
<trkpt lat="46.58556196" lon="6.42974703"><ele>641.820007</ele><time>2008-04-19T11:51:05Z</time></trkpt>
<trkpt lat="46.58677499" lon="6.42932399"><ele>646.140015</ele><time>2008-04-19T11:51:23Z</time></trkpt>
<trkpt lat="46.58752701" lon="6.42917999"><ele>648.549988</ele><time>2008-04-19T11:51:37Z</time></trkpt>
<trkpt lat="46.58793404" lon="6.42914303"><ele>650.469971</ele><time>2008-04-19T11:51:45Z</time></trkpt>
<trkpt lat="46.58877499" lon="6.42888101"><ele>659.119995</ele><time>2008-04-19T11:52:03Z</time></trkpt>
<trkpt lat="46.58970304" lon="6.42850600"><ele>658.640015</ele><time>2008-04-19T11:52:21Z</time></trkpt>
<trkpt lat="46.59080702" lon="6.42814499"><ele>658.640015</ele><time>2008-04-19T11:52:39Z</time></trkpt>
<trkpt lat="46.59186901" lon="6.42808498"><ele>652.869995</ele><time>2008-04-19T11:52:51Z</time></trkpt>
<trkpt lat="46.59314398" lon="6.42762599"><ele>650.469971</ele><time>2008-04-19T11:53:04Z</time></trkpt>
<trkpt lat="46.59414302" lon="6.42736497"><ele>649.030029</ele><time>2008-04-19T11:53:16Z</time></trkpt>
<trkpt lat="46.59472900" lon="6.42660096"><ele>649.98999</ele><time>2008-04-19T11:53:28Z</time></trkpt>
<trkpt lat="46.59509403" lon="6.42611003"><ele>649.98999</ele><time>2008-04-19T11:53:37Z</time></trkpt>
<trkpt lat="46.59565302" lon="6.42545499"><ele>654.309998</ele><time>2008-04-19T11:53:52Z</time></trkpt>
<trkpt lat="46.59614897" lon="6.42465804"><ele>658.159973</ele><time>2008-04-19T11:54:08Z</time></trkpt>
<trkpt lat="46.59644200" lon="6.42411296"><ele>660.559998</ele><time>2008-04-19T11:54:18Z</time></trkpt>
<trkpt lat="46.59656002" lon="6.42392504"><ele>660.080017</ele><time>2008-04-19T11:54:22Z</time></trkpt>
<trkpt lat="46.59675297" lon="6.42358398"><ele>659.119995</ele><time>2008-04-19T11:54:30Z</time></trkpt>
<trkpt lat="46.59718598" lon="6.42300496"><ele>663.450012</ele><time>2008-04-19T11:54:43Z</time></trkpt>
<trkpt lat="46.59736896" lon="6.42246097"><ele>667.289978</ele><time>2008-04-19T11:54:53Z</time></trkpt>
<trkpt lat="46.59744297" lon="6.42229602"><ele>668.25</ele><time>2008-04-19T11:54:56Z</time></trkpt>
<trkpt lat="46.59758102" lon="6.42199402"><ele>668.72998</ele><time>2008-04-19T11:55:01Z</time></trkpt>
<trkpt lat="46.59764699" lon="6.42186200"><ele>668.25</ele><time>2008-04-19T11:55:04Z</time></trkpt>
<trkpt lat="46.59804798" lon="6.42161096"><ele>666.809998</ele><time>2008-04-19T11:55:12Z</time></trkpt>
<trkpt lat="46.59813196" lon="6.42152597"><ele>666.809998</ele><time>2008-04-19T11:55:14Z</time></trkpt>
<trkpt lat="46.59855500" lon="6.42112901"><ele>664.890015</ele><time>2008-04-19T11:55:24Z</time></trkpt>
<trkpt lat="46.59874602" lon="6.42093002"><ele>663.450012</ele><time>2008-04-19T11:55:28Z</time></trkpt>
<trkpt lat="46.59918498" lon="6.42037698"><ele>662.01001</ele><time>2008-04-19T11:55:39Z</time></trkpt>
<trkpt lat="46.59944700" lon="6.41995696"><ele>663.450012</ele><time>2008-04-19T11:55:47Z</time></trkpt>
<trkpt lat="46.59972603" lon="6.41965899"><ele>660.080017</ele><time>2008-04-19T11:55:54Z</time></trkpt>
<trkpt lat="46.59983399" lon="6.41959302"><ele>655.76001</ele><time>2008-04-19T11:55:56Z</time></trkpt>
<trkpt lat="46.60005301" lon="6.41933796"><ele>649.030029</ele><time>2008-04-19T11:56:01Z</time></trkpt>
<trkpt lat="46.60029802" lon="6.41882901"><ele>651.429993</ele><time>2008-04-19T11:56:10Z</time></trkpt>
<trkpt lat="46.60014102" lon="6.41813801"><ele>655.76001</ele><time>2008-04-19T11:56:21Z</time></trkpt>
<trkpt lat="46.59985604" lon="6.41745103"><ele>664.890015</ele><time>2008-04-19T11:56:33Z</time></trkpt>
<trkpt lat="46.59964398" lon="6.41699396"><ele>666.809998</ele><time>2008-04-19T11:56:44Z</time></trkpt>
<trkpt lat="46.59938296" lon="6.41645199"><ele>666.330017</ele><time>2008-04-19T11:56:56Z</time></trkpt>
<trkpt lat="46.59901902" lon="6.41586701"><ele>668.25</ele><time>2008-04-19T11:57:08Z</time></trkpt>
<trkpt lat="46.59866103" lon="6.41531498"><ele>669.700012</ele><time>2008-04-19T11:57:19Z</time></trkpt>
<trkpt lat="46.59846900" lon="6.41482196"><ele>668.72998</ele><time>2008-04-19T11:57:28Z</time></trkpt>
<trkpt lat="46.59832902" lon="6.41434302"><ele>670.179993</ele><time>2008-04-19T11:57:36Z</time></trkpt>
<trkpt lat="46.59820204" lon="6.41395804"><ele>670.659973</ele><time>2008-04-19T11:57:42Z</time></trkpt>
<trkpt lat="46.59791898" lon="6.41323602"><ele>674.02002</ele><time>2008-04-19T11:57:55Z</time></trkpt>
<trkpt lat="46.59753903" lon="6.41270201"><ele>674.97998</ele><time>2008-04-19T11:58:08Z</time></trkpt>
<trkpt lat="46.59721297" lon="6.41226397"><ele>683.150024</ele><time>2008-04-19T11:58:21Z</time></trkpt>
<trkpt lat="46.59679396" lon="6.41182099"><ele>684.599976</ele><time>2008-04-19T11:58:35Z</time></trkpt>
<trkpt lat="46.59668600" lon="6.41175401"><ele>685.080017</ele><time>2008-04-19T11:58:38Z</time></trkpt>
<trkpt lat="46.59679103" lon="6.41144698"><ele>671.619995</ele><time>2008-04-19T11:58:47Z</time></trkpt>
<trkpt lat="46.59679203" lon="6.41096997"><ele>667.289978</ele><time>2008-04-19T11:58:58Z</time></trkpt>
<trkpt lat="46.59649397" lon="6.41052296"><ele>670.659973</ele><time>2008-04-19T11:59:09Z</time></trkpt>
<trkpt lat="46.59631200" lon="6.41030604"><ele>673.059998</ele><time>2008-04-19T11:59:14Z</time></trkpt>
<trkpt lat="46.59594999" lon="6.40962300"><ele>675.460022</ele><time>2008-04-19T11:59:28Z</time></trkpt>
<trkpt lat="46.59544598" lon="6.40898203"><ele>674.02002</ele><time>2008-04-19T11:59:41Z</time></trkpt>
<trkpt lat="46.59495497" lon="6.40829002"><ele>668.25</ele><time>2008-04-19T11:59:56Z</time></trkpt>
<trkpt lat="46.59451098" lon="6.40765904"><ele>663.929993</ele><time>2008-04-19T12:00:12Z</time></trkpt>
<trkpt lat="46.59430202" lon="6.40745703"><ele>662.48999</ele><time>2008-04-19T12:00:24Z</time></trkpt>
<trkpt lat="46.59421502" lon="6.40735896"><ele>664.890015</ele><time>2008-04-19T12:00:44Z</time></trkpt>
<trkpt lat="46.59398099" lon="6.40717599"><ele>666.809998</ele><time>2008-04-19T12:00:57Z</time></trkpt>
<trkpt lat="46.59391603" lon="6.40713098"><ele>666.330017</ele><time>2008-04-19T12:01:03Z</time></trkpt>
<trkpt lat="46.59366801" lon="6.40758703"><ele>669.219971</ele><time>2008-04-19T12:01:15Z</time></trkpt>
<trkpt lat="46.59326199" lon="6.40815902"><ele>670.179993</ele><time>2008-04-19T12:01:30Z</time></trkpt>
<trkpt lat="46.59286201" lon="6.40862899"><ele>669.219971</ele><time>2008-04-19T12:01:42Z</time></trkpt>
<trkpt lat="46.59269203" lon="6.40852396"><ele>669.700012</ele><time>2008-04-19T12:01:48Z</time></trkpt>
<trkpt lat="46.59254702" lon="6.40787303"><ele>672.099976</ele><time>2008-04-19T12:02:01Z</time></trkpt>
<trkpt lat="46.59244501" lon="6.40759801"><ele>670.659973</ele><time>2008-04-19T12:02:06Z</time></trkpt>
<trkpt lat="46.59240000" lon="6.40748000"><ele>668.72998</ele><time>2008-04-19T12:02:08Z</time></trkpt>
<trkpt lat="46.59219699" lon="6.40702997"><ele>667.77002</ele><time>2008-04-19T12:02:15Z</time></trkpt>
<trkpt lat="46.59204997" lon="6.40672303"><ele>666.330017</ele><time>2008-04-19T12:02:20Z</time></trkpt>
<trkpt lat="46.59179198" lon="6.40640996"><ele>669.700012</ele><time>2008-04-19T12:02:26Z</time></trkpt>
<trkpt lat="46.59136500" lon="6.40618701"><ele>676.909973</ele><time>2008-04-19T12:02:37Z</time></trkpt>
<trkpt lat="46.59124003" lon="6.40613898"><ele>676.419983</ele><time>2008-04-19T12:02:40Z</time></trkpt>
<trkpt lat="46.59083300" lon="6.40592499"><ele>678.830017</ele><time>2008-04-19T12:02:50Z</time></trkpt>
<trkpt lat="46.59050703" lon="6.40586003"><ele>677.390015</ele><time>2008-04-19T12:02:57Z</time></trkpt>
<trkpt lat="46.59021802" lon="6.40587302"><ele>674.02002</ele><time>2008-04-19T12:03:02Z</time></trkpt>
<trkpt lat="46.58969499" lon="6.40568300"><ele>666.330017</ele><time>2008-04-19T12:03:13Z</time></trkpt>
<trkpt lat="46.58927104" lon="6.40557303"><ele>668.25</ele><time>2008-04-19T12:03:23Z</time></trkpt>
<trkpt lat="46.58874599" lon="6.40548200"><ele>665.849976</ele><time>2008-04-19T12:03:32Z</time></trkpt>
<trkpt lat="46.58820201" lon="6.40543800"><ele>669.219971</ele><time>2008-04-19T12:03:42Z</time></trkpt>
<trkpt lat="46.58815398" lon="6.40542299"><ele>669.700012</ele><time>2008-04-19T12:03:43Z</time></trkpt>
<trkpt lat="46.58794602" lon="6.40527598"><ele>672.580017</ele><time>2008-04-19T12:03:47Z</time></trkpt>
<trkpt lat="46.58770102" lon="6.40526298"><ele>673.539978</ele><time>2008-04-19T12:03:51Z</time></trkpt>
<trkpt lat="46.58740598" lon="6.40523097"><ele>676.909973</ele><time>2008-04-19T12:03:57Z</time></trkpt>
<trkpt lat="46.58714203" lon="6.40519199"><ele>677.390015</ele><time>2008-04-19T12:04:02Z</time></trkpt>
<trkpt lat="46.58687901" lon="6.40511303"><ele>676.909973</ele><time>2008-04-19T12:04:08Z</time></trkpt>
<trkpt lat="46.58650802" lon="6.40502301"><ele>677.390015</ele><time>2008-04-19T12:04:14Z</time></trkpt>
<trkpt lat="46.58634600" lon="6.40492100"><ele>681.22998</ele><time>2008-04-19T12:04:17Z</time></trkpt>
<trkpt lat="46.58615196" lon="6.40481003"><ele>680.75</ele><time>2008-04-19T12:04:21Z</time></trkpt>
<trkpt lat="46.58591299" lon="6.40471900"><ele>680.75</ele><time>2008-04-19T12:04:26Z</time></trkpt>
<trkpt lat="46.58538996" lon="6.40447500"><ele>685.559998</ele><time>2008-04-19T12:04:38Z</time></trkpt>
<trkpt lat="46.58502996" lon="6.40431197"><ele>689.400024</ele><time>2008-04-19T12:04:48Z</time></trkpt>
<trkpt lat="46.58454197" lon="6.40419203"><ele>688.919983</ele><time>2008-04-19T12:04:58Z</time></trkpt>
<trkpt lat="46.58380000" lon="6.40388601"><ele>686.039978</ele><time>2008-04-19T12:05:16Z</time></trkpt>
<trkpt lat="46.58372599" lon="6.40384703"><ele>687</ele><time>2008-04-19T12:05:18Z</time></trkpt>
<trkpt lat="46.58359104" lon="6.40383496"><ele>686.52002</ele><time>2008-04-19T12:05:22Z</time></trkpt>
<trkpt lat="46.58343798" lon="6.40366497"><ele>687</ele><time>2008-04-19T12:05:26Z</time></trkpt>
<trkpt lat="46.58298796" lon="6.40274104"><ele>678.349976</ele><time>2008-04-19T12:05:38Z</time></trkpt>
<trkpt lat="46.58278001" lon="6.40210804"><ele>677.390015</ele><time>2008-04-19T12:05:44Z</time></trkpt>
<trkpt lat="46.58230098" lon="6.40139800"><ele>679.789978</ele><time>2008-04-19T12:05:54Z</time></trkpt>
<trkpt lat="46.58191902" lon="6.40096902"><ele>685.559998</ele><time>2008-04-19T12:06:01Z</time></trkpt>
<trkpt lat="46.58134896" lon="6.40028799"><ele>693.25</ele><time>2008-04-19T12:06:12Z</time></trkpt>
<trkpt lat="46.58087497" lon="6.39978197"><ele>687</ele><time>2008-04-19T12:06:24Z</time></trkpt>
<trkpt lat="46.58046501" lon="6.39957896"><ele>687</ele><time>2008-04-19T12:06:37Z</time></trkpt>
<trkpt lat="46.58023199" lon="6.39913799"><ele>688.440002</ele><time>2008-04-19T12:06:48Z</time></trkpt>
<trkpt lat="46.57998104" lon="6.39855302"><ele>700.460022</ele><time>2008-04-19T12:07:01Z</time></trkpt>
<trkpt lat="46.57978004" lon="6.39781097"><ele>704.299988</ele><time>2008-04-19T12:07:14Z</time></trkpt>
<trkpt lat="46.57966504" lon="6.39752196"><ele>705.75</ele><time>2008-04-19T12:07:19Z</time></trkpt>
<trkpt lat="46.57954300" lon="6.39714302"><ele>699.02002</ele><time>2008-04-19T12:07:24Z</time></trkpt>
<trkpt lat="46.57943102" lon="6.39683004"><ele>697.090027</ele><time>2008-04-19T12:07:29Z</time></trkpt>
<trkpt lat="46.57910404" lon="6.39646500"><ele>699.5</ele><time>2008-04-19T12:07:39Z</time></trkpt>
<trkpt lat="46.57872400" lon="6.39643500"><ele>701.419983</ele><time>2008-04-19T12:07:48Z</time></trkpt>
<trkpt lat="46.57861898" lon="6.39640097"><ele>699.97998</ele><time>2008-04-19T12:07:50Z</time></trkpt>
<trkpt lat="46.57836501" lon="6.39615999"><ele>704.780029</ele><time>2008-04-19T12:07:54Z</time></trkpt>
<trkpt lat="46.57820801" lon="6.39609100"><ele>696.609985</ele><time>2008-04-19T12:07:57Z</time></trkpt>
<trkpt lat="46.57803903" lon="6.39587902"><ele>690.359985</ele><time>2008-04-19T12:08:02Z</time></trkpt>
<trkpt lat="46.57810600" lon="6.39536496"><ele>686.039978</ele><time>2008-04-19T12:08:13Z</time></trkpt>
<trkpt lat="46.57783200" lon="6.39484797"><ele>690.840027</ele><time>2008-04-19T12:08:25Z</time></trkpt>
<trkpt lat="46.57748398" lon="6.39433801"><ele>699.02002</ele><time>2008-04-19T12:08:38Z</time></trkpt>
<trkpt lat="46.57730000" lon="6.39383803"><ele>703.820007</ele><time>2008-04-19T12:08:50Z</time></trkpt>
<trkpt lat="46.57721903" lon="6.39336202"><ele>711.51001</ele><time>2008-04-19T12:09:03Z</time></trkpt>
<trkpt lat="46.57722699" lon="6.39285802"><ele>712.950012</ele><time>2008-04-19T12:09:16Z</time></trkpt>
<trkpt lat="46.57734602" lon="6.39230498"><ele>701.900024</ele><time>2008-04-19T12:09:27Z</time></trkpt>
<trkpt lat="46.57720797" lon="6.39165698"><ele>700.460022</ele><time>2008-04-19T12:09:38Z</time></trkpt>
<trkpt lat="46.57697696" lon="6.39109103"><ele>691.330017</ele><time>2008-04-19T12:09:50Z</time></trkpt>
<trkpt lat="46.57660103" lon="6.39053497"><ele>688.919983</ele><time>2008-04-19T12:10:04Z</time></trkpt>
<trkpt lat="46.57596996" lon="6.38986400"><ele>687</ele><time>2008-04-19T12:10:21Z</time></trkpt>
<trkpt lat="46.57593501" lon="6.38983198"><ele>687.47998</ele><time>2008-04-19T12:10:22Z</time></trkpt>
<trkpt lat="46.57549798" lon="6.38964498"><ele>688.440002</ele><time>2008-04-19T12:10:32Z</time></trkpt>
<trkpt lat="46.57530896" lon="6.38959603"><ele>688.919983</ele><time>2008-04-19T12:10:36Z</time></trkpt>
<trkpt lat="46.57512498" lon="6.38951800"><ele>689.880005</ele><time>2008-04-19T12:10:40Z</time></trkpt>
<trkpt lat="46.57465300" lon="6.38933703"><ele>698.049988</ele><time>2008-04-19T12:10:51Z</time></trkpt>
<trkpt lat="46.57456599" lon="6.38930602"><ele>699.02002</ele><time>2008-04-19T12:10:53Z</time></trkpt>
<trkpt lat="46.57413902" lon="6.38906697"><ele>698.530029</ele><time>2008-04-19T12:11:03Z</time></trkpt>
<trkpt lat="46.57364096" lon="6.38885398"><ele>692.289978</ele><time>2008-04-19T12:11:14Z</time></trkpt>
<trkpt lat="46.57356896" lon="6.38850203"><ele>684.599976</ele><time>2008-04-19T12:11:23Z</time></trkpt>
<trkpt lat="46.57371196" lon="6.38804496"><ele>681.22998</ele><time>2008-04-19T12:11:34Z</time></trkpt>
<trkpt lat="46.57395001" lon="6.38774598"><ele>675.940002</ele><time>2008-04-19T12:11:41Z</time></trkpt>
<trkpt lat="46.57409702" lon="6.38757398"><ele>673.539978</ele><time>2008-04-19T12:11:44Z</time></trkpt>
<trkpt lat="46.57438201" lon="6.38700502"><ele>668.25</ele><time>2008-04-19T12:11:51Z</time></trkpt>
<trkpt lat="46.57443599" lon="6.38670503"><ele>668.72998</ele><time>2008-04-19T12:11:56Z</time></trkpt>
<trkpt lat="46.57450598" lon="6.38625903"><ele>670.179993</ele><time>2008-04-19T12:12:10Z</time></trkpt>
<trkpt lat="46.57464000" lon="6.38574304"><ele>668.72998</ele><time>2008-04-19T12:12:21Z</time></trkpt>
<trkpt lat="46.57482399" lon="6.38521397"><ele>669.219971</ele><time>2008-04-19T12:12:33Z</time></trkpt>
<trkpt lat="46.57496296" lon="6.38455901"><ele>674.97998</ele><time>2008-04-19T12:12:46Z</time></trkpt>
<trkpt lat="46.57512004" lon="6.38413103"><ele>672.580017</ele><time>2008-04-19T12:12:59Z</time></trkpt>
<trkpt lat="46.57529203" lon="6.38369702"><ele>670.659973</ele><time>2008-04-19T12:13:13Z</time></trkpt>
<trkpt lat="46.57532397" lon="6.38355503"><ele>670.659973</ele><time>2008-04-19T12:13:17Z</time></trkpt>
<trkpt lat="46.57542799" lon="6.38346802"><ele>669.700012</ele><time>2008-04-19T12:13:21Z</time></trkpt>
<trkpt lat="46.57552103" lon="6.38332503"><ele>670.179993</ele><time>2008-04-19T12:13:26Z</time></trkpt>
<trkpt lat="46.57570300" lon="6.38286000"><ele>676.909973</ele><time>2008-04-19T12:13:37Z</time></trkpt>
<trkpt lat="46.57595999" lon="6.38244200"><ele>679.789978</ele><time>2008-04-19T12:13:51Z</time></trkpt>
<trkpt lat="46.57616702" lon="6.38212801"><ele>682.669983</ele><time>2008-04-19T12:14:03Z</time></trkpt>
<trkpt lat="46.57633700" lon="6.38150297"><ele>682.669983</ele><time>2008-04-19T12:14:19Z</time></trkpt>
<trkpt lat="46.57645301" lon="6.38108304"><ele>685.559998</ele><time>2008-04-19T12:14:32Z</time></trkpt>
<trkpt lat="46.57666801" lon="6.38044501"><ele>690.359985</ele><time>2008-04-19T12:14:50Z</time></trkpt>
<trkpt lat="46.57683103" lon="6.37965803"><ele>694.210022</ele><time>2008-04-19T12:15:09Z</time></trkpt>
<trkpt lat="46.57698199" lon="6.37890500"><ele>695.650024</ele><time>2008-04-19T12:15:27Z</time></trkpt>
<trkpt lat="46.57715499" lon="6.37805901"><ele>690.840027</ele><time>2008-04-19T12:15:43Z</time></trkpt>
<trkpt lat="46.57720000" lon="6.37783304"><ele>690.840027</ele><time>2008-04-19T12:15:46Z</time></trkpt>
<trkpt lat="46.57730897" lon="6.37755199"><ele>691.809998</ele><time>2008-04-19T12:15:50Z</time></trkpt>
<trkpt lat="46.57741601" lon="6.37736097"><ele>692.77002</ele><time>2008-04-19T12:15:53Z</time></trkpt>
<trkpt lat="46.57765296" lon="6.37639202"><ele>695.169983</ele><time>2008-04-19T12:16:06Z</time></trkpt>
<trkpt lat="46.57790098" lon="6.37551201"><ele>695.650024</ele><time>2008-04-19T12:16:20Z</time></trkpt>
<trkpt lat="46.57852703" lon="6.37493801"><ele>698.530029</ele><time>2008-04-19T12:16:35Z</time></trkpt>
<trkpt lat="46.57862099" lon="6.37485998"><ele>698.530029</ele><time>2008-04-19T12:16:37Z</time></trkpt>
<trkpt lat="46.57875099" lon="6.37469502"><ele>697.090027</ele><time>2008-04-19T12:16:40Z</time></trkpt>
<trkpt lat="46.57882299" lon="6.37438296"><ele>696.609985</ele><time>2008-04-19T12:16:44Z</time></trkpt>
<trkpt lat="46.57894897" lon="6.37386697"><ele>694.690002</ele><time>2008-04-19T12:16:51Z</time></trkpt>
<trkpt lat="46.57901703" lon="6.37374703"><ele>694.210022</ele><time>2008-04-19T12:16:53Z</time></trkpt>
<trkpt lat="46.57954501" lon="6.37273299"><ele>698.049988</ele><time>2008-04-19T12:17:11Z</time></trkpt>
<trkpt lat="46.57956001" lon="6.37266601"><ele>698.530029</ele><time>2008-04-19T12:17:12Z</time></trkpt>
<trkpt lat="46.57956898" lon="6.37234800"><ele>699.5</ele><time>2008-04-19T12:17:17Z</time></trkpt>
<trkpt lat="46.57948801" lon="6.37159104"><ele>703.820007</ele><time>2008-04-19T12:17:32Z</time></trkpt>
<trkpt lat="46.57955599" lon="6.37070297"><ele>707.190002</ele><time>2008-04-19T12:17:50Z</time></trkpt>
<trkpt lat="46.57966596" lon="6.36999898"><ele>710.549988</ele><time>2008-04-19T12:18:04Z</time></trkpt>
<trkpt lat="46.57976604" lon="6.36935298"><ele>714.400024</ele><time>2008-04-19T12:18:18Z</time></trkpt>
<trkpt lat="46.57965397" lon="6.36886197"><ele>718.23999</ele><time>2008-04-19T12:18:30Z</time></trkpt>
<trkpt lat="46.57940604" lon="6.36826099"><ele>722.090027</ele><time>2008-04-19T12:18:47Z</time></trkpt>
<trkpt lat="46.57915701" lon="6.36768901"><ele>722.570007</ele><time>2008-04-19T12:19:03Z</time></trkpt>
<trkpt lat="46.57881503" lon="6.36730101"><ele>725.450012</ele><time>2008-04-19T12:19:18Z</time></trkpt>
<trkpt lat="46.57845000" lon="6.36684998"><ele>729.780029</ele><time>2008-04-19T12:19:34Z</time></trkpt>
<trkpt lat="46.57847598" lon="6.36636198"><ele>731.700012</ele><time>2008-04-19T12:19:47Z</time></trkpt>
<trkpt lat="46.57867597" lon="6.36570803"><ele>735.549988</ele><time>2008-04-19T12:20:04Z</time></trkpt>
<trkpt lat="46.57855703" lon="6.36535498"><ele>740.830017</ele><time>2008-04-19T12:20:15Z</time></trkpt>
<trkpt lat="46.57794801" lon="6.36495500"><ele>741.309998</ele><time>2008-04-19T12:20:32Z</time></trkpt>
<trkpt lat="46.57778196" lon="6.36479700"><ele>744.200012</ele><time>2008-04-19T12:20:37Z</time></trkpt>
<trkpt lat="46.57758800" lon="6.36450598"><ele>748.039978</ele><time>2008-04-19T12:20:44Z</time></trkpt>
<trkpt lat="46.57764902" lon="6.36436500"><ele>746.119995</ele><time>2008-04-19T12:20:48Z</time></trkpt>
<trkpt lat="46.57798899" lon="6.36419903"><ele>740.349976</ele><time>2008-04-19T12:20:59Z</time></trkpt>
<trkpt lat="46.57858696" lon="6.36434698"><ele>746.599976</ele><time>2008-04-19T12:21:13Z</time></trkpt>
<trkpt lat="46.57926003" lon="6.36448603"><ele>747.559998</ele><time>2008-04-19T12:21:29Z</time></trkpt>
<trkpt lat="46.57994701" lon="6.36463397"><ele>751.890015</ele><time>2008-04-19T12:21:46Z</time></trkpt>
<trkpt lat="46.58053500" lon="6.36476900"><ele>751.890015</ele><time>2008-04-19T12:22:01Z</time></trkpt>
<trkpt lat="46.58061496" lon="6.36479398"><ele>751.890015</ele><time>2008-04-19T12:22:03Z</time></trkpt>
<trkpt lat="46.58102098" lon="6.36480303"><ele>754.289978</ele><time>2008-04-19T12:22:13Z</time></trkpt>
<trkpt lat="46.58132700" lon="6.36487797"><ele>753.330017</ele><time>2008-04-19T12:22:20Z</time></trkpt>
<trkpt lat="46.58160101" lon="6.36472399"><ele>753.809998</ele><time>2008-04-19T12:22:28Z</time></trkpt>
<trkpt lat="46.58214902" lon="6.36466700"><ele>756.690002</ele><time>2008-04-19T12:22:45Z</time></trkpt>
<trkpt lat="46.58259904" lon="6.36467597"><ele>755.72998</ele><time>2008-04-19T12:22:59Z</time></trkpt>
<trkpt lat="46.58299098" lon="6.36470698"><ele>762.940002</ele><time>2008-04-19T12:23:12Z</time></trkpt>
<trkpt lat="46.58340697" lon="6.36467404"><ele>761.5</ele><time>2008-04-19T12:23:25Z</time></trkpt>
<trkpt lat="46.58381701" lon="6.36457798"><ele>768.22998</ele><time>2008-04-19T12:23:39Z</time></trkpt>
<trkpt lat="46.58426302" lon="6.36467303"><ele>774.47998</ele><time>2008-04-19T12:23:53Z</time></trkpt>
<trkpt lat="46.58468303" lon="6.36473296"><ele>769.190002</ele><time>2008-04-19T12:24:07Z</time></trkpt>
<trkpt lat="46.58499802" lon="6.36480899"><ele>772.559998</ele><time>2008-04-19T12:24:19Z</time></trkpt>
<trkpt lat="46.58539801" lon="6.36488300"><ele>771.599976</ele><time>2008-04-19T12:24:32Z</time></trkpt>
<trkpt lat="46.58580302" lon="6.36496397"><ele>775.440002</ele><time>2008-04-19T12:24:46Z</time></trkpt>
<trkpt lat="46.58619697" lon="6.36508802"><ele>773.52002</ele><time>2008-04-19T12:24:57Z</time></trkpt>
<trkpt lat="46.58652102" lon="6.36515298"><ele>778.320007</ele><time>2008-04-19T12:25:08Z</time></trkpt>
<trkpt lat="46.58657097" lon="6.36514099"><ele>780.25</ele><time>2008-04-19T12:25:11Z</time></trkpt>
<trkpt lat="46.58684196" lon="6.36513898"><ele>781.690002</ele><time>2008-04-19T12:25:20Z</time></trkpt>
<trkpt lat="46.58694598" lon="6.36513999"><ele>781.210022</ele><time>2008-04-19T12:25:24Z</time></trkpt>
<trkpt lat="46.58741101" lon="6.36526697"><ele>771.599976</ele><time>2008-04-19T12:25:37Z</time></trkpt>
<trkpt lat="46.58784896" lon="6.36546403"><ele>767.75</ele><time>2008-04-19T12:25:49Z</time></trkpt>
<trkpt lat="46.58817602" lon="6.36572203"><ele>771.599976</ele><time>2008-04-19T12:25:59Z</time></trkpt>
<trkpt lat="46.58853997" lon="6.36595798"><ele>769.190002</ele><time>2008-04-19T12:26:10Z</time></trkpt>
<trkpt lat="46.58887499" lon="6.36615202"><ele>762.940002</ele><time>2008-04-19T12:26:22Z</time></trkpt>
<trkpt lat="46.58919300" lon="6.36633600"><ele>765.830017</ele><time>2008-04-19T12:26:33Z</time></trkpt>
<trkpt lat="46.58947698" lon="6.36649501"><ele>768.22998</ele><time>2008-04-19T12:26:44Z</time></trkpt>
<trkpt lat="46.58983497" lon="6.36661403"><ele>766.309998</ele><time>2008-04-19T12:26:58Z</time></trkpt>
<trkpt lat="46.59013303" lon="6.36673900"><ele>768.22998</ele><time>2008-04-19T12:27:09Z</time></trkpt>
<trkpt lat="46.59039597" lon="6.36685300"><ele>764.869995</ele><time>2008-04-19T12:27:20Z</time></trkpt>
<trkpt lat="46.59063301" lon="6.36697202"><ele>765.349976</ele><time>2008-04-19T12:27:30Z</time></trkpt>
<trkpt lat="46.59066604" lon="6.36699700"><ele>764.869995</ele><time>2008-04-19T12:27:31Z</time></trkpt>
<trkpt lat="46.59104900" lon="6.36715600"><ele>761.97998</ele><time>2008-04-19T12:27:43Z</time></trkpt>
<trkpt lat="46.59117700" lon="6.36716003"><ele>760.059998</ele><time>2008-04-19T12:27:47Z</time></trkpt>
<trkpt lat="46.59147296" lon="6.36730604"><ele>755.72998</ele><time>2008-04-19T12:27:58Z</time></trkpt>
<trkpt lat="46.59173297" lon="6.36745096"><ele>754.289978</ele><time>2008-04-19T12:28:09Z</time></trkpt>
<trkpt lat="46.59176599" lon="6.36746798"><ele>755.25</ele><time>2008-04-19T12:28:11Z</time></trkpt>
<trkpt lat="46.59191896" lon="6.36760703"><ele>761.5</ele><time>2008-04-19T12:28:17Z</time></trkpt>
<trkpt lat="46.59207998" lon="6.36805404"><ele>765.830017</ele><time>2008-04-19T12:28:29Z</time></trkpt>
<trkpt lat="46.59213404" lon="6.36820097"><ele>765.830017</ele><time>2008-04-19T12:28:34Z</time></trkpt>
<trkpt lat="46.59230696" lon="6.36864203"><ele>766.309998</ele><time>2008-04-19T12:28:47Z</time></trkpt>
<trkpt lat="46.59240101" lon="6.36869500"><ele>766.789978</ele><time>2008-04-19T12:28:51Z</time></trkpt>
<trkpt lat="46.59258298" lon="6.36874404"><ele>768.22998</ele><time>2008-04-19T12:28:59Z</time></trkpt>
<trkpt lat="46.59267602" lon="6.36883196"><ele>770.150024</ele><time>2008-04-19T12:29:03Z</time></trkpt>
<trkpt lat="46.59312202" lon="6.36893196"><ele>768.710022</ele><time>2008-04-19T12:29:16Z</time></trkpt>
<trkpt lat="46.59334498" lon="6.36899499"><ele>765.349976</ele><time>2008-04-19T12:29:20Z</time></trkpt>
<trkpt lat="46.59348898" lon="6.36900497"><ele>763.419983</ele><time>2008-04-19T12:29:23Z</time></trkpt>
<trkpt lat="46.59365804" lon="6.36893498"><ele>761.02002</ele><time>2008-04-19T12:29:27Z</time></trkpt>
<trkpt lat="46.59375301" lon="6.36873197"><ele>759.099976</ele><time>2008-04-19T12:29:31Z</time></trkpt>
<trkpt lat="46.59380699" lon="6.36861797"><ele>757.659973</ele><time>2008-04-19T12:29:33Z</time></trkpt>
<trkpt lat="46.59424100" lon="6.36838797"><ele>754.77002</ele><time>2008-04-19T12:29:42Z</time></trkpt>
<trkpt lat="46.59442498" lon="6.36862200"><ele>754.289978</ele><time>2008-04-19T12:29:47Z</time></trkpt>
<trkpt lat="46.59452699" lon="6.36893900"><ele>750.929993</ele><time>2008-04-19T12:29:51Z</time></trkpt>
<trkpt lat="46.59469496" lon="6.36925902"><ele>749.969971</ele><time>2008-04-19T12:29:55Z</time></trkpt>
<trkpt lat="46.59497802" lon="6.36960796"><ele>749.48999</ele><time>2008-04-19T12:30:00Z</time></trkpt>
<trkpt lat="46.59520299" lon="6.37021598"><ele>749</ele><time>2008-04-19T12:30:06Z</time></trkpt>
<trkpt lat="46.59589400" lon="6.37126003"><ele>744.679993</ele><time>2008-04-19T12:30:16Z</time></trkpt>
<trkpt lat="46.59606197" lon="6.37183897"><ele>742.280029</ele><time>2008-04-19T12:30:22Z</time></trkpt>
<trkpt lat="46.59607002" lon="6.37198004"><ele>741.789978</ele><time>2008-04-19T12:30:24Z</time></trkpt>
<trkpt lat="46.59622902" lon="6.37230098"><ele>740.349976</ele><time>2008-04-19T12:30:31Z</time></trkpt>
<trkpt lat="46.59677401" lon="6.37266300"><ele>739.869995</ele><time>2008-04-19T12:30:46Z</time></trkpt>
<trkpt lat="46.59708599" lon="6.37282401"><ele>740.349976</ele><time>2008-04-19T12:30:54Z</time></trkpt>
<trkpt lat="46.59760600" lon="6.37295804"><ele>743.23999</ele><time>2008-04-19T12:31:08Z</time></trkpt>
<trkpt lat="46.59813297" lon="6.37310598"><ele>743.23999</ele><time>2008-04-19T12:31:24Z</time></trkpt>
<trkpt lat="46.59851602" lon="6.37323598"><ele>744.200012</ele><time>2008-04-19T12:31:36Z</time></trkpt>
<trkpt lat="46.59882498" lon="6.37332802"><ele>749</ele><time>2008-04-19T12:31:45Z</time></trkpt>
<trkpt lat="46.59912799" lon="6.37345400"><ele>748.52002</ele><time>2008-04-19T12:31:54Z</time></trkpt>
<trkpt lat="46.59929696" lon="6.37336004"><ele>748.039978</ele><time>2008-04-19T12:32:00Z</time></trkpt>
<trkpt lat="46.59940601" lon="6.37280901"><ele>749.48999</ele><time>2008-04-19T12:32:13Z</time></trkpt>
<trkpt lat="46.59957197" lon="6.37219604"><ele>749.969971</ele><time>2008-04-19T12:32:28Z</time></trkpt>
<trkpt lat="46.59977901" lon="6.37179304"><ele>753.809998</ele><time>2008-04-19T12:32:41Z</time></trkpt>
<trkpt lat="46.60001697" lon="6.37144402"><ele>756.690002</ele><time>2008-04-19T12:32:56Z</time></trkpt>
<trkpt lat="46.60030397" lon="6.37091998"><ele>761.97998</ele><time>2008-04-19T12:33:16Z</time></trkpt>
<trkpt lat="46.60059297" lon="6.37061597"><ele>767.27002</ele><time>2008-04-19T12:33:32Z</time></trkpt>
<trkpt lat="46.60090897" lon="6.37053399"><ele>772.559998</ele><time>2008-04-19T12:33:47Z</time></trkpt>
<trkpt lat="46.60118197" lon="6.37060901"><ele>778.320007</ele><time>2008-04-19T12:34:02Z</time></trkpt>
<trkpt lat="46.60133100" lon="6.37105803"><ele>782.169983</ele><time>2008-04-19T12:34:16Z</time></trkpt>
<trkpt lat="46.60128197" lon="6.37158500"><ele>785.530029</ele><time>2008-04-19T12:34:31Z</time></trkpt>
<trkpt lat="46.60118499" lon="6.37202597"><ele>788.900024</ele><time>2008-04-19T12:34:44Z</time></trkpt>
<trkpt lat="46.60108801" lon="6.37244398"><ele>787.460022</ele><time>2008-04-19T12:34:57Z</time></trkpt>
<trkpt lat="46.60126797" lon="6.37286802"><ele>788.900024</ele><time>2008-04-19T12:35:12Z</time></trkpt>
<trkpt lat="46.60183802" lon="6.37323699"><ele>785.049988</ele><time>2008-04-19T12:35:27Z</time></trkpt>
<trkpt lat="46.60191396" lon="6.37330698"><ele>785.049988</ele><time>2008-04-19T12:35:29Z</time></trkpt>
<trkpt lat="46.60206802" lon="6.37353203"><ele>786.5</ele><time>2008-04-19T12:35:34Z</time></trkpt>
<trkpt lat="46.60233499" lon="6.37375700"><ele>791.299988</ele><time>2008-04-19T12:35:45Z</time></trkpt>
<trkpt lat="46.60221102" lon="6.37399597"><ele>792.73999</ele><time>2008-04-19T12:35:54Z</time></trkpt>
<trkpt lat="46.60217497" lon="6.37405003"><ele>792.73999</ele><time>2008-04-19T12:35:55Z</time></trkpt>
<trkpt lat="46.60232501" lon="6.37445798"><ele>793.710022</ele><time>2008-04-19T12:36:02Z</time></trkpt>
<trkpt lat="46.60247102" lon="6.37450400"><ele>792.26001</ele><time>2008-04-19T12:36:04Z</time></trkpt>
<trkpt lat="46.60287000" lon="6.37452797"><ele>786.97998</ele><time>2008-04-19T12:36:09Z</time></trkpt>
<trkpt lat="46.60303798" lon="6.37448296"><ele>785.530029</ele><time>2008-04-19T12:36:12Z</time></trkpt>
<trkpt lat="46.60323897" lon="6.37441398"><ele>784.090027</ele><time>2008-04-19T12:36:17Z</time></trkpt>
<trkpt lat="46.60357098" lon="6.37448598"><ele>785.049988</ele><time>2008-04-19T12:36:23Z</time></trkpt>
<trkpt lat="46.60371498" lon="6.37457097"><ele>784.570007</ele><time>2008-04-19T12:36:26Z</time></trkpt>
<trkpt lat="46.60423399" lon="6.37498604"><ele>782.169983</ele><time>2008-04-19T12:36:38Z</time></trkpt>
<trkpt lat="46.60469097" lon="6.37539600"><ele>780.25</ele><time>2008-04-19T12:36:50Z</time></trkpt>
<trkpt lat="46.60525197" lon="6.37581300"><ele>779.289978</ele><time>2008-04-19T12:37:02Z</time></trkpt>
<trkpt lat="46.60589302" lon="6.37619304"><ele>781.690002</ele><time>2008-04-19T12:37:15Z</time></trkpt>
<trkpt lat="46.60606703" lon="6.37635296"><ele>783.130005</ele><time>2008-04-19T12:37:19Z</time></trkpt>
<trkpt lat="46.60625797" lon="6.37652102"><ele>782.650024</ele><time>2008-04-19T12:37:24Z</time></trkpt>
<trkpt lat="46.60683003" lon="6.37665102"><ele>782.169983</ele><time>2008-04-19T12:37:37Z</time></trkpt>
<trkpt lat="46.60696699" lon="6.37669997"><ele>782.650024</ele><time>2008-04-19T12:37:40Z</time></trkpt>
<trkpt lat="46.60740101" lon="6.37691799"><ele>786.5</ele><time>2008-04-19T12:37:53Z</time></trkpt>
<trkpt lat="46.60742397" lon="6.37686803"><ele>788.900024</ele><time>2008-04-19T12:38:00Z</time></trkpt>
<trkpt lat="46.60748298" lon="6.37675697"><ele>786.5</ele><time>2008-04-19T12:38:07Z</time></trkpt>
<trkpt lat="46.60773997" lon="6.37652496"><ele>789.859985</ele><time>2008-04-19T12:38:24Z</time></trkpt>
<trkpt lat="46.60774902" lon="6.37651096"><ele>790.340027</ele><time>2008-04-19T12:38:25Z</time></trkpt>
<trkpt lat="46.60800702" lon="6.37642002"><ele>793.710022</ele><time>2008-04-19T12:38:39Z</time></trkpt>
<trkpt lat="46.60812797" lon="6.37631801"><ele>793.219971</ele><time>2008-04-19T12:38:46Z</time></trkpt>
<trkpt lat="46.60812696" lon="6.37630996"><ele>790.820007</ele><time>2008-04-19T12:39:06Z</time></trkpt>
<trkpt lat="46.60814800" lon="6.37629597"><ele>790.820007</ele><time>2008-04-19T12:39:23Z</time></trkpt>
<trkpt lat="46.60837398" lon="6.37621298"><ele>791.780029</ele><time>2008-04-19T12:39:40Z</time></trkpt>
<trkpt lat="46.60842402" lon="6.37616697"><ele>792.26001</ele><time>2008-04-19T12:39:56Z</time></trkpt>
<trkpt lat="46.60860800" lon="6.37602397"><ele>796.109985</ele><time>2008-04-19T12:52:19Z</time></trkpt>
<trkpt lat="46.60886700" lon="6.37592096"><ele>799.469971</ele><time>2008-04-19T12:52:33Z</time></trkpt>
<trkpt lat="46.60917697" lon="6.37579297"><ele>801.880005</ele><time>2008-04-19T12:52:47Z</time></trkpt>
<trkpt lat="46.60951601" lon="6.37563304"><ele>806.679993</ele><time>2008-04-19T12:53:05Z</time></trkpt>
<trkpt lat="46.60982204" lon="6.37550103"><ele>811.01001</ele><time>2008-04-19T12:53:21Z</time></trkpt>
<trkpt lat="46.61006402" lon="6.37542601"><ele>811.969971</ele><time>2008-04-19T12:53:34Z</time></trkpt>
<trkpt lat="46.61031296" lon="6.37531897"><ele>811.969971</ele><time>2008-04-19T12:53:48Z</time></trkpt>
<trkpt lat="46.61037399" lon="6.37527597"><ele>812.450012</ele><time>2008-04-19T12:53:52Z</time></trkpt>
<trkpt lat="46.61052000" lon="6.37512200"><ele>811.01001</ele><time>2008-04-19T12:54:07Z</time></trkpt>
<trkpt lat="46.61068403" lon="6.37497003"><ele>816.299988</ele><time>2008-04-19T12:54:21Z</time></trkpt>
<trkpt lat="46.61082904" lon="6.37481597"><ele>821.099976</ele><time>2008-04-19T12:54:36Z</time></trkpt>
<trkpt lat="46.61088796" lon="6.37478798"><ele>822.549988</ele><time>2008-04-19T12:54:40Z</time></trkpt>
<trkpt lat="46.61121704" lon="6.37479301"><ele>834.559998</ele><time>2008-04-19T12:55:01Z</time></trkpt>
<trkpt lat="46.61124302" lon="6.37478404"><ele>836</ele><time>2008-04-19T12:55:03Z</time></trkpt>
<trkpt lat="46.61138803" lon="6.37476803"><ele>842.25</ele><time>2008-04-19T12:55:16Z</time></trkpt>
<trkpt lat="46.61159003" lon="6.37466300"><ele>847.059998</ele><time>2008-04-19T12:55:31Z</time></trkpt>
<trkpt lat="46.61181198" lon="6.37463702"><ele>853.309998</ele><time>2008-04-19T12:55:48Z</time></trkpt>
<trkpt lat="46.61215698" lon="6.37441901"><ele>860.52002</ele><time>2008-04-19T12:56:10Z</time></trkpt>
<trkpt lat="46.61237600" lon="6.37430803"><ele>861</ele><time>2008-04-19T12:56:25Z</time></trkpt>
<trkpt lat="46.61251104" lon="6.37428003"><ele>864.840027</ele><time>2008-04-19T12:56:41Z</time></trkpt>
<trkpt lat="46.61257499" lon="6.37421398"><ele>864.840027</ele><time>2008-04-19T12:57:29Z</time></trkpt>
<trkpt lat="46.61292703" lon="6.37405003"><ele>864.840027</ele><time>2008-04-19T12:57:48Z</time></trkpt>
<trkpt lat="46.61310196" lon="6.37406998"><ele>866.289978</ele><time>2008-04-19T12:58:02Z</time></trkpt>
<trkpt lat="46.61332098" lon="6.37420803"><ele>868.690002</ele><time>2008-04-19T12:58:15Z</time></trkpt>
<trkpt lat="46.61353497" lon="6.37426704"><ele>870.609985</ele><time>2008-04-19T12:58:29Z</time></trkpt>
<trkpt lat="46.61370303" lon="6.37426201"><ele>869.650024</ele><time>2008-04-19T12:58:39Z</time></trkpt>
<trkpt lat="46.61394099" lon="6.37433301"><ele>869.169983</ele><time>2008-04-19T12:58:53Z</time></trkpt>
<trkpt lat="46.61406504" lon="6.37432798"><ele>870.609985</ele><time>2008-04-19T12:59:04Z</time></trkpt>
<trkpt lat="46.61413101" lon="6.37432697"><ele>870.609985</ele><time>2008-04-19T12:59:09Z</time></trkpt>
<trkpt lat="46.61419001" lon="6.37436704"><ele>872.530029</ele><time>2008-04-19T12:59:12Z</time></trkpt>
<trkpt lat="46.61437601" lon="6.37432999"><ele>876.859985</ele><time>2008-04-19T12:59:26Z</time></trkpt>
<trkpt lat="46.61439202" lon="6.37432798"><ele>876.859985</ele><time>2008-04-19T12:59:27Z</time></trkpt>
<trkpt lat="46.61445497" lon="6.37430904"><ele>877.820007</ele><time>2008-04-19T12:59:33Z</time></trkpt>
<trkpt lat="46.61468103" lon="6.37428699"><ele>878.780029</ele><time>2008-04-19T12:59:48Z</time></trkpt>
<trkpt lat="46.61478898" lon="6.37423402"><ele>879.26001</ele><time>2008-04-19T12:59:55Z</time></trkpt>
<trkpt lat="46.61487004" lon="6.37415900"><ele>879.73999</ele><time>2008-04-19T13:00:01Z</time></trkpt>
<trkpt lat="46.61508000" lon="6.37393604"><ele>878.780029</ele><time>2008-04-19T13:00:18Z</time></trkpt>
<trkpt lat="46.61524404" lon="6.37381098"><ele>878.780029</ele><time>2008-04-19T13:00:30Z</time></trkpt>
<trkpt lat="46.61549499" lon="6.37380696"><ele>885.51001</ele><time>2008-04-19T13:00:44Z</time></trkpt>
<trkpt lat="46.61575098" lon="6.37365902"><ele>889.840027</ele><time>2008-04-19T13:00:59Z</time></trkpt>
<trkpt lat="46.61584603" lon="6.37356204"><ele>890.799988</ele><time>2008-04-19T13:01:06Z</time></trkpt>
<trkpt lat="46.61608600" lon="6.37364603"><ele>893.679993</ele><time>2008-04-19T13:01:21Z</time></trkpt>
<trkpt lat="46.61633201" lon="6.37377301"><ele>898.48999</ele><time>2008-04-19T13:01:34Z</time></trkpt>
<trkpt lat="46.61653200" lon="6.37388701"><ele>903.299988</ele><time>2008-04-19T13:01:46Z</time></trkpt>
<trkpt lat="46.61673401" lon="6.37399798"><ele>906.179993</ele><time>2008-04-19T13:01:58Z</time></trkpt>
<trkpt lat="46.61707297" lon="6.37408298"><ele>910.51001</ele><time>2008-04-19T13:02:12Z</time></trkpt>
<trkpt lat="46.61745099" lon="6.37429898"><ele>914.830017</ele><time>2008-04-19T13:02:25Z</time></trkpt>
<trkpt lat="46.61771301" lon="6.37437500"><ele>919.640015</ele><time>2008-04-19T13:02:39Z</time></trkpt>
<trkpt lat="46.61774998" lon="6.37439101"><ele>920.599976</ele><time>2008-04-19T13:02:41Z</time></trkpt>
<trkpt lat="46.61809498" lon="6.37445102"><ele>925.890015</ele><time>2008-04-19T13:02:57Z</time></trkpt>
<trkpt lat="46.61834098" lon="6.37448296"><ele>930.690002</ele><time>2008-04-19T13:03:09Z</time></trkpt>
<trkpt lat="46.61852597" lon="6.37458597"><ele>935.02002</ele><time>2008-04-19T13:03:22Z</time></trkpt>
<trkpt lat="46.61872999" lon="6.37467499"><ele>939.830017</ele><time>2008-04-19T13:03:36Z</time></trkpt>
<trkpt lat="46.61898497" lon="6.37478999"><ele>944.150024</ele><time>2008-04-19T13:03:52Z</time></trkpt>
<trkpt lat="46.61900600" lon="6.37480097"><ele>944.630005</ele><time>2008-04-19T13:03:54Z</time></trkpt>
<trkpt lat="46.61915797" lon="6.37490097"><ele>945.590027</ele><time>2008-04-19T13:04:02Z</time></trkpt>
<trkpt lat="46.61924204" lon="6.37490801"><ele>946.559998</ele><time>2008-04-19T13:04:08Z</time></trkpt>
<trkpt lat="46.61925897" lon="6.37484103"><ele>946.070007</ele><time>2008-04-19T13:04:11Z</time></trkpt>
<trkpt lat="46.61927498" lon="6.37472302"><ele>945.109985</ele><time>2008-04-19T13:04:17Z</time></trkpt>
<trkpt lat="46.61929501" lon="6.37465303"><ele>944.150024</ele><time>2008-04-19T13:04:22Z</time></trkpt>
<trkpt lat="46.61923299" lon="6.37448497"><ele>943.669983</ele><time>2008-04-19T13:04:30Z</time></trkpt>
<trkpt lat="46.61910499" lon="6.37421197"><ele>941.27002</ele><time>2008-04-19T13:04:44Z</time></trkpt>
<trkpt lat="46.61905898" lon="6.37409203"><ele>940.789978</ele><time>2008-04-19T13:04:50Z</time></trkpt>
<trkpt lat="46.61896301" lon="6.37381400"><ele>938.859985</ele><time>2008-04-19T13:05:03Z</time></trkpt>
<trkpt lat="46.61876301" lon="6.37369397"><ele>936.940002</ele><time>2008-04-19T13:05:17Z</time></trkpt>
<trkpt lat="46.61861298" lon="6.37340899"><ele>936.940002</ele><time>2008-04-19T13:05:31Z</time></trkpt>
<trkpt lat="46.61854902" lon="6.37325199"><ele>937.900024</ele><time>2008-04-19T13:05:39Z</time></trkpt>
<trkpt lat="46.61844903" lon="6.37292703"><ele>937.900024</ele><time>2008-04-19T13:05:51Z</time></trkpt>
<trkpt lat="46.61823504" lon="6.37265202"><ele>938.380005</ele><time>2008-04-19T13:06:06Z</time></trkpt>
<trkpt lat="46.61823403" lon="6.37257700"><ele>938.859985</ele><time>2008-04-19T13:06:09Z</time></trkpt>
<trkpt lat="46.61831802" lon="6.37249301"><ele>941.27002</ele><time>2008-04-19T13:06:15Z</time></trkpt>
<trkpt lat="46.61841298" lon="6.37256401"><ele>942.710022</ele><time>2008-04-19T13:06:20Z</time></trkpt>
<trkpt lat="46.61843704" lon="6.37256602"><ele>942.710022</ele><time>2008-04-19T13:06:22Z</time></trkpt>
<trkpt lat="46.61862597" lon="6.37281002"><ele>948.47998</ele><time>2008-04-19T13:06:36Z</time></trkpt>
<trkpt lat="46.61877902" lon="6.37298704"><ele>952.799988</ele><time>2008-04-19T13:06:47Z</time></trkpt>
<trkpt lat="46.61899704" lon="6.37293197"><ele>955.690002</ele><time>2008-04-19T13:06:58Z</time></trkpt>
<trkpt lat="46.61903601" lon="6.37285000"><ele>957.130005</ele><time>2008-04-19T13:07:02Z</time></trkpt>
<trkpt lat="46.61910198" lon="6.37277397"><ele>959.049988</ele><time>2008-04-19T13:07:07Z</time></trkpt>
<trkpt lat="46.61920801" lon="6.37279602"><ele>960.97998</ele><time>2008-04-19T13:07:11Z</time></trkpt>
<trkpt lat="46.61934698" lon="6.37281303"><ele>961.460022</ele><time>2008-04-19T13:07:18Z</time></trkpt>
<trkpt lat="46.61963096" lon="6.37289400"><ele>964.340027</ele><time>2008-04-19T13:07:32Z</time></trkpt>
<trkpt lat="46.61983598" lon="6.37294698"><ele>965.299988</ele><time>2008-04-19T13:07:43Z</time></trkpt>
<trkpt lat="46.62000697" lon="6.37302903"><ele>964.340027</ele><time>2008-04-19T13:07:51Z</time></trkpt>
<trkpt lat="46.62005500" lon="6.37303096"><ele>965.299988</ele><time>2008-04-19T13:07:54Z</time></trkpt>
<trkpt lat="46.62015500" lon="6.37283097"><ele>969.150024</ele><time>2008-04-19T13:08:07Z</time></trkpt>
<trkpt lat="46.61994897" lon="6.37255697"><ele>972.98999</ele><time>2008-04-19T13:08:23Z</time></trkpt>
<trkpt lat="46.61979902" lon="6.37232697"><ele>972.98999</ele><time>2008-04-19T13:08:34Z</time></trkpt>
<trkpt lat="46.61962400" lon="6.37203402"><ele>976.840027</ele><time>2008-04-19T13:08:48Z</time></trkpt>
<trkpt lat="46.61948503" lon="6.37174401"><ele>980.679993</ele><time>2008-04-19T13:09:01Z</time></trkpt>
<trkpt lat="46.61937900" lon="6.37150797"><ele>984.049988</ele><time>2008-04-19T13:09:12Z</time></trkpt>
<trkpt lat="46.61921698" lon="6.37123598"><ele>987.409973</ele><time>2008-04-19T13:09:25Z</time></trkpt>
<trkpt lat="46.61912997" lon="6.37111302"><ele>987.890015</ele><time>2008-04-19T13:09:32Z</time></trkpt>
<trkpt lat="46.61907901" lon="6.37109499"><ele>989.330017</ele><time>2008-04-19T13:09:36Z</time></trkpt>
<trkpt lat="46.61898497" lon="6.37108997"><ele>990.299988</ele><time>2008-04-19T13:09:42Z</time></trkpt>
<trkpt lat="46.61873301" lon="6.37103900"><ele>997.98999</ele><time>2008-04-19T13:09:59Z</time></trkpt>
<trkpt lat="46.61853402" lon="6.37092702"><ele>1001.830017</ele><time>2008-04-19T13:10:12Z</time></trkpt>
<trkpt lat="46.61826798" lon="6.37071798"><ele>1004.22998</ele><time>2008-04-19T13:10:27Z</time></trkpt>
<trkpt lat="46.61806799" lon="6.37046903"><ele>1005.679993</ele><time>2008-04-19T13:10:41Z</time></trkpt>
<trkpt lat="46.61798098" lon="6.37020802"><ele>1003.27002</ele><time>2008-04-19T13:10:52Z</time></trkpt>
<trkpt lat="46.61793496" lon="6.36981902"><ele>1001.349976</ele><time>2008-04-19T13:11:05Z</time></trkpt>
<trkpt lat="46.61793002" lon="6.36973998"><ele>1001.349976</ele><time>2008-04-19T13:11:08Z</time></trkpt>
<trkpt lat="46.61803496" lon="6.36946798"><ele>999.429993</ele><time>2008-04-19T13:11:21Z</time></trkpt>
<trkpt lat="46.61816698" lon="6.36945700"><ele>999.429993</ele><time>2008-04-19T13:11:34Z</time></trkpt>
<trkpt lat="46.61828298" lon="6.36957896"><ele>999.429993</ele><time>2008-04-19T13:11:39Z</time></trkpt>
<trkpt lat="46.61838499" lon="6.36970502"><ele>1000.869995</ele><time>2008-04-19T13:11:47Z</time></trkpt>
<trkpt lat="46.61851399" lon="6.36979303"><ele>1004.22998</ele><time>2008-04-19T13:11:57Z</time></trkpt>
<trkpt lat="46.61870199" lon="6.36975800"><ele>1006.159973</ele><time>2008-04-19T13:12:08Z</time></trkpt>
<trkpt lat="46.61880199" lon="6.36974098"><ele>1007.119995</ele><time>2008-04-19T13:12:13Z</time></trkpt>
<trkpt lat="46.61894096" lon="6.36970100"><ele>1008.080017</ele><time>2008-04-19T13:12:20Z</time></trkpt>
<trkpt lat="46.61922402" lon="6.36962799"><ele>1016.25</ele><time>2008-04-19T13:12:36Z</time></trkpt>
<trkpt lat="46.61942602" lon="6.36950998"><ele>1019.619995</ele><time>2008-04-19T13:12:50Z</time></trkpt>
<trkpt lat="46.61952401" lon="6.36937704"><ele>1021.539978</ele><time>2008-04-19T13:12:58Z</time></trkpt>
<trkpt lat="46.61965300" lon="6.36924804"><ele>1021.539978</ele><time>2008-04-19T13:13:09Z</time></trkpt>
<trkpt lat="46.61972098" lon="6.36922399"><ele>1022.5</ele><time>2008-04-19T13:13:13Z</time></trkpt>
<trkpt lat="46.61994704" lon="6.36924301"><ele>1029.709961</ele><time>2008-04-19T13:13:24Z</time></trkpt>
<trkpt lat="46.62019900" lon="6.36932499"><ele>1035.47998</ele><time>2008-04-19T13:13:39Z</time></trkpt>
<trkpt lat="46.62044803" lon="6.36935902"><ele>1038.359985</ele><time>2008-04-19T13:13:53Z</time></trkpt>
<trkpt lat="46.62063201" lon="6.36940503"><ele>1042.689941</ele><time>2008-04-19T13:14:05Z</time></trkpt>
<trkpt lat="46.62082203" lon="6.36947804"><ele>1047.969971</ele><time>2008-04-19T13:14:19Z</time></trkpt>
<trkpt lat="46.62104398" lon="6.36954702"><ele>1053.73999</ele><time>2008-04-19T13:14:32Z</time></trkpt>
<trkpt lat="46.62114096" lon="6.36957603"><ele>1055.180054</ele><time>2008-04-19T13:14:37Z</time></trkpt>
<trkpt lat="46.62137096" lon="6.36963503"><ele>1058.550049</ele><time>2008-04-19T13:14:52Z</time></trkpt>
<trkpt lat="46.62161001" lon="6.36972497"><ele>1061.430054</ele><time>2008-04-19T13:15:07Z</time></trkpt>
<trkpt lat="46.62185904" lon="6.36973604"><ele>1062.869995</ele><time>2008-04-19T13:15:19Z</time></trkpt>
<trkpt lat="46.62203103" lon="6.36969002"><ele>1064.800049</ele><time>2008-04-19T13:15:31Z</time></trkpt>
<trkpt lat="46.62209197" lon="6.36967703"><ele>1064.800049</ele><time>2008-04-19T13:15:35Z</time></trkpt>
<trkpt lat="46.62228299" lon="6.36963001"><ele>1062.869995</ele><time>2008-04-19T13:15:48Z</time></trkpt>
<trkpt lat="46.62236203" lon="6.36957703"><ele>1062.869995</ele><time>2008-04-19T13:15:53Z</time></trkpt>
<trkpt lat="46.62265699" lon="6.36968298"><ele>1062.869995</ele><time>2008-04-19T13:16:08Z</time></trkpt>
<trkpt lat="46.62274500" lon="6.36971097"><ele>1063.839966</ele><time>2008-04-19T13:16:12Z</time></trkpt>
<trkpt lat="46.62278297" lon="6.36969698"><ele>1064.319946</ele><time>2008-04-19T13:16:14Z</time></trkpt>
<trkpt lat="46.62289303" lon="6.36972799"><ele>1065.76001</ele><time>2008-04-19T13:16:20Z</time></trkpt>
<trkpt lat="46.62304197" lon="6.36972799"><ele>1064.800049</ele><time>2008-04-19T13:16:28Z</time></trkpt>
<trkpt lat="46.62328304" lon="6.36966303"><ele>1074.410034</ele><time>2008-04-19T13:16:42Z</time></trkpt>
<trkpt lat="46.62341204" lon="6.36957703"><ele>1077.290039</ele><time>2008-04-19T13:16:50Z</time></trkpt>
<trkpt lat="46.62363499" lon="6.36943697"><ele>1076.810059</ele><time>2008-04-19T13:17:05Z</time></trkpt>
<trkpt lat="46.62384496" lon="6.36937402"><ele>1074.890015</ele><time>2008-04-19T13:17:17Z</time></trkpt>
<trkpt lat="46.62402400" lon="6.36930998"><ele>1078.26001</ele><time>2008-04-19T13:17:29Z</time></trkpt>
<trkpt lat="46.62426196" lon="6.36929900"><ele>1081.140015</ele><time>2008-04-19T13:17:43Z</time></trkpt>
<trkpt lat="46.62451501" lon="6.36931501"><ele>1083.540039</ele><time>2008-04-19T13:17:53Z</time></trkpt>
<trkpt lat="46.62482497" lon="6.36935298"><ele>1084.5</ele><time>2008-04-19T13:18:05Z</time></trkpt>
<trkpt lat="46.62513100" lon="6.36945801"><ele>1084.5</ele><time>2008-04-19T13:18:17Z</time></trkpt>
<trkpt lat="46.62514600" lon="6.36947402"><ele>1084.5</ele><time>2008-04-19T13:18:18Z</time></trkpt>
<trkpt lat="46.62526301" lon="6.36950201"><ele>1084.98999</ele><time>2008-04-19T13:18:23Z</time></trkpt>
<trkpt lat="46.62552101" lon="6.36961098"><ele>1085.949951</ele><time>2008-04-19T13:18:37Z</time></trkpt>
<trkpt lat="46.62580297" lon="6.36972698"><ele>1086.910034</ele><time>2008-04-19T13:19:15Z</time></trkpt>
<trkpt lat="46.62591403" lon="6.36979102"><ele>1085.949951</ele><time>2008-04-19T13:19:20Z</time></trkpt>
<trkpt lat="46.62620396" lon="6.36989102"><ele>1086.430054</ele><time>2008-04-19T13:19:32Z</time></trkpt>
<trkpt lat="46.62650596" lon="6.36997098"><ele>1085.469971</ele><time>2008-04-19T13:19:43Z</time></trkpt>
<trkpt lat="46.62685499" lon="6.37024398"><ele>1087.390015</ele><time>2008-04-19T13:19:55Z</time></trkpt>
<trkpt lat="46.62723997" lon="6.37074203"><ele>1081.619995</ele><time>2008-04-19T13:20:06Z</time></trkpt>
<trkpt lat="46.62754599" lon="6.37128702"><ele>1076.810059</ele><time>2008-04-19T13:20:17Z</time></trkpt>
<trkpt lat="46.62784397" lon="6.37198096"><ele>1072.969971</ele><time>2008-04-19T13:20:31Z</time></trkpt>
<trkpt lat="46.62812099" lon="6.37216796"><ele>1072.01001</ele><time>2008-04-19T13:20:39Z</time></trkpt>
<trkpt lat="46.62838703" lon="6.37215799"><ele>1072.48999</ele><time>2008-04-19T13:20:45Z</time></trkpt>
<trkpt lat="46.62867998" lon="6.37196797"><ele>1072.01001</ele><time>2008-04-19T13:20:51Z</time></trkpt>
<trkpt lat="46.62875198" lon="6.37187996"><ele>1072.01001</ele><time>2008-04-19T13:20:53Z</time></trkpt>
<trkpt lat="46.62887502" lon="6.37171500"><ele>1072.969971</ele><time>2008-04-19T13:20:56Z</time></trkpt>
<trkpt lat="46.62893403" lon="6.37152499"><ele>1071.530029</ele><time>2008-04-19T13:20:59Z</time></trkpt>
<trkpt lat="46.62895700" lon="6.37139699"><ele>1071.530029</ele><time>2008-04-19T13:21:01Z</time></trkpt>
<trkpt lat="46.62913101" lon="6.37048102"><ele>1071.530029</ele><time>2008-04-19T13:21:17Z</time></trkpt>
<trkpt lat="46.62939101" lon="6.36975900"><ele>1075.369995</ele><time>2008-04-19T13:21:33Z</time></trkpt>
<trkpt lat="46.62970299" lon="6.36907303"><ele>1082.579956</ele><time>2008-04-19T13:21:50Z</time></trkpt>
<trkpt lat="46.62993299" lon="6.36858797"><ele>1080.660034</ele><time>2008-04-19T13:22:04Z</time></trkpt>
<trkpt lat="46.63007104" lon="6.36803904"><ele>1077.780029</ele><time>2008-04-19T13:22:18Z</time></trkpt>
<trkpt lat="46.63024597" lon="6.36757200"><ele>1074.890015</ele><time>2008-04-19T13:22:30Z</time></trkpt>
<trkpt lat="46.63050899" lon="6.36725399"><ele>1072.969971</ele><time>2008-04-19T13:22:44Z</time></trkpt>
<trkpt lat="46.63080898" lon="6.36689197"><ele>1072.969971</ele><time>2008-04-19T13:23:00Z</time></trkpt>
<trkpt lat="46.63117100" lon="6.36686901"><ele>1079.219971</ele><time>2008-04-19T13:23:13Z</time></trkpt>
<trkpt lat="46.63140200" lon="6.36699901"><ele>1086.430054</ele><time>2008-04-19T13:23:23Z</time></trkpt>
<trkpt lat="46.63186502" lon="6.36719104"><ele>1087.390015</ele><time>2008-04-19T13:23:36Z</time></trkpt>
<trkpt lat="46.63229601" lon="6.36709800"><ele>1089.790039</ele><time>2008-04-19T13:23:49Z</time></trkpt>
<trkpt lat="46.63238897" lon="6.36705701"><ele>1090.75</ele><time>2008-04-19T13:23:54Z</time></trkpt>
<trkpt lat="46.63257002" lon="6.36701301"><ele>1094.599976</ele><time>2008-04-19T13:24:06Z</time></trkpt>
<trkpt lat="46.63272299" lon="6.36697797"><ele>1092.199951</ele><time>2008-04-19T13:24:19Z</time></trkpt>
<trkpt lat="46.63294000" lon="6.36693698"><ele>1092.199951</ele><time>2008-04-19T13:24:32Z</time></trkpt>
<trkpt lat="46.63321400" lon="6.36700697"><ele>1095.079956</ele><time>2008-04-19T13:24:43Z</time></trkpt>
<trkpt lat="46.63352002" lon="6.36732297"><ele>1091.709961</ele><time>2008-04-19T13:24:55Z</time></trkpt>
<trkpt lat="46.63398304" lon="6.36773402"><ele>1097.959961</ele><time>2008-04-19T13:25:13Z</time></trkpt>
<trkpt lat="46.63437104" lon="6.36775699"><ele>1098.920044</ele><time>2008-04-19T13:25:28Z</time></trkpt>
<trkpt lat="46.63462602" lon="6.36756202"><ele>1100.369995</ele><time>2008-04-19T13:25:40Z</time></trkpt>
<trkpt lat="46.63486700" lon="6.36728198"><ele>1099.890015</ele><time>2008-04-19T13:25:54Z</time></trkpt>
<trkpt lat="46.63509096" lon="6.36695702"><ele>1098.920044</ele><time>2008-04-19T13:26:08Z</time></trkpt>
<trkpt lat="46.63513798" lon="6.36685601"><ele>1098.439941</ele><time>2008-04-19T13:26:11Z</time></trkpt>
<trkpt lat="46.63532096" lon="6.36655100"><ele>1097</ele><time>2008-04-19T13:26:24Z</time></trkpt>
<trkpt lat="46.63557703" lon="6.36622000"><ele>1095.079956</ele><time>2008-04-19T13:26:37Z</time></trkpt>
<trkpt lat="46.63568297" lon="6.36595798"><ele>1093.640015</ele><time>2008-04-19T13:26:47Z</time></trkpt>
<trkpt lat="46.63576998" lon="6.36557601"><ele>1093.640015</ele><time>2008-04-19T13:27:01Z</time></trkpt>
<trkpt lat="46.63580300" lon="6.36542003"><ele>1096.040039</ele><time>2008-04-19T13:27:07Z</time></trkpt>
<trkpt lat="46.63584801" lon="6.36508500"><ele>1105.650024</ele><time>2008-04-19T13:27:20Z</time></trkpt>
<trkpt lat="46.63584902" lon="6.36475601"><ele>1112.380005</ele><time>2008-04-19T13:27:35Z</time></trkpt>
<trkpt lat="46.63584097" lon="6.36445401"><ele>1120.550049</ele><time>2008-04-19T13:27:50Z</time></trkpt>
<trkpt lat="46.63583896" lon="6.36433298"><ele>1121.52002</ele><time>2008-04-19T13:27:55Z</time></trkpt>
<trkpt lat="46.63585598" lon="6.36426299"><ele>1122.47998</ele><time>2008-04-19T13:27:59Z</time></trkpt>
<trkpt lat="46.63589101" lon="6.36402100"><ele>1125.359985</ele><time>2008-04-19T13:28:11Z</time></trkpt>
<trkpt lat="46.63589797" lon="6.36400298"><ele>1125.359985</ele><time>2008-04-19T13:28:12Z</time></trkpt>
<trkpt lat="46.63590702" lon="6.36378899"><ele>1125.359985</ele><time>2008-04-19T13:28:22Z</time></trkpt>
<trkpt lat="46.63591197" lon="6.36354600"><ele>1128.23999</ele><time>2008-04-19T13:28:36Z</time></trkpt>
<trkpt lat="46.63592898" lon="6.36352697"><ele>1129.209961</ele><time>2008-04-19T13:28:38Z</time></trkpt>
<trkpt lat="46.63592898" lon="6.36330603"><ele>1133.050049</ele><time>2008-04-19T13:28:48Z</time></trkpt>
<trkpt lat="46.63593703" lon="6.36321500"><ele>1134.01001</ele><time>2008-04-19T13:28:53Z</time></trkpt>
<trkpt lat="46.63594298" lon="6.36304803"><ele>1139.300049</ele><time>2008-04-19T13:29:02Z</time></trkpt>
<trkpt lat="46.63601599" lon="6.36268501"><ele>1139.780029</ele><time>2008-04-19T13:29:19Z</time></trkpt>
<trkpt lat="46.63598900" lon="6.36260203"><ele>1140.73999</ele><time>2008-04-19T13:29:22Z</time></trkpt>
<trkpt lat="46.63600199" lon="6.36252299"><ele>1141.219971</ele><time>2008-04-19T13:29:26Z</time></trkpt>
<trkpt lat="46.63596896" lon="6.36220800"><ele>1142.180054</ele><time>2008-04-19T13:29:40Z</time></trkpt>
<trkpt lat="46.63595497" lon="6.36202603"><ele>1142.180054</ele><time>2008-04-19T13:29:50Z</time></trkpt>
<trkpt lat="46.63587299" lon="6.36185302"><ele>1143.140015</ele><time>2008-04-19T13:30:00Z</time></trkpt>
<trkpt lat="46.63582496" lon="6.36156997"><ele>1143.630005</ele><time>2008-04-19T13:30:15Z</time></trkpt>
<trkpt lat="46.63576403" lon="6.36119002"><ele>1142.660034</ele><time>2008-04-19T13:30:28Z</time></trkpt>
<trkpt lat="46.63579403" lon="6.36083999"><ele>1141.699951</ele><time>2008-04-19T13:30:39Z</time></trkpt>
<trkpt lat="46.63576897" lon="6.36052902"><ele>1143.630005</ele><time>2008-04-19T13:30:51Z</time></trkpt>
<trkpt lat="46.63571198" lon="6.36047998"><ele>1152.76001</ele><time>2008-04-19T13:31:05Z</time></trkpt>
<trkpt lat="46.63568499" lon="6.36048904"><ele>1156.119995</ele><time>2008-04-19T13:31:16Z</time></trkpt>
<trkpt lat="46.63555901" lon="6.36050999"><ele>1159.969971</ele><time>2008-04-19T13:31:25Z</time></trkpt>
<trkpt lat="46.63526203" lon="6.36049700"><ele>1164.77002</ele><time>2008-04-19T13:31:40Z</time></trkpt>
<trkpt lat="46.63503396" lon="6.36046196"><ele>1169.099976</ele><time>2008-04-19T13:31:53Z</time></trkpt>
<trkpt lat="46.63481796" lon="6.36030497"><ele>1176.310059</ele><time>2008-04-19T13:32:06Z</time></trkpt>
<trkpt lat="46.63478100" lon="6.36025996"><ele>1175.829956</ele><time>2008-04-19T13:32:08Z</time></trkpt>
<trkpt lat="46.63484101" lon="6.35997204"><ele>1179.670044</ele><time>2008-04-19T13:32:24Z</time></trkpt>
<trkpt lat="46.63500899" lon="6.35980901"><ele>1180.640015</ele><time>2008-04-19T13:32:36Z</time></trkpt>
<trkpt lat="46.63524896" lon="6.35970902"><ele>1183.040039</ele><time>2008-04-19T13:32:49Z</time></trkpt>
<trkpt lat="46.63543697" lon="6.35956996"><ele>1189.290039</ele><time>2008-04-19T13:33:02Z</time></trkpt>
<trkpt lat="46.63564098" lon="6.35938103"><ele>1196.02002</ele><time>2008-04-19T13:33:16Z</time></trkpt>
<trkpt lat="46.63578498" lon="6.35925002"><ele>1197.939941</ele><time>2008-04-19T13:33:28Z</time></trkpt>
<trkpt lat="46.63583997" lon="6.35921599"><ele>1198.900024</ele><time>2008-04-19T13:33:32Z</time></trkpt>
<trkpt lat="46.63611799" lon="6.35916696"><ele>1205.150024</ele><time>2008-04-19T13:33:49Z</time></trkpt>
<trkpt lat="46.63632796" lon="6.35904400"><ele>1207.069946</ele><time>2008-04-19T13:34:04Z</time></trkpt>
<trkpt lat="46.63652603" lon="6.35889798"><ele>1208.030029</ele><time>2008-04-19T13:34:18Z</time></trkpt>
<trkpt lat="46.63671403" lon="6.35875097"><ele>1206.589966</ele><time>2008-04-19T13:34:32Z</time></trkpt>
<trkpt lat="46.63690497" lon="6.35854200"><ele>1210.920044</ele><time>2008-04-19T13:34:50Z</time></trkpt>
<trkpt lat="46.63698301" lon="6.35833103"><ele>1211.880005</ele><time>2008-04-19T13:35:02Z</time></trkpt>
<trkpt lat="46.63699499" lon="6.35819097"><ele>1214.76001</ele><time>2008-04-19T13:35:09Z</time></trkpt>
<trkpt lat="46.63699700" lon="6.35813599"><ele>1216.209961</ele><time>2008-04-19T13:35:12Z</time></trkpt>
<trkpt lat="46.63703104" lon="6.35808402"><ele>1216.209961</ele><time>2008-04-19T13:35:16Z</time></trkpt>
<trkpt lat="46.63708602" lon="6.35807203"><ele>1216.689941</ele><time>2008-04-19T13:35:21Z</time></trkpt>
<trkpt lat="46.63715098" lon="6.35800296"><ele>1216.689941</ele><time>2008-04-19T13:35:25Z</time></trkpt>
<trkpt lat="46.63735902" lon="6.35781303"><ele>1223.420044</ele><time>2008-04-19T13:35:43Z</time></trkpt>
<trkpt lat="46.63748500" lon="6.35764497"><ele>1226.300049</ele><time>2008-04-19T13:35:58Z</time></trkpt>
<trkpt lat="46.63761098" lon="6.35742897"><ele>1227.73999</ele><time>2008-04-19T13:36:12Z</time></trkpt>
<trkpt lat="46.63765398" lon="6.35735102"><ele>1227.73999</ele><time>2008-04-19T13:36:17Z</time></trkpt>
<trkpt lat="46.63775104" lon="6.35708196"><ele>1228.699951</ele><time>2008-04-19T13:36:34Z</time></trkpt>
<trkpt lat="46.63781902" lon="6.35681600"><ele>1230.140015</ele><time>2008-04-19T13:36:50Z</time></trkpt>
<trkpt lat="46.63781097" lon="6.35667301"><ele>1230.619995</ele><time>2008-04-19T13:36:58Z</time></trkpt>
<trkpt lat="46.63778197" lon="6.35661199"><ele>1230.619995</ele><time>2008-04-19T13:37:02Z</time></trkpt>
<trkpt lat="46.63753898" lon="6.35648098"><ele>1233.98999</ele><time>2008-04-19T13:37:19Z</time></trkpt>
<trkpt lat="46.63740403" lon="6.35639003"><ele>1234.949951</ele><time>2008-04-19T13:37:29Z</time></trkpt>
<trkpt lat="46.63723002" lon="6.35624997"><ele>1240.719971</ele><time>2008-04-19T13:37:42Z</time></trkpt>
<trkpt lat="46.63704897" lon="6.35608301"><ele>1245.040039</ele><time>2008-04-19T13:37:57Z</time></trkpt>
<trkpt lat="46.63679902" lon="6.35594303"><ele>1243.119995</ele><time>2008-04-19T13:38:14Z</time></trkpt>
<trkpt lat="46.63659501" lon="6.35583197"><ele>1244.560059</ele><time>2008-04-19T13:38:28Z</time></trkpt>
<trkpt lat="46.63634297" lon="6.35562100"><ele>1249.849976</ele><time>2008-04-19T13:38:46Z</time></trkpt>
<trkpt lat="46.63614700" lon="6.35547096"><ele>1252.73999</ele><time>2008-04-19T13:39:01Z</time></trkpt>
<trkpt lat="46.63588104" lon="6.35535596"><ele>1254.660034</ele><time>2008-04-19T13:39:18Z</time></trkpt>
<trkpt lat="46.63564500" lon="6.35516896"><ele>1259.459961</ele><time>2008-04-19T13:39:35Z</time></trkpt>
<trkpt lat="46.63540704" lon="6.35501398"><ele>1264.27002</ele><time>2008-04-19T13:39:52Z</time></trkpt>
<trkpt lat="46.63518299" lon="6.35487501"><ele>1266.189941</ele><time>2008-04-19T13:40:07Z</time></trkpt>
<trkpt lat="46.63495299" lon="6.35480099"><ele>1267.640015</ele><time>2008-04-19T13:40:23Z</time></trkpt>
<trkpt lat="46.63471897" lon="6.35472304"><ele>1270.040039</ele><time>2008-04-19T13:40:39Z</time></trkpt>
<trkpt lat="46.63448201" lon="6.35468398"><ele>1274.359985</ele><time>2008-04-19T13:40:55Z</time></trkpt>
<trkpt lat="46.63426400" lon="6.35455297"><ele>1276.290039</ele><time>2008-04-19T13:41:10Z</time></trkpt>
<trkpt lat="46.63415303" lon="6.35444300"><ele>1279.650024</ele><time>2008-04-19T13:41:18Z</time></trkpt>
<trkpt lat="46.63406803" lon="6.35436002"><ele>1280.609985</ele><time>2008-04-19T13:41:26Z</time></trkpt>
<trkpt lat="46.63403601" lon="6.35428702"><ele>1281.569946</ele><time>2008-04-19T13:41:30Z</time></trkpt>
<trkpt lat="46.63386502" lon="6.35400496"><ele>1288.780029</ele><time>2008-04-19T13:41:46Z</time></trkpt>
<trkpt lat="46.63385002" lon="6.35398300"><ele>1290.709961</ele><time>2008-04-19T13:42:07Z</time></trkpt>
<trkpt lat="46.63373997" lon="6.35379097"><ele>1289.27002</ele><time>2008-04-19T13:42:22Z</time></trkpt>
<trkpt lat="46.63372303" lon="6.35377798"><ele>1289.75</ele><time>2008-04-19T13:42:23Z</time></trkpt>
<trkpt lat="46.63346998" lon="6.35345503"><ele>1290.22998</ele><time>2008-04-19T13:42:40Z</time></trkpt>
<trkpt lat="46.63320302" lon="6.35316200"><ele>1289.27002</ele><time>2008-04-19T13:42:56Z</time></trkpt>
<trkpt lat="46.63312498" lon="6.35305102"><ele>1292.150024</ele><time>2008-04-19T13:43:01Z</time></trkpt>
<trkpt lat="46.63287302" lon="6.35268096"><ele>1295.51001</ele><time>2008-04-19T13:43:17Z</time></trkpt>
<trkpt lat="46.63259600" lon="6.35230000"><ele>1296.959961</ele><time>2008-04-19T13:43:33Z</time></trkpt>
<trkpt lat="46.63227397" lon="6.35194201"><ele>1295.51001</ele><time>2008-04-19T13:43:50Z</time></trkpt>
<trkpt lat="46.63206501" lon="6.35165703"><ele>1299.359985</ele><time>2008-04-19T13:44:02Z</time></trkpt>
<trkpt lat="46.63184197" lon="6.35116903"><ele>1302.719971</ele><time>2008-04-19T13:44:19Z</time></trkpt>
<trkpt lat="46.63170802" lon="6.35074801"><ele>1307.530029</ele><time>2008-04-19T13:44:34Z</time></trkpt>
<trkpt lat="46.63159001" lon="6.35036303"><ele>1306.089966</ele><time>2008-04-19T13:44:48Z</time></trkpt>
<trkpt lat="46.63130896" lon="6.35000302"><ele>1307.530029</ele><time>2008-04-19T13:45:04Z</time></trkpt>
<trkpt lat="46.63096799" lon="6.34985399"><ele>1308.01001</ele><time>2008-04-19T13:45:21Z</time></trkpt>
<trkpt lat="46.63071804" lon="6.34993304"><ele>1310.900024</ele><time>2008-04-19T13:45:35Z</time></trkpt>
<trkpt lat="46.63044504" lon="6.35000504"><ele>1313.780029</ele><time>2008-04-19T13:45:52Z</time></trkpt>
<trkpt lat="46.63020196" lon="6.35008601"><ele>1315.699951</ele><time>2008-04-19T13:46:06Z</time></trkpt>
<trkpt lat="46.62995403" lon="6.35018902"><ele>1317.619995</ele><time>2008-04-19T13:46:21Z</time></trkpt>
<trkpt lat="46.62971799" lon="6.35035498"><ele>1321.469971</ele><time>2008-04-19T13:46:36Z</time></trkpt>
<trkpt lat="46.62945103" lon="6.35054299"><ele>1321.469971</ele><time>2008-04-19T13:46:51Z</time></trkpt>
<trkpt lat="46.62912799" lon="6.35056302"><ele>1324.349976</ele><time>2008-04-19T13:47:06Z</time></trkpt>
<trkpt lat="46.62888399" lon="6.35049102"><ele>1325.800049</ele><time>2008-04-19T13:47:19Z</time></trkpt>
<trkpt lat="46.62861401" lon="6.35047199"><ele>1327.719971</ele><time>2008-04-19T13:47:35Z</time></trkpt>
<trkpt lat="46.62851804" lon="6.35049898"><ele>1329.160034</ele><time>2008-04-19T13:47:41Z</time></trkpt>
<trkpt lat="46.62827203" lon="6.35055397"><ele>1331.079956</ele><time>2008-04-19T13:47:56Z</time></trkpt>
<trkpt lat="46.62803499" lon="6.35062404"><ele>1335.410034</ele><time>2008-04-19T13:48:12Z</time></trkpt>
<trkpt lat="46.62775897" lon="6.35072404"><ele>1342.140015</ele><time>2008-04-19T13:48:32Z</time></trkpt>
<trkpt lat="46.62764104" lon="6.35077902"><ele>1343.099976</ele><time>2008-04-19T13:48:41Z</time></trkpt>
<trkpt lat="46.62748698" lon="6.35087399"><ele>1345.5</ele><time>2008-04-19T13:48:55Z</time></trkpt>
<trkpt lat="46.62747801" lon="6.35087801"><ele>1345.97998</ele><time>2008-04-19T13:48:56Z</time></trkpt>
<trkpt lat="46.62746703" lon="6.35098203"><ele>1345.97998</ele><time>2008-04-19T13:49:02Z</time></trkpt>
<trkpt lat="46.62750802" lon="6.35106904"><ele>1347.430054</ele><time>2008-04-19T13:49:08Z</time></trkpt>
<trkpt lat="46.62756803" lon="6.35108496"><ele>1348.390015</ele><time>2008-04-19T13:49:13Z</time></trkpt>
<trkpt lat="46.62762503" lon="6.35111899"><ele>1348.390015</ele><time>2008-04-19T13:49:18Z</time></trkpt>
<trkpt lat="46.62781203" lon="6.35121597"><ele>1351.27002</ele><time>2008-04-19T13:49:32Z</time></trkpt>
<trkpt lat="46.62799199" lon="6.35138101"><ele>1357.52002</ele><time>2008-04-19T13:49:47Z</time></trkpt>
<trkpt lat="46.62800297" lon="6.35138696"><ele>1358</ele><time>2008-04-19T13:49:48Z</time></trkpt>
<trkpt lat="46.62819601" lon="6.35159098"><ele>1360.400024</ele><time>2008-04-19T13:50:04Z</time></trkpt>
<trkpt lat="46.62820900" lon="6.35161998"><ele>1360.400024</ele><time>2008-04-19T13:50:06Z</time></trkpt>
<trkpt lat="46.62827496" lon="6.35167999"><ele>1360.400024</ele><time>2008-04-19T13:50:11Z</time></trkpt>
<trkpt lat="46.62859700" lon="6.35184201"><ele>1362.329956</ele><time>2008-04-19T13:50:27Z</time></trkpt>
<trkpt lat="46.62882096" lon="6.35202197"><ele>1369.540039</ele><time>2008-04-19T13:50:42Z</time></trkpt>
<trkpt lat="46.62906496" lon="6.35213203"><ele>1374.339966</ele><time>2008-04-19T13:50:57Z</time></trkpt>
<trkpt lat="46.62918700" lon="6.35238499"><ele>1371.939941</ele><time>2008-04-19T13:51:12Z</time></trkpt>
<trkpt lat="46.62908600" lon="6.35250804"><ele>1372.900024</ele><time>2008-04-19T13:51:22Z</time></trkpt>
<trkpt lat="46.62891400" lon="6.35262304"><ele>1376.26001</ele><time>2008-04-19T13:51:35Z</time></trkpt>
<trkpt lat="46.62863203" lon="6.35276997"><ele>1379.630005</ele><time>2008-04-19T13:51:54Z</time></trkpt>
<trkpt lat="46.62839298" lon="6.35284902"><ele>1382.030029</ele><time>2008-04-19T13:52:10Z</time></trkpt>
<trkpt lat="46.62810397" lon="6.35295597"><ele>1386.359985</ele><time>2008-04-19T13:52:29Z</time></trkpt>
<trkpt lat="46.62794103" lon="6.35302797"><ele>1388.280029</ele><time>2008-04-19T13:52:40Z</time></trkpt>
<trkpt lat="46.62786702" lon="6.35309704"><ele>1389.719971</ele><time>2008-04-19T13:52:45Z</time></trkpt>
<trkpt lat="46.62758597" lon="6.35325998"><ele>1393.569946</ele><time>2008-04-19T13:53:04Z</time></trkpt>
<trkpt lat="46.62738598" lon="6.35351202"><ele>1395.969971</ele><time>2008-04-19T13:53:19Z</time></trkpt>
<trkpt lat="46.62723100" lon="6.35378703"><ele>1400.300049</ele><time>2008-04-19T13:53:35Z</time></trkpt>
<trkpt lat="46.62719504" lon="6.35392500"><ele>1399.339966</ele><time>2008-04-19T13:53:41Z</time></trkpt>
<trkpt lat="46.62715900" lon="6.35393900"><ele>1398.859985</ele><time>2008-04-19T13:53:44Z</time></trkpt>
<trkpt lat="46.62712698" lon="6.35383699"><ele>1398.859985</ele><time>2008-04-19T13:53:57Z</time></trkpt>
<trkpt lat="46.62713997" lon="6.35382802"><ele>1399.819946</ele><time>2008-04-19T13:53:58Z</time></trkpt>
<trkpt lat="46.62717702" lon="6.35394000"><ele>1399.339966</ele><time>2008-04-19T13:54:09Z</time></trkpt>
<trkpt lat="46.62718004" lon="6.35393900"><ele>1400.300049</ele><time>2008-04-19T13:57:53Z</time></trkpt>
<trkpt lat="46.62721398" lon="6.35385602"><ele>1399.819946</ele><time>2008-04-19T13:57:57Z</time></trkpt>
<trkpt lat="46.62729998" lon="6.35359299"><ele>1401.26001</ele><time>2008-04-19T13:58:05Z</time></trkpt>
<trkpt lat="46.62765001" lon="6.35323500"><ele>1401.73999</ele><time>2008-04-19T13:58:16Z</time></trkpt>
<trkpt lat="46.62813197" lon="6.35295404"><ele>1393.089966</ele><time>2008-04-19T13:58:25Z</time></trkpt>
<trkpt lat="46.62874804" lon="6.35272597"><ele>1388.76001</ele><time>2008-04-19T13:58:34Z</time></trkpt>
<trkpt lat="46.62906898" lon="6.35251600"><ele>1382.98999</ele><time>2008-04-19T13:58:38Z</time></trkpt>
<trkpt lat="46.62910100" lon="6.35213203"><ele>1370.02002</ele><time>2008-04-19T13:58:43Z</time></trkpt>
<trkpt lat="46.62885600" lon="6.35198099"><ele>1366.650024</ele><time>2008-04-19T13:58:46Z</time></trkpt>
<trkpt lat="46.62767801" lon="6.35115998"><ele>1356.079956</ele><time>2008-04-19T13:59:00Z</time></trkpt>
<trkpt lat="46.62761698" lon="6.35111002"><ele>1355.599976</ele><time>2008-04-19T13:59:01Z</time></trkpt>
<trkpt lat="46.62756099" lon="6.35084499"><ele>1352.22998</ele><time>2008-04-19T13:59:07Z</time></trkpt>
<trkpt lat="46.62762201" lon="6.35081699"><ele>1351.75</ele><time>2008-04-19T13:59:08Z</time></trkpt>
<trkpt lat="46.62860597" lon="6.35055103"><ele>1340.219971</ele><time>2008-04-19T13:59:17Z</time></trkpt>
<trkpt lat="46.62884200" lon="6.35055103"><ele>1338.290039</ele><time>2008-04-19T13:59:19Z</time></trkpt>
<trkpt lat="46.62930703" lon="6.35062002"><ele>1334.449951</ele><time>2008-04-19T13:59:23Z</time></trkpt>
<trkpt lat="46.63004204" lon="6.35019296"><ele>1333.01001</ele><time>2008-04-19T13:59:31Z</time></trkpt>
<trkpt lat="46.63079901" lon="6.34994603"><ele>1327.23999</ele><time>2008-04-19T13:59:40Z</time></trkpt>
<trkpt lat="46.63069398" lon="6.34963598"><ele>1313.780029</ele><time>2008-04-19T13:59:46Z</time></trkpt>
<trkpt lat="46.63046801" lon="6.34929601"><ele>1308.969971</ele><time>2008-04-19T13:59:51Z</time></trkpt>
<trkpt lat="46.63039802" lon="6.34890198"><ele>1309.930054</ele><time>2008-04-19T13:59:57Z</time></trkpt>
<trkpt lat="46.63070496" lon="6.34879796"><ele>1314.26001</ele><time>2008-04-19T14:00:09Z</time></trkpt>
<trkpt lat="46.63111500" lon="6.34892503"><ele>1315.699951</ele><time>2008-04-19T14:00:22Z</time></trkpt>
<trkpt lat="46.63154801" lon="6.34919199"><ele>1319.550049</ele><time>2008-04-19T14:00:37Z</time></trkpt>
<trkpt lat="46.63188698" lon="6.34948896"><ele>1318.589966</ele><time>2008-04-19T14:00:51Z</time></trkpt>
<trkpt lat="46.63193601" lon="6.34962399"><ele>1318.099976</ele><time>2008-04-19T14:00:54Z</time></trkpt>
<trkpt lat="46.63199997" lon="6.34978803"><ele>1317.140015</ele><time>2008-04-19T14:00:57Z</time></trkpt>
<trkpt lat="46.63216501" lon="6.35013596"><ele>1314.73999</ele><time>2008-04-19T14:01:03Z</time></trkpt>
<trkpt lat="46.63230901" lon="6.35037099"><ele>1313.300049</ele><time>2008-04-19T14:01:07Z</time></trkpt>
<trkpt lat="46.63251604" lon="6.35058003"><ele>1310.900024</ele><time>2008-04-19T14:01:11Z</time></trkpt>
<trkpt lat="46.63320696" lon="6.35084004"><ele>1314.73999</ele><time>2008-04-19T14:01:21Z</time></trkpt>
<trkpt lat="46.63349203" lon="6.35100801"><ele>1315.219971</ele><time>2008-04-19T14:01:25Z</time></trkpt>
<trkpt lat="46.63375899" lon="6.35125101"><ele>1314.73999</ele><time>2008-04-19T14:01:29Z</time></trkpt>
<trkpt lat="46.63448403" lon="6.35217100"><ele>1313.300049</ele><time>2008-04-19T14:01:41Z</time></trkpt>
<trkpt lat="46.63462199" lon="6.35235499"><ele>1309.449951</ele><time>2008-04-19T14:01:45Z</time></trkpt>
<trkpt lat="46.63480497" lon="6.35258700"><ele>1306.089966</ele><time>2008-04-19T14:01:50Z</time></trkpt>
<trkpt lat="46.63508702" lon="6.35271801"><ele>1301.280029</ele><time>2008-04-19T14:01:59Z</time></trkpt>
<trkpt lat="46.63532197" lon="6.35277802"><ele>1303.689941</ele><time>2008-04-19T14:02:09Z</time></trkpt>
<trkpt lat="46.63575204" lon="6.35297600"><ele>1301.280029</ele><time>2008-04-19T14:02:19Z</time></trkpt>
<trkpt lat="46.63603200" lon="6.35294901"><ele>1296.47998</ele><time>2008-04-19T14:02:24Z</time></trkpt>
<trkpt lat="46.63613300" lon="6.35278003"><ele>1295.030029</ele><time>2008-04-19T14:02:27Z</time></trkpt>
<trkpt lat="46.63641798" lon="6.35253704"><ele>1291.189941</ele><time>2008-04-19T14:02:36Z</time></trkpt>
<trkpt lat="46.63672401" lon="6.35251399"><ele>1288.780029</ele><time>2008-04-19T14:02:43Z</time></trkpt>
<trkpt lat="46.63695099" lon="6.35253604"><ele>1288.780029</ele><time>2008-04-19T14:02:47Z</time></trkpt>
<trkpt lat="46.63723698" lon="6.35256596"><ele>1288.300049</ele><time>2008-04-19T14:02:56Z</time></trkpt>
<trkpt lat="46.63766697" lon="6.35258499"><ele>1281.569946</ele><time>2008-04-19T14:03:08Z</time></trkpt>
<trkpt lat="46.63770804" lon="6.35259798"><ele>1281.089966</ele><time>2008-04-19T14:03:09Z</time></trkpt>
<trkpt lat="46.63793896" lon="6.35284399"><ele>1278.209961</ele><time>2008-04-19T14:03:17Z</time></trkpt>
<trkpt lat="46.63833803" lon="6.35306996"><ele>1274.849976</ele><time>2008-04-19T14:03:28Z</time></trkpt>
<trkpt lat="46.63850600" lon="6.35317298"><ele>1271.959961</ele><time>2008-04-19T14:03:31Z</time></trkpt>
<trkpt lat="46.63911000" lon="6.35329904"><ele>1262.829956</ele><time>2008-04-19T14:03:42Z</time></trkpt>
<trkpt lat="46.63934897" lon="6.35337297"><ele>1256.579956</ele><time>2008-04-19T14:03:46Z</time></trkpt>
<trkpt lat="46.63955902" lon="6.35357397"><ele>1254.660034</ele><time>2008-04-19T14:03:50Z</time></trkpt>
<trkpt lat="46.63963596" lon="6.35367597"><ele>1252.73999</ele><time>2008-04-19T14:03:52Z</time></trkpt>
<trkpt lat="46.64000401" lon="6.35424997"><ele>1252.73999</ele><time>2008-04-19T14:04:04Z</time></trkpt>
<trkpt lat="46.64014097" lon="6.35433203"><ele>1251.77002</ele><time>2008-04-19T14:04:07Z</time></trkpt>
<trkpt lat="46.64024700" lon="6.35439497"><ele>1250.810059</ele><time>2008-04-19T14:04:09Z</time></trkpt>
<trkpt lat="46.64062402" lon="6.35441601"><ele>1251.290039</ele><time>2008-04-19T14:04:15Z</time></trkpt>
<trkpt lat="46.64086601" lon="6.35453101"><ele>1253.219971</ele><time>2008-04-19T14:04:19Z</time></trkpt>
<trkpt lat="46.64101001" lon="6.35462497"><ele>1252.25</ele><time>2008-04-19T14:04:22Z</time></trkpt>
<trkpt lat="46.64114898" lon="6.35465599"><ele>1254.660034</ele><time>2008-04-19T14:04:24Z</time></trkpt>
<trkpt lat="46.64174200" lon="6.35470401"><ele>1251.290039</ele><time>2008-04-19T14:04:33Z</time></trkpt>
<trkpt lat="46.64212204" lon="6.35469597"><ele>1249.849976</ele><time>2008-04-19T14:04:39Z</time></trkpt>
<trkpt lat="46.64306601" lon="6.35481801"><ele>1252.25</ele><time>2008-04-19T14:04:53Z</time></trkpt>
<trkpt lat="46.64322501" lon="6.35483704"><ele>1250.810059</ele><time>2008-04-19T14:04:55Z</time></trkpt>
<trkpt lat="46.64425297" lon="6.35551002"><ele>1242.160034</ele><time>2008-04-19T14:05:06Z</time></trkpt>
<trkpt lat="46.64513298" lon="6.35614897"><ele>1232.550049</ele><time>2008-04-19T14:05:16Z</time></trkpt>
<trkpt lat="46.64542702" lon="6.35633396"><ele>1230.140015</ele><time>2008-04-19T14:05:19Z</time></trkpt>
<trkpt lat="46.64565803" lon="6.35659497"><ele>1227.73999</ele><time>2008-04-19T14:05:22Z</time></trkpt>
<trkpt lat="46.64576900" lon="6.35678499"><ele>1225.339966</ele><time>2008-04-19T14:05:24Z</time></trkpt>
<trkpt lat="46.64618097" lon="6.35703703"><ele>1217.170044</ele><time>2008-04-19T14:05:29Z</time></trkpt>
<trkpt lat="46.64653100" lon="6.35699596"><ele>1216.209961</ele><time>2008-04-19T14:05:32Z</time></trkpt>
<trkpt lat="46.64707499" lon="6.35735898"><ele>1209</ele><time>2008-04-19T14:05:39Z</time></trkpt>
<trkpt lat="46.64712503" lon="6.35756199"><ele>1207.550049</ele><time>2008-04-19T14:05:41Z</time></trkpt>
<trkpt lat="46.64720097" lon="6.35780498"><ele>1209.47998</ele><time>2008-04-19T14:05:48Z</time></trkpt>
<trkpt lat="46.64720600" lon="6.35783499"><ele>1209</ele><time>2008-04-19T14:05:52Z</time></trkpt>
<trkpt lat="46.64717004" lon="6.35783197"><ele>1207.069946</ele><time>2008-04-19T14:06:08Z</time></trkpt>
<trkpt lat="46.64712201" lon="6.35775997"><ele>1207.069946</ele><time>2008-04-19T14:06:20Z</time></trkpt>
<trkpt lat="46.64705202" lon="6.35765604"><ele>1207.550049</ele><time>2008-04-19T14:06:25Z</time></trkpt>
<trkpt lat="46.64692101" lon="6.35754196"><ele>1208.51001</ele><time>2008-04-19T14:06:31Z</time></trkpt>
<trkpt lat="46.64687701" lon="6.35763098"><ele>1207.550049</ele><time>2008-04-19T14:06:35Z</time></trkpt>
<trkpt lat="46.64683199" lon="6.35807496"><ele>1203.22998</ele><time>2008-04-19T14:06:42Z</time></trkpt>
<trkpt lat="46.64696703" lon="6.35826398"><ele>1203.709961</ele><time>2008-04-19T14:06:54Z</time></trkpt>
<trkpt lat="46.64703702" lon="6.35839398"><ele>1204.189941</ele><time>2008-04-19T14:07:00Z</time></trkpt>
<trkpt lat="46.64701204" lon="6.35853698"><ele>1202.27002</ele><time>2008-04-19T14:07:06Z</time></trkpt>
<trkpt lat="46.64697499" lon="6.35855097"><ele>1202.27002</ele><time>2008-04-19T14:07:08Z</time></trkpt>
<trkpt lat="46.64692000" lon="6.35851099"><ele>1201.790039</ele><time>2008-04-19T14:07:12Z</time></trkpt>
<trkpt lat="46.64686996" lon="6.35836297"><ele>1203.709961</ele><time>2008-04-19T14:07:24Z</time></trkpt>
<trkpt lat="46.64670199" lon="6.35852398"><ele>1203.709961</ele><time>2008-04-19T14:07:36Z</time></trkpt>
<trkpt lat="46.64662102" lon="6.35841301"><ele>1207.069946</ele><time>2008-04-19T14:07:42Z</time></trkpt>
<trkpt lat="46.64673200" lon="6.35807597"><ele>1214.280029</ele><time>2008-04-19T14:07:55Z</time></trkpt>
<trkpt lat="46.64685203" lon="6.35800397"><ele>1207.550049</ele><time>2008-04-19T14:08:10Z</time></trkpt>
<trkpt lat="46.64685102" lon="6.35800699"><ele>1207.550049</ele><time>2008-04-19T14:08:37Z</time></trkpt>
<trkpt lat="46.64684398" lon="6.35816197"><ele>1206.589966</ele><time>2008-04-19T14:08:41Z</time></trkpt>
<trkpt lat="46.64679201" lon="6.35881802"><ele>1203.22998</ele><time>2008-04-19T14:08:54Z</time></trkpt>
<trkpt lat="46.64667903" lon="6.35938397"><ele>1196.5</ele><time>2008-04-19T14:09:05Z</time></trkpt>
<trkpt lat="46.64670199" lon="6.35996399"><ele>1190.72998</ele><time>2008-04-19T14:09:16Z</time></trkpt>
<trkpt lat="46.64670702" lon="6.36005703"><ele>1188.810059</ele><time>2008-04-19T14:09:25Z</time></trkpt>
<trkpt lat="46.64678497" lon="6.36049801"><ele>1187.369995</ele><time>2008-04-19T14:10:52Z</time></trkpt>
<trkpt lat="46.64686996" lon="6.36065701"><ele>1186.880005</ele><time>2008-04-19T14:10:56Z</time></trkpt>
<trkpt lat="46.64697499" lon="6.36086899"><ele>1184</ele><time>2008-04-19T14:11:01Z</time></trkpt>
<trkpt lat="46.64718596" lon="6.36144499"><ele>1179.189941</ele><time>2008-04-19T14:11:14Z</time></trkpt>
<trkpt lat="46.64721698" lon="6.36153703"><ele>1181.119995</ele><time>2008-04-19T14:11:23Z</time></trkpt>
<trkpt lat="46.64728998" lon="6.36186602"><ele>1181.119995</ele><time>2008-04-19T14:11:38Z</time></trkpt>
<trkpt lat="46.64748897" lon="6.36254897"><ele>1179.189941</ele><time>2008-04-19T14:11:50Z</time></trkpt>
<trkpt lat="46.64754001" lon="6.36277696"><ele>1180.160034</ele><time>2008-04-19T14:11:54Z</time></trkpt>
<trkpt lat="46.64766398" lon="6.36352102"><ele>1180.160034</ele><time>2008-04-19T14:12:09Z</time></trkpt>
<trkpt lat="46.64789801" lon="6.36404900"><ele>1180.640015</ele><time>2008-04-19T14:12:21Z</time></trkpt>
<trkpt lat="46.64827804" lon="6.36449802"><ele>1182.560059</ele><time>2008-04-19T14:12:33Z</time></trkpt>
<trkpt lat="46.64850201" lon="6.36476297"><ele>1178.709961</ele><time>2008-04-19T14:12:39Z</time></trkpt>
<trkpt lat="46.64877098" lon="6.36520000"><ele>1177.27002</ele><time>2008-04-19T14:12:48Z</time></trkpt>
<trkpt lat="46.64875598" lon="6.36565296"><ele>1173.430054</ele><time>2008-04-19T14:12:58Z</time></trkpt>
<trkpt lat="46.64874600" lon="6.36580803"><ele>1172.949951</ele><time>2008-04-19T14:13:01Z</time></trkpt>
<trkpt lat="46.64865003" lon="6.36628001"><ele>1172.949951</ele><time>2008-04-19T14:13:08Z</time></trkpt>
<trkpt lat="46.64853897" lon="6.36667497"><ele>1171.02002</ele><time>2008-04-19T14:13:14Z</time></trkpt>
<trkpt lat="46.64844400" lon="6.36677697"><ele>1170.060059</ele><time>2008-04-19T14:13:16Z</time></trkpt>
<trkpt lat="46.64843202" lon="6.36702298"><ele>1168.619995</ele><time>2008-04-19T14:13:20Z</time></trkpt>
<trkpt lat="46.64845699" lon="6.36708903"><ele>1168.140015</ele><time>2008-04-19T14:13:22Z</time></trkpt>
<trkpt lat="46.64848097" lon="6.36721099"><ele>1171.5</ele><time>2008-04-19T14:13:36Z</time></trkpt>
<trkpt lat="46.64873896" lon="6.36761097"><ele>1173.910034</ele><time>2008-04-19T14:13:49Z</time></trkpt>
<trkpt lat="46.64893300" lon="6.36792697"><ele>1173.910034</ele><time>2008-04-19T14:13:58Z</time></trkpt>
<trkpt lat="46.64889696" lon="6.36837297"><ele>1172.949951</ele><time>2008-04-19T14:14:06Z</time></trkpt>
<trkpt lat="46.64892596" lon="6.36840801"><ele>1172.949951</ele><time>2008-04-19T14:14:16Z</time></trkpt>
<trkpt lat="46.64894801" lon="6.36836099"><ele>1174.869995</ele><time>2008-04-19T14:18:23Z</time></trkpt>
<trkpt lat="46.64889101" lon="6.36839602"><ele>1173.910034</ele><time>2008-04-19T14:18:32Z</time></trkpt>
<trkpt lat="46.64892102" lon="6.36842301"><ele>1173.910034</ele><time>2008-04-19T14:18:35Z</time></trkpt>
<trkpt lat="46.64893803" lon="6.36843097"><ele>1173.910034</ele><time>2008-04-19T14:18:37Z</time></trkpt>
<trkpt lat="46.64895304" lon="6.36841698"><ele>1174.390015</ele><time>2008-04-19T14:18:45Z</time></trkpt>
<trkpt lat="46.64899302" lon="6.36831002"><ele>1175.349976</ele><time>2008-04-19T14:18:50Z</time></trkpt>
<trkpt lat="46.64916803" lon="6.36785899"><ele>1176.790039</ele><time>2008-04-19T14:19:01Z</time></trkpt>
<trkpt lat="46.64918899" lon="6.36780803"><ele>1177.75</ele><time>2008-04-19T14:19:02Z</time></trkpt>
<trkpt lat="46.64939501" lon="6.36709800"><ele>1179.189941</ele><time>2008-04-19T14:19:15Z</time></trkpt>
<trkpt lat="46.64946500" lon="6.36687504"><ele>1180.160034</ele><time>2008-04-19T14:19:19Z</time></trkpt>
<trkpt lat="46.64987102" lon="6.36621798"><ele>1179.189941</ele><time>2008-04-19T14:19:33Z</time></trkpt>
<trkpt lat="46.65001896" lon="6.36631798"><ele>1174.390015</ele><time>2008-04-19T14:19:37Z</time></trkpt>
<trkpt lat="46.65067803" lon="6.36722398"><ele>1172.469971</ele><time>2008-04-19T14:19:54Z</time></trkpt>
<trkpt lat="46.65125898" lon="6.36799000"><ele>1173.910034</ele><time>2008-04-19T14:20:10Z</time></trkpt>
<trkpt lat="46.65193498" lon="6.36884303"><ele>1176.310059</ele><time>2008-04-19T14:20:29Z</time></trkpt>
<trkpt lat="46.65258097" lon="6.36967502"><ele>1177.75</ele><time>2008-04-19T14:20:48Z</time></trkpt>
<trkpt lat="46.65294601" lon="6.37012102"><ele>1181.119995</ele><time>2008-04-19T14:20:59Z</time></trkpt>
<trkpt lat="46.65332696" lon="6.37080196"><ele>1183.52002</ele><time>2008-04-19T14:21:15Z</time></trkpt>
<trkpt lat="46.65371798" lon="6.37159204"><ele>1187.369995</ele><time>2008-04-19T14:21:34Z</time></trkpt>
<trkpt lat="46.65400003" lon="6.37217400"><ele>1190.25</ele><time>2008-04-19T14:21:49Z</time></trkpt>
<trkpt lat="46.65425099" lon="6.37291596"><ele>1195.060059</ele><time>2008-04-19T14:22:07Z</time></trkpt>
<trkpt lat="46.65455902" lon="6.37359196"><ele>1196.5</ele><time>2008-04-19T14:22:21Z</time></trkpt>
<trkpt lat="46.65510502" lon="6.37451297"><ele>1193.130005</ele><time>2008-04-19T14:22:37Z</time></trkpt>
<trkpt lat="46.65550902" lon="6.37521604"><ele>1193.130005</ele><time>2008-04-19T14:22:53Z</time></trkpt>
<trkpt lat="46.65569301" lon="6.37549901"><ele>1194.579956</ele><time>2008-04-19T14:23:05Z</time></trkpt>
<trkpt lat="46.65578102" lon="6.37584996"><ele>1196.5</ele><time>2008-04-19T14:23:17Z</time></trkpt>
<trkpt lat="46.65577398" lon="6.37618398"><ele>1198.420044</ele><time>2008-04-19T14:24:17Z</time></trkpt>
<trkpt lat="46.65580801" lon="6.37681397"><ele>1198.900024</ele><time>2008-04-19T14:24:31Z</time></trkpt>
<trkpt lat="46.65581597" lon="6.37696501"><ele>1198.900024</ele><time>2008-04-19T14:24:34Z</time></trkpt>
<trkpt lat="46.65579803" lon="6.37722300"><ele>1198.900024</ele><time>2008-04-19T14:24:38Z</time></trkpt>
<trkpt lat="46.65576803" lon="6.37746398"><ele>1200.339966</ele><time>2008-04-19T14:24:42Z</time></trkpt>
<trkpt lat="46.65562696" lon="6.37811400"><ele>1201.300049</ele><time>2008-04-19T14:24:57Z</time></trkpt>
<trkpt lat="46.65551598" lon="6.37839999"><ele>1203.22998</ele><time>2008-04-19T14:25:57Z</time></trkpt>
<trkpt lat="46.65535798" lon="6.37871398"><ele>1204.670044</ele><time>2008-04-19T14:26:04Z</time></trkpt>
<trkpt lat="46.65521599" lon="6.37879000"><ele>1204.189941</ele><time>2008-04-19T14:26:07Z</time></trkpt>
<trkpt lat="46.65490603" lon="6.37880098"><ele>1204.189941</ele><time>2008-04-19T14:26:13Z</time></trkpt>
<trkpt lat="46.65458098" lon="6.37870601"><ele>1200.339966</ele><time>2008-04-19T14:26:20Z</time></trkpt>
<trkpt lat="46.65433296" lon="6.37862102"><ele>1197.459961</ele><time>2008-04-19T14:26:25Z</time></trkpt>
<trkpt lat="46.65408502" lon="6.37852597"><ele>1195.060059</ele><time>2008-04-19T14:26:29Z</time></trkpt>
<trkpt lat="46.65391797" lon="6.37838499"><ele>1193.130005</ele><time>2008-04-19T14:26:32Z</time></trkpt>
<trkpt lat="46.65357800" lon="6.37843302"><ele>1190.25</ele><time>2008-04-19T14:26:39Z</time></trkpt>
<trkpt lat="46.65354003" lon="6.37856998"><ele>1190.25</ele><time>2008-04-19T14:26:41Z</time></trkpt>
<trkpt lat="46.65341296" lon="6.37901899"><ele>1186.880005</ele><time>2008-04-19T14:26:47Z</time></trkpt>
<trkpt lat="46.65334398" lon="6.37942602"><ele>1185.920044</ele><time>2008-04-19T14:26:51Z</time></trkpt>
<trkpt lat="46.65342797" lon="6.38044400"><ele>1179.670044</ele><time>2008-04-19T14:27:01Z</time></trkpt>
<trkpt lat="46.65316704" lon="6.38085304"><ele>1175.829956</ele><time>2008-04-19T14:27:10Z</time></trkpt>
<trkpt lat="46.65304500" lon="6.38089101"><ele>1175.349976</ele><time>2008-04-19T14:27:18Z</time></trkpt>
<trkpt lat="46.65306503" lon="6.38088799"><ele>1176.310059</ele><time>2008-04-19T14:30:46Z</time></trkpt>
<trkpt lat="46.65315698" lon="6.38088003"><ele>1176.790039</ele><time>2008-04-19T14:30:52Z</time></trkpt>
<trkpt lat="46.65317399" lon="6.38089897"><ele>1177.27002</ele><time>2008-04-19T14:30:54Z</time></trkpt>
<trkpt lat="46.65308104" lon="6.38095002"><ele>1177.27002</ele><time>2008-04-19T14:31:00Z</time></trkpt>
<trkpt lat="46.65302102" lon="6.38089998"><ele>1177.75</ele><time>2008-04-19T14:31:02Z</time></trkpt>
<trkpt lat="46.65255901" lon="6.38103602"><ele>1173.910034</ele><time>2008-04-19T14:31:11Z</time></trkpt>
<trkpt lat="46.65237998" lon="6.38107499"><ele>1171.97998</ele><time>2008-04-19T14:31:14Z</time></trkpt>
<trkpt lat="46.65213003" lon="6.38104096"><ele>1171.5</ele><time>2008-04-19T14:31:18Z</time></trkpt>
<trkpt lat="46.65173901" lon="6.38093702"><ele>1170.060059</ele><time>2008-04-19T14:31:29Z</time></trkpt>
<trkpt lat="46.65149401" lon="6.38090601"><ele>1161.890015</ele><time>2008-04-19T14:31:38Z</time></trkpt>
<trkpt lat="46.65145897" lon="6.38089797"><ele>1161.410034</ele><time>2008-04-19T14:31:39Z</time></trkpt>
<trkpt lat="46.65130198" lon="6.38121799"><ele>1157.079956</ele><time>2008-04-19T14:31:48Z</time></trkpt>
<trkpt lat="46.65133903" lon="6.38132301"><ele>1156.599976</ele><time>2008-04-19T14:31:52Z</time></trkpt>
<trkpt lat="46.65150600" lon="6.38144396"><ele>1156.599976</ele><time>2008-04-19T14:31:57Z</time></trkpt>
<trkpt lat="46.65162502" lon="6.38161303"><ele>1156.119995</ele><time>2008-04-19T14:32:01Z</time></trkpt>
<trkpt lat="46.65183096" lon="6.38206297"><ele>1158.050049</ele><time>2008-04-19T14:32:09Z</time></trkpt>
<trkpt lat="46.65200799" lon="6.38233496"><ele>1159.48999</ele><time>2008-04-19T14:32:14Z</time></trkpt>
<trkpt lat="46.65217898" lon="6.38267200"><ele>1159.01001</ele><time>2008-04-19T14:32:20Z</time></trkpt>
<trkpt lat="46.65226297" lon="6.38314096"><ele>1162.369995</ele><time>2008-04-19T14:32:27Z</time></trkpt>
<trkpt lat="46.65229096" lon="6.38333400"><ele>1162.369995</ele><time>2008-04-19T14:32:30Z</time></trkpt>
<trkpt lat="46.65232097" lon="6.38345696"><ele>1162.369995</ele><time>2008-04-19T14:32:32Z</time></trkpt>
<trkpt lat="46.65272799" lon="6.38435198"><ele>1160.930054</ele><time>2008-04-19T14:32:46Z</time></trkpt>
<trkpt lat="46.65304198" lon="6.38480301"><ele>1159.48999</ele><time>2008-04-19T14:32:58Z</time></trkpt>
<trkpt lat="46.65311096" lon="6.38523703"><ele>1160.449951</ele><time>2008-04-19T14:33:05Z</time></trkpt>
<trkpt lat="46.65323300" lon="6.38577296"><ele>1159.969971</ele><time>2008-04-19T14:33:14Z</time></trkpt>
<trkpt lat="46.65336200" lon="6.38621997"><ele>1159.48999</ele><time>2008-04-19T14:33:20Z</time></trkpt>
<trkpt lat="46.65344900" lon="6.38680201"><ele>1158.050049</ele><time>2008-04-19T14:33:26Z</time></trkpt>
<trkpt lat="46.65348203" lon="6.38694501"><ele>1157.560059</ele><time>2008-04-19T14:33:28Z</time></trkpt>
<trkpt lat="46.65360298" lon="6.38727098"><ele>1155.160034</ele><time>2008-04-19T14:33:33Z</time></trkpt>
<trkpt lat="46.65382703" lon="6.38746896"><ele>1157.079956</ele><time>2008-04-19T14:33:38Z</time></trkpt>
<trkpt lat="46.65417102" lon="6.38788001"><ele>1154.680054</ele><time>2008-04-19T14:33:45Z</time></trkpt>
<trkpt lat="46.65423397" lon="6.38840999"><ele>1155.640015</ele><time>2008-04-19T14:33:51Z</time></trkpt>
<trkpt lat="46.65408997" lon="6.38983802"><ele>1154.199951</ele><time>2008-04-19T14:34:04Z</time></trkpt>
<trkpt lat="46.65397304" lon="6.39098299"><ele>1159.969971</ele><time>2008-04-19T14:34:17Z</time></trkpt>
<trkpt lat="46.65395896" lon="6.39128700"><ele>1158.530029</ele><time>2008-04-19T14:34:21Z</time></trkpt>
<trkpt lat="46.65399802" lon="6.39171104"><ele>1158.530029</ele><time>2008-04-19T14:34:26Z</time></trkpt>
<trkpt lat="46.65412802" lon="6.39265199"><ele>1156.599976</ele><time>2008-04-19T14:34:38Z</time></trkpt>
<trkpt lat="46.65442902" lon="6.39394398"><ele>1151.319946</ele><time>2008-04-19T14:34:54Z</time></trkpt>
<trkpt lat="46.65474099" lon="6.39465099"><ele>1149.390015</ele><time>2008-04-19T14:35:04Z</time></trkpt>
<trkpt lat="46.65494601" lon="6.39495903"><ele>1149.390015</ele><time>2008-04-19T14:35:09Z</time></trkpt>
<trkpt lat="46.65549000" lon="6.39569404"><ele>1147.469971</ele><time>2008-04-19T14:35:20Z</time></trkpt>
<trkpt lat="46.65573701" lon="6.39593803"><ele>1146.030029</ele><time>2008-04-19T14:35:25Z</time></trkpt>
<trkpt lat="46.65600901" lon="6.39615403"><ele>1146.030029</ele><time>2008-04-19T14:35:30Z</time></trkpt>
<trkpt lat="46.65610498" lon="6.39625696"><ele>1146.51001</ele><time>2008-04-19T14:35:32Z</time></trkpt>
<trkpt lat="46.65645299" lon="6.39664697"><ele>1143.630005</ele><time>2008-04-19T14:35:43Z</time></trkpt>
<trkpt lat="46.65660496" lon="6.39675401"><ele>1143.630005</ele><time>2008-04-19T14:35:49Z</time></trkpt>
<trkpt lat="46.65712698" lon="6.39692701"><ele>1150.839966</ele><time>2008-04-19T14:36:02Z</time></trkpt>
<trkpt lat="46.65759897" lon="6.39708904"><ele>1159.01001</ele><time>2008-04-19T14:36:14Z</time></trkpt>
<trkpt lat="46.65812099" lon="6.39723698"><ele>1159.48999</ele><time>2008-04-19T14:36:29Z</time></trkpt>
<trkpt lat="46.65854998" lon="6.39744502"><ele>1159.969971</ele><time>2008-04-19T14:36:42Z</time></trkpt>
<trkpt lat="46.65902699" lon="6.39752104"><ele>1159.48999</ele><time>2008-04-19T14:36:56Z</time></trkpt>
<trkpt lat="46.65952102" lon="6.39742096"><ele>1158.530029</ele><time>2008-04-19T14:37:10Z</time></trkpt>
<trkpt lat="46.65994599" lon="6.39734200"><ele>1160.449951</ele><time>2008-04-19T14:37:23Z</time></trkpt>
<trkpt lat="46.66043599" lon="6.39731099"><ele>1160.930054</ele><time>2008-04-19T14:37:36Z</time></trkpt>
<trkpt lat="46.66056599" lon="6.39740302"><ele>1161.410034</ele><time>2008-04-19T14:37:40Z</time></trkpt>
<trkpt lat="46.66064998" lon="6.39763503"><ele>1161.410034</ele><time>2008-04-19T14:37:44Z</time></trkpt>
<trkpt lat="46.66072299" lon="6.39790996"><ele>1160.449951</ele><time>2008-04-19T14:37:48Z</time></trkpt>
<trkpt lat="46.66077102" lon="6.39812303"><ele>1159.969971</ele><time>2008-04-19T14:37:51Z</time></trkpt>
<trkpt lat="46.66081997" lon="6.39843500"><ele>1158.050049</ele><time>2008-04-19T14:37:55Z</time></trkpt>
<trkpt lat="46.66077697" lon="6.39888897"><ele>1152.280029</ele><time>2008-04-19T14:37:59Z</time></trkpt>
<trkpt lat="46.66082801" lon="6.39950403"><ele>1147.469971</ele><time>2008-04-19T14:38:06Z</time></trkpt>
<trkpt lat="46.66090898" lon="6.40003402"><ele>1148.910034</ele><time>2008-04-19T14:38:12Z</time></trkpt>
<trkpt lat="46.66093396" lon="6.40038597"><ele>1152.76001</ele><time>2008-04-19T14:38:16Z</time></trkpt>
<trkpt lat="46.66099599" lon="6.40053199"><ele>1151.800049</ele><time>2008-04-19T14:38:20Z</time></trkpt>
<trkpt lat="46.66107796" lon="6.40070801"><ele>1152.280029</ele><time>2008-04-19T14:38:23Z</time></trkpt>
<trkpt lat="46.66114099" lon="6.40088998"><ele>1151.319946</ele><time>2008-04-19T14:38:26Z</time></trkpt>
<trkpt lat="46.66117704" lon="6.40102903"><ele>1149.390015</ele><time>2008-04-19T14:38:28Z</time></trkpt>
<trkpt lat="46.66109296" lon="6.40144402"><ele>1148.430054</ele><time>2008-04-19T14:38:36Z</time></trkpt>
<trkpt lat="46.66111602" lon="6.40145198"><ele>1150.839966</ele><time>2008-04-19T14:39:27Z</time></trkpt>
<trkpt lat="46.66115499" lon="6.40143899"><ele>1150.349976</ele><time>2008-04-19T14:39:29Z</time></trkpt>
<trkpt lat="46.66133101" lon="6.40161702"><ele>1152.76001</ele><time>2008-04-19T14:39:41Z</time></trkpt>
<trkpt lat="46.66154400" lon="6.40185599"><ele>1158.050049</ele><time>2008-04-19T14:39:54Z</time></trkpt>
<trkpt lat="46.66176704" lon="6.40213603"><ele>1166.219971</ele><time>2008-04-19T14:40:08Z</time></trkpt>
<trkpt lat="46.66199402" lon="6.40240601"><ele>1160.930054</ele><time>2008-04-19T14:40:22Z</time></trkpt>
<trkpt lat="46.66222100" lon="6.40259796"><ele>1160.930054</ele><time>2008-04-19T14:40:37Z</time></trkpt>
<trkpt lat="46.66238604" lon="6.40288898"><ele>1161.890015</ele><time>2008-04-19T14:40:50Z</time></trkpt>
<trkpt lat="46.66241496" lon="6.40300398"><ele>1162.849976</ele><time>2008-04-19T14:40:54Z</time></trkpt>
<trkpt lat="46.66262099" lon="6.40339298"><ele>1167.660034</ele><time>2008-04-19T14:41:08Z</time></trkpt>
<trkpt lat="46.66283296" lon="6.40377101"><ele>1165.73999</ele><time>2008-04-19T14:41:21Z</time></trkpt>
<trkpt lat="46.66307797" lon="6.40417099"><ele>1169.099976</ele><time>2008-04-19T14:41:35Z</time></trkpt>
<trkpt lat="46.66330000" lon="6.40442303"><ele>1170.060059</ele><time>2008-04-19T14:41:46Z</time></trkpt>
<trkpt lat="46.66352103" lon="6.40480399"><ele>1172.469971</ele><time>2008-04-19T14:41:59Z</time></trkpt>
<trkpt lat="46.66379596" lon="6.40494699"><ele>1180.160034</ele><time>2008-04-19T14:42:10Z</time></trkpt>
<trkpt lat="46.66415898" lon="6.40521898"><ele>1180.160034</ele><time>2008-04-19T14:42:23Z</time></trkpt>
<trkpt lat="46.66437901" lon="6.40553498"><ele>1181.119995</ele><time>2008-04-19T14:42:35Z</time></trkpt>
<trkpt lat="46.66465703" lon="6.40572902"><ele>1180.640015</ele><time>2008-04-19T14:42:46Z</time></trkpt>
<trkpt lat="46.66489500" lon="6.40579004"><ele>1180.160034</ele><time>2008-04-19T14:42:56Z</time></trkpt>
<trkpt lat="46.66502902" lon="6.40583002"><ele>1181.119995</ele><time>2008-04-19T14:43:00Z</time></trkpt>
<trkpt lat="46.66509398" lon="6.40590697"><ele>1183.040039</ele><time>2008-04-19T14:43:04Z</time></trkpt>
<trkpt lat="46.66539498" lon="6.40597402"><ele>1185.439941</ele><time>2008-04-19T14:43:15Z</time></trkpt>
<trkpt lat="46.66556798" lon="6.40601199"><ele>1186.400024</ele><time>2008-04-19T14:43:24Z</time></trkpt>
<trkpt lat="46.66569999" lon="6.40610201"><ele>1188.329956</ele><time>2008-04-19T14:43:31Z</time></trkpt>
<trkpt lat="46.66599898" lon="6.40623302"><ele>1190.25</ele><time>2008-04-19T14:43:43Z</time></trkpt>
<trkpt lat="46.66630098" lon="6.40631801"><ele>1192.170044</ele><time>2008-04-19T14:43:54Z</time></trkpt>
<trkpt lat="46.66655998" lon="6.40640401"><ele>1198.420044</ele><time>2008-04-19T14:44:08Z</time></trkpt>
<trkpt lat="46.66674798" lon="6.40655899"><ele>1199.380005</ele><time>2008-04-19T14:44:18Z</time></trkpt>
<trkpt lat="46.66684999" lon="6.40658003"><ele>1198.420044</ele><time>2008-04-19T14:44:23Z</time></trkpt>
<trkpt lat="46.66715199" lon="6.40660199"><ele>1196.5</ele><time>2008-04-19T14:44:38Z</time></trkpt>
<trkpt lat="46.66745198" lon="6.40676603"><ele>1201.300049</ele><time>2008-04-19T14:44:52Z</time></trkpt>
<trkpt lat="46.66770796" lon="6.40691003"><ele>1197.939941</ele><time>2008-04-19T14:45:06Z</time></trkpt>
<trkpt lat="46.66775901" lon="6.40692000"><ele>1198.900024</ele><time>2008-04-19T14:45:27Z</time></trkpt>
<trkpt lat="46.66768902" lon="6.40706400"><ele>1194.579956</ele><time>2008-04-19T14:48:41Z</time></trkpt>
<trkpt lat="46.66761199" lon="6.40694004"><ele>1191.689941</ele><time>2008-04-19T14:49:07Z</time></trkpt>
<trkpt lat="46.66751803" lon="6.40672797"><ele>1191.209961</ele><time>2008-04-19T14:49:25Z</time></trkpt>
<trkpt lat="46.66730203" lon="6.40660903"><ele>1190.25</ele><time>2008-04-19T14:49:35Z</time></trkpt>
<trkpt lat="46.66713598" lon="6.40654298"><ele>1188.329956</ele><time>2008-04-19T14:49:39Z</time></trkpt>
<trkpt lat="46.66678897" lon="6.40651097"><ele>1186.400024</ele><time>2008-04-19T14:49:50Z</time></trkpt>
<trkpt lat="46.66672602" lon="6.40652404"><ele>1184.959961</ele><time>2008-04-19T14:50:06Z</time></trkpt>
<trkpt lat="46.66641899" lon="6.40633402"><ele>1184.959961</ele><time>2008-04-19T14:50:17Z</time></trkpt>
<trkpt lat="46.66618698" lon="6.40632397"><ele>1184.47998</ele><time>2008-04-19T14:50:23Z</time></trkpt>
<trkpt lat="46.66597299" lon="6.40621400"><ele>1182.079956</ele><time>2008-04-19T14:50:27Z</time></trkpt>
<trkpt lat="46.66581399" lon="6.40616102"><ele>1182.079956</ele><time>2008-04-19T14:50:30Z</time></trkpt>
<trkpt lat="46.66548098" lon="6.40601903"><ele>1180.160034</ele><time>2008-04-19T14:50:36Z</time></trkpt>
<trkpt lat="46.66529104" lon="6.40599196"><ele>1179.189941</ele><time>2008-04-19T14:50:39Z</time></trkpt>
<trkpt lat="46.66501896" lon="6.40582600"><ele>1174.390015</ele><time>2008-04-19T14:50:44Z</time></trkpt>
<trkpt lat="46.66485602" lon="6.40578602"><ele>1171.97998</ele><time>2008-04-19T14:50:47Z</time></trkpt>
<trkpt lat="46.66448202" lon="6.40563296"><ele>1168.140015</ele><time>2008-04-19T14:50:54Z</time></trkpt>
<trkpt lat="46.66430198" lon="6.40554998"><ele>1166.699951</ele><time>2008-04-19T14:50:57Z</time></trkpt>
<trkpt lat="46.66402898" lon="6.40533498"><ele>1163.329956</ele><time>2008-04-19T14:51:02Z</time></trkpt>
<trkpt lat="46.66393401" lon="6.40508202"><ele>1159.969971</ele><time>2008-04-19T14:51:05Z</time></trkpt>
<trkpt lat="46.66357200" lon="6.40482604"><ele>1155.640015</ele><time>2008-04-19T14:51:12Z</time></trkpt>
<trkpt lat="46.66330000" lon="6.40439202"><ele>1151.319946</ele><time>2008-04-19T14:51:19Z</time></trkpt>
<trkpt lat="46.66308601" lon="6.40416898"><ele>1152.76001</ele><time>2008-04-19T14:51:23Z</time></trkpt>
<trkpt lat="46.66288099" lon="6.40385801"><ele>1152.76001</ele><time>2008-04-19T14:51:27Z</time></trkpt>
<trkpt lat="46.66235201" lon="6.40286098"><ele>1154.199951</ele><time>2008-04-19T14:51:38Z</time></trkpt>
<trkpt lat="46.66227398" lon="6.40257499"><ele>1154.680054</ele><time>2008-04-19T14:51:45Z</time></trkpt>
<trkpt lat="46.66227498" lon="6.40257197"><ele>1154.680054</ele><time>2008-04-19T14:52:06Z</time></trkpt>
<trkpt lat="46.66214003" lon="6.40246896"><ele>1154.680054</ele><time>2008-04-19T14:52:12Z</time></trkpt>
<trkpt lat="46.66189796" lon="6.40214500"><ele>1152.280029</ele><time>2008-04-19T14:52:18Z</time></trkpt>
<trkpt lat="46.66172404" lon="6.40199999"><ele>1150.349976</ele><time>2008-04-19T14:52:21Z</time></trkpt>
<trkpt lat="46.66096799" lon="6.40122601"><ele>1139.780029</ele><time>2008-04-19T14:52:34Z</time></trkpt>
<trkpt lat="46.66061402" lon="6.40078202"><ele>1137.859985</ele><time>2008-04-19T14:52:39Z</time></trkpt>
<trkpt lat="46.66026902" lon="6.40013200"><ele>1132.089966</ele><time>2008-04-19T14:52:45Z</time></trkpt>
<trkpt lat="46.65996702" lon="6.39876902"><ele>1123.920044</ele><time>2008-04-19T14:52:54Z</time></trkpt>
<trkpt lat="46.65947802" lon="6.39848102"><ele>1118.630005</ele><time>2008-04-19T14:53:00Z</time></trkpt>
<trkpt lat="46.65934802" lon="6.39855897"><ele>1116.709961</ele><time>2008-04-19T14:53:01Z</time></trkpt>
<trkpt lat="46.65833096" lon="6.39896298"><ele>1104.689941</ele><time>2008-04-19T14:53:10Z</time></trkpt>
<trkpt lat="46.65790197" lon="6.39891604"><ele>1097.959961</ele><time>2008-04-19T14:53:15Z</time></trkpt>
<trkpt lat="46.65759897" lon="6.39882099"><ele>1095.079956</ele><time>2008-04-19T14:53:18Z</time></trkpt>
<trkpt lat="46.65715104" lon="6.39887698"><ele>1090.27002</ele><time>2008-04-19T14:53:22Z</time></trkpt>
<trkpt lat="46.65636498" lon="6.39880104"><ele>1085.469971</ele><time>2008-04-19T14:53:29Z</time></trkpt>
<trkpt lat="46.65611797" lon="6.39881697"><ele>1084.5</ele><time>2008-04-19T14:53:32Z</time></trkpt>
<trkpt lat="46.65570499" lon="6.39841799"><ele>1075.369995</ele><time>2008-04-19T14:53:38Z</time></trkpt>
<trkpt lat="46.65554096" lon="6.39826703"><ele>1074.410034</ele><time>2008-04-19T14:53:40Z</time></trkpt>
<trkpt lat="46.65498197" lon="6.39829100"><ele>1068.640015</ele><time>2008-04-19T14:53:47Z</time></trkpt>
<trkpt lat="46.65487200" lon="6.39825798"><ele>1067.199951</ele><time>2008-04-19T14:53:49Z</time></trkpt>
<trkpt lat="46.65456698" lon="6.39819000"><ele>1065.280029</ele><time>2008-04-19T14:53:53Z</time></trkpt>
<trkpt lat="46.65428703" lon="6.39811498"><ele>1062.869995</ele><time>2008-04-19T14:53:56Z</time></trkpt>
<trkpt lat="46.65396600" lon="6.39805899"><ele>1059.030029</ele><time>2008-04-19T14:53:59Z</time></trkpt>
<trkpt lat="46.65355696" lon="6.39797903"><ele>1057.109985</ele><time>2008-04-19T14:54:03Z</time></trkpt>
<trkpt lat="46.65337700" lon="6.39801398"><ele>1056.150024</ele><time>2008-04-19T14:54:05Z</time></trkpt>
<trkpt lat="46.65308104" lon="6.39781399"><ele>1049.900024</ele><time>2008-04-19T14:54:09Z</time></trkpt>
<trkpt lat="46.65201503" lon="6.39712097"><ele>1035.47998</ele><time>2008-04-19T14:54:20Z</time></trkpt>
<trkpt lat="46.65194596" lon="6.39708401"><ele>1035.47998</ele><time>2008-04-19T14:54:21Z</time></trkpt>
<trkpt lat="46.65167296" lon="6.39717604"><ele>1035.47998</ele><time>2008-04-19T14:54:29Z</time></trkpt>
<trkpt lat="46.65167204" lon="6.39719498"><ele>1036.920044</ele><time>2008-04-19T14:54:55Z</time></trkpt>
<trkpt lat="46.65171202" lon="6.39733002"><ele>1036.920044</ele><time>2008-04-19T14:54:59Z</time></trkpt>
<trkpt lat="46.65182903" lon="6.39756303"><ele>1036.439941</ele><time>2008-04-19T14:55:03Z</time></trkpt>
<trkpt lat="46.65209902" lon="6.39791801"><ele>1035.47998</ele><time>2008-04-19T14:55:08Z</time></trkpt>
<trkpt lat="46.65219096" lon="6.39830198"><ele>1035</ele><time>2008-04-19T14:55:12Z</time></trkpt>
<trkpt lat="46.65264904" lon="6.39941300"><ele>1028.75</ele><time>2008-04-19T14:55:23Z</time></trkpt>
<trkpt lat="46.65289898" lon="6.39977703"><ele>1026.339966</ele><time>2008-04-19T14:55:27Z</time></trkpt>
<trkpt lat="46.65315396" lon="6.39997400"><ele>1024.420044</ele><time>2008-04-19T14:55:30Z</time></trkpt>
<trkpt lat="46.65344104" lon="6.40039201"><ele>1021.059998</ele><time>2008-04-19T14:55:34Z</time></trkpt>
<trkpt lat="46.65358697" lon="6.40069703"><ele>1020.099976</ele><time>2008-04-19T14:55:37Z</time></trkpt>
<trkpt lat="46.65377699" lon="6.40098603"><ele>1014.330017</ele><time>2008-04-19T14:55:44Z</time></trkpt>
<trkpt lat="46.65386701" lon="6.40095804"><ele>1013.369995</ele><time>2008-04-19T14:55:46Z</time></trkpt>
<trkpt lat="46.65417404" lon="6.40114001"><ele>1010.960022</ele><time>2008-04-19T14:55:52Z</time></trkpt>
<trkpt lat="46.65468701" lon="6.40179598"><ele>1004.22998</ele><time>2008-04-19T14:56:01Z</time></trkpt>
<trkpt lat="46.65468802" lon="6.40187996"><ele>1000.869995</ele><time>2008-04-19T14:56:05Z</time></trkpt>
<trkpt lat="46.65469204" lon="6.40185499"><ele>997.51001</ele><time>2008-04-19T14:56:29Z</time></trkpt>
<trkpt lat="46.65453304" lon="6.40176496"><ele>997.02002</ele><time>2008-04-19T14:56:55Z</time></trkpt>
<trkpt lat="46.65411101" lon="6.40173303"><ele>993.179993</ele><time>2008-04-19T14:57:05Z</time></trkpt>
<trkpt lat="46.65387103" lon="6.40193403"><ele>990.780029</ele><time>2008-04-19T14:57:11Z</time></trkpt>
<trkpt lat="46.65347599" lon="6.40212002"><ele>984.530029</ele><time>2008-04-19T14:57:17Z</time></trkpt>
<trkpt lat="46.65330199" lon="6.40211700"><ele>982.599976</ele><time>2008-04-19T14:57:19Z</time></trkpt>
<trkpt lat="46.65276797" lon="6.40171199"><ele>972.51001</ele><time>2008-04-19T14:57:26Z</time></trkpt>
<trkpt lat="46.65250403" lon="6.40168198"><ele>972.030029</ele><time>2008-04-19T14:57:29Z</time></trkpt>
<trkpt lat="46.65233698" lon="6.40168802"><ele>971.070007</ele><time>2008-04-19T14:57:31Z</time></trkpt>
<trkpt lat="46.65215199" lon="6.40166698"><ele>969.630005</ele><time>2008-04-19T14:57:33Z</time></trkpt>
<trkpt lat="46.65101700" lon="6.40138099"><ele>961.940002</ele><time>2008-04-19T14:57:44Z</time></trkpt>
<trkpt lat="46.65013497" lon="6.40113800"><ele>956.169983</ele><time>2008-04-19T14:57:53Z</time></trkpt>
<trkpt lat="46.64965896" lon="6.40116499"><ele>952.799988</ele><time>2008-04-19T14:57:58Z</time></trkpt>
<trkpt lat="46.64944698" lon="6.40108704"><ele>949.919983</ele><time>2008-04-19T14:58:01Z</time></trkpt>
<trkpt lat="46.64903803" lon="6.40072200"><ele>945.109985</ele><time>2008-04-19T14:58:07Z</time></trkpt>
<trkpt lat="46.64885203" lon="6.40044800"><ele>942.22998</ele><time>2008-04-19T14:58:10Z</time></trkpt>
<trkpt lat="46.64865003" lon="6.39952498"><ele>935.97998</ele><time>2008-04-19T14:58:16Z</time></trkpt>
<trkpt lat="46.64820797" lon="6.39858504"><ele>930.690002</ele><time>2008-04-19T14:58:24Z</time></trkpt>
<trkpt lat="46.64774403" lon="6.39762498"><ele>924.450012</ele><time>2008-04-19T14:58:32Z</time></trkpt>
<trkpt lat="46.64709502" lon="6.39732096"><ele>919.640015</ele><time>2008-04-19T14:58:39Z</time></trkpt>
<trkpt lat="46.64597997" lon="6.39733798"><ele>915.789978</ele><time>2008-04-19T14:58:51Z</time></trkpt>
<trkpt lat="46.64579901" lon="6.39734502"><ele>913.390015</ele><time>2008-04-19T14:58:56Z</time></trkpt>
<trkpt lat="46.64580999" lon="6.39731300"><ele>914.349976</ele><time>2008-04-19T14:59:07Z</time></trkpt>
<trkpt lat="46.64576104" lon="6.39728400"><ele>914.349976</ele><time>2008-04-19T14:59:12Z</time></trkpt>
<trkpt lat="46.64586799" lon="6.39706104"><ele>913.869995</ele><time>2008-04-19T14:59:24Z</time></trkpt>
<trkpt lat="46.64598702" lon="6.39680699"><ele>913.869995</ele><time>2008-04-19T14:59:36Z</time></trkpt>
<trkpt lat="46.64612599" lon="6.39657799"><ele>917.23999</ele><time>2008-04-19T14:59:48Z</time></trkpt>
<trkpt lat="46.64609003" lon="6.39660398"><ele>920.119995</ele><time>2008-04-19T15:01:29Z</time></trkpt>
<trkpt lat="46.64599196" lon="6.39685803"><ele>919.640015</ele><time>2008-04-19T15:01:38Z</time></trkpt>
<trkpt lat="46.64590797" lon="6.39703103"><ele>919.159973</ele><time>2008-04-19T15:01:41Z</time></trkpt>
<trkpt lat="46.64590999" lon="6.39716296"><ele>920.119995</ele><time>2008-04-19T15:01:49Z</time></trkpt>
<trkpt lat="46.64609497" lon="6.39703296"><ele>919.640015</ele><time>2008-04-19T15:02:01Z</time></trkpt>
<trkpt lat="46.64646202" lon="6.39686197"><ele>921.559998</ele><time>2008-04-19T15:02:15Z</time></trkpt>
<trkpt lat="46.64670601" lon="6.39676700"><ele>926.369995</ele><time>2008-04-19T15:02:28Z</time></trkpt>
<trkpt lat="46.64685102" lon="6.39668402"><ele>932.140015</ele><time>2008-04-19T15:02:38Z</time></trkpt>
<trkpt lat="46.64706199" lon="6.39656399"><ele>937.900024</ele><time>2008-04-19T15:02:51Z</time></trkpt>
<trkpt lat="46.64728797" lon="6.39636400"><ele>941.27002</ele><time>2008-04-19T15:03:04Z</time></trkpt>
<trkpt lat="46.64748897" lon="6.39619301"><ele>942.710022</ele><time>2008-04-19T15:03:18Z</time></trkpt>
<trkpt lat="46.64768603" lon="6.39590903"><ele>940.789978</ele><time>2008-04-19T15:03:35Z</time></trkpt>
<trkpt lat="46.64775702" lon="6.39552204"><ele>941.75</ele><time>2008-04-19T15:03:49Z</time></trkpt>
<trkpt lat="46.64778502" lon="6.39518802"><ele>945.109985</ele><time>2008-04-19T15:04:01Z</time></trkpt>
<trkpt lat="46.64786699" lon="6.39472802"><ele>952.320007</ele><time>2008-04-19T15:04:15Z</time></trkpt>
<trkpt lat="46.64792801" lon="6.39417197"><ele>951.840027</ele><time>2008-04-19T15:04:28Z</time></trkpt>
<trkpt lat="46.64778996" lon="6.39362899"><ele>953.280029</ele><time>2008-04-19T15:04:42Z</time></trkpt>
<trkpt lat="46.64761503" lon="6.39329799"><ele>957.609985</ele><time>2008-04-19T15:04:55Z</time></trkpt>
<trkpt lat="46.64737397" lon="6.39321601"><ele>960.48999</ele><time>2008-04-19T15:05:08Z</time></trkpt>
<trkpt lat="46.64716098" lon="6.39321702"><ele>965.299988</ele><time>2008-04-19T15:05:19Z</time></trkpt>
<trkpt lat="46.64695797" lon="6.39317896"><ele>963.859985</ele><time>2008-04-19T15:05:28Z</time></trkpt>
<trkpt lat="46.64672596" lon="6.39294703"><ele>962.419983</ele><time>2008-04-19T15:05:41Z</time></trkpt>
<trkpt lat="46.64642698" lon="6.39265099"><ele>967.219971</ele><time>2008-04-19T15:05:58Z</time></trkpt>
<trkpt lat="46.64617402" lon="6.39230699"><ele>970.109985</ele><time>2008-04-19T15:06:15Z</time></trkpt>
<trkpt lat="46.64596698" lon="6.39202997"><ele>970.590027</ele><time>2008-04-19T15:06:29Z</time></trkpt>
<trkpt lat="46.64576104" lon="6.39175002"><ele>974.909973</ele><time>2008-04-19T15:06:42Z</time></trkpt>
<trkpt lat="46.64549701" lon="6.39144500"><ele>975.880005</ele><time>2008-04-19T15:06:57Z</time></trkpt>
<trkpt lat="46.64520599" lon="6.39119203"><ele>976.840027</ele><time>2008-04-19T15:07:10Z</time></trkpt>
<trkpt lat="46.64489100" lon="6.39097997"><ele>976.359985</ele><time>2008-04-19T15:07:23Z</time></trkpt>
<trkpt lat="46.64456796" lon="6.39067898"><ele>982.119995</ele><time>2008-04-19T15:07:38Z</time></trkpt>
<trkpt lat="46.64434701" lon="6.39036298"><ele>982.599976</ele><time>2008-04-19T15:07:51Z</time></trkpt>
<trkpt lat="46.64420402" lon="6.38999300"><ele>985.48999</ele><time>2008-04-19T15:08:05Z</time></trkpt>
<trkpt lat="46.64405297" lon="6.38954298"><ele>986.929993</ele><time>2008-04-19T15:08:22Z</time></trkpt>
<trkpt lat="46.64392398" lon="6.38886203"><ele>987.409973</ele><time>2008-04-19T15:08:41Z</time></trkpt>
<trkpt lat="46.64383002" lon="6.38844403"><ele>988.369995</ele><time>2008-04-19T15:08:53Z</time></trkpt>
<trkpt lat="46.64364402" lon="6.38805100"><ele>988.849976</ele><time>2008-04-19T15:09:07Z</time></trkpt>
<trkpt lat="46.64343799" lon="6.38759200"><ele>989.330017</ele><time>2008-04-19T15:09:23Z</time></trkpt>
<trkpt lat="46.64331998" lon="6.38734801"><ele>991.26001</ele><time>2008-04-19T15:09:32Z</time></trkpt>
<trkpt lat="46.64313901" lon="6.38693201"><ele>996.539978</ele><time>2008-04-19T15:09:46Z</time></trkpt>
<trkpt lat="46.64296299" lon="6.38649498"><ele>1002.309998</ele><time>2008-04-19T15:10:00Z</time></trkpt>
<trkpt lat="46.64283902" lon="6.38606700"><ele>1005.200012</ele><time>2008-04-19T15:10:14Z</time></trkpt>
<trkpt lat="46.64272101" lon="6.38561497"><ele>1006.640015</ele><time>2008-04-19T15:10:29Z</time></trkpt>
<trkpt lat="46.64260198" lon="6.38506101"><ele>1009.52002</ele><time>2008-04-19T15:10:46Z</time></trkpt>
<trkpt lat="46.64242697" lon="6.38472104"><ele>1014.330017</ele><time>2008-04-19T15:11:01Z</time></trkpt>
<trkpt lat="46.64227400" lon="6.38428400"><ele>1015.289978</ele><time>2008-04-19T15:11:16Z</time></trkpt>
<trkpt lat="46.64225497" lon="6.38383004"><ele>1014.330017</ele><time>2008-04-19T15:11:28Z</time></trkpt>
<trkpt lat="46.64226302" lon="6.38305597"><ele>1017.690002</ele><time>2008-04-19T15:11:44Z</time></trkpt>
<trkpt lat="46.64222203" lon="6.38262204"><ele>1023.460022</ele><time>2008-04-19T15:11:57Z</time></trkpt>
<trkpt lat="46.64213503" lon="6.38224804"><ele>1028.75</ele><time>2008-04-19T15:12:10Z</time></trkpt>
<trkpt lat="46.64188902" lon="6.38183297"><ele>1027.310059</ele><time>2008-04-19T15:12:26Z</time></trkpt>
<trkpt lat="46.64143103" lon="6.38116602"><ele>1027.310059</ele><time>2008-04-19T15:12:40Z</time></trkpt>
<trkpt lat="46.64094798" lon="6.38029204"><ele>1026.829956</ele><time>2008-04-19T15:12:58Z</time></trkpt>
<trkpt lat="46.64100397" lon="6.37986699"><ele>1027.790039</ele><time>2008-04-19T15:13:08Z</time></trkpt>
<trkpt lat="46.64097698" lon="6.37941001"><ele>1030.670044</ele><time>2008-04-19T15:13:20Z</time></trkpt>
<trkpt lat="46.64091202" lon="6.37897197"><ele>1032.589966</ele><time>2008-04-19T15:13:33Z</time></trkpt>
<trkpt lat="46.64087699" lon="6.37881003"><ele>1033.550049</ele><time>2008-04-19T15:13:39Z</time></trkpt>
<trkpt lat="46.64086903" lon="6.37835104"><ele>1034.52002</ele><time>2008-04-19T15:13:52Z</time></trkpt>
<trkpt lat="46.64089099" lon="6.37802800"><ele>1037.880005</ele><time>2008-04-19T15:14:05Z</time></trkpt>
<trkpt lat="46.64092401" lon="6.37784704"><ele>1038.839966</ele><time>2008-04-19T15:14:10Z</time></trkpt>
<trkpt lat="46.64113599" lon="6.37731504"><ele>1043.650024</ele><time>2008-04-19T15:14:21Z</time></trkpt>
<trkpt lat="46.64125300" lon="6.37700398"><ele>1044.609985</ele><time>2008-04-19T15:14:25Z</time></trkpt>
<trkpt lat="46.64160999" lon="6.37579297"><ele>1050.859985</ele><time>2008-04-19T15:14:38Z</time></trkpt>
<trkpt lat="46.64166799" lon="6.37559297"><ele>1047.01001</ele><time>2008-04-19T15:14:40Z</time></trkpt>
<trkpt lat="46.64174996" lon="6.37447399"><ele>1037.400024</ele><time>2008-04-19T15:14:52Z</time></trkpt>
<trkpt lat="46.64170596" lon="6.37402103"><ele>1034.52002</ele><time>2008-04-19T15:14:57Z</time></trkpt>
<trkpt lat="46.64163102" lon="6.37335199"><ele>1033.550049</ele><time>2008-04-19T15:15:05Z</time></trkpt>
<trkpt lat="46.64127898" lon="6.37277297"><ele>1030.189941</ele><time>2008-04-19T15:15:17Z</time></trkpt>
<trkpt lat="46.64094396" lon="6.37244004"><ele>1033.550049</ele><time>2008-04-19T15:15:30Z</time></trkpt>
<trkpt lat="46.64072502" lon="6.37209102"><ele>1032.589966</ele><time>2008-04-19T15:15:44Z</time></trkpt>
<trkpt lat="46.64057901" lon="6.37174401"><ele>1032.109985</ele><time>2008-04-19T15:15:58Z</time></trkpt>
<trkpt lat="46.64043099" lon="6.37129004"><ele>1030.670044</ele><time>2008-04-19T15:16:11Z</time></trkpt>
<trkpt lat="46.64045898" lon="6.37073197"><ele>1029.709961</ele><time>2008-04-19T15:16:22Z</time></trkpt>
<trkpt lat="46.64045898" lon="6.37068797"><ele>1029.709961</ele><time>2008-04-19T15:16:23Z</time></trkpt>
<trkpt lat="46.64041196" lon="6.37051002"><ele>1027.790039</ele><time>2008-04-19T15:16:27Z</time></trkpt>
<trkpt lat="46.64028799" lon="6.37055797"><ele>1029.709961</ele><time>2008-04-19T15:16:31Z</time></trkpt>
<trkpt lat="46.63996202" lon="6.37137000"><ele>1025.859985</ele><time>2008-04-19T15:16:41Z</time></trkpt>
<trkpt lat="46.63992296" lon="6.37144703"><ele>1025.380005</ele><time>2008-04-19T15:16:43Z</time></trkpt>
<trkpt lat="46.63946799" lon="6.37146204"><ele>1024.420044</ele><time>2008-04-19T15:16:52Z</time></trkpt>
<trkpt lat="46.63941502" lon="6.37145198"><ele>1024.420044</ele><time>2008-04-19T15:16:53Z</time></trkpt>
<trkpt lat="46.63909902" lon="6.37129004"><ele>1016.25</ele><time>2008-04-19T15:16:59Z</time></trkpt>
<trkpt lat="46.63894001" lon="6.37117102"><ele>1013.849976</ele><time>2008-04-19T15:17:02Z</time></trkpt>
<trkpt lat="46.63882200" lon="6.37113003"><ele>1012.409973</ele><time>2008-04-19T15:17:04Z</time></trkpt>
<trkpt lat="46.63852402" lon="6.37139901"><ele>1005.200012</ele><time>2008-04-19T15:17:11Z</time></trkpt>
<trkpt lat="46.63851002" lon="6.37160998"><ele>1001.349976</ele><time>2008-04-19T15:17:13Z</time></trkpt>
<trkpt lat="46.63860398" lon="6.37231397"><ele>996.539978</ele><time>2008-04-19T15:17:19Z</time></trkpt>
<trkpt lat="46.63870197" lon="6.37298704"><ele>991.26001</ele><time>2008-04-19T15:17:27Z</time></trkpt>
<trkpt lat="46.63869099" lon="6.37309601"><ele>990.299988</ele><time>2008-04-19T15:17:28Z</time></trkpt>
<trkpt lat="46.63869099" lon="6.37331402"><ele>990.780029</ele><time>2008-04-19T15:17:30Z</time></trkpt>
<trkpt lat="46.63871001" lon="6.37366396"><ele>988.369995</ele><time>2008-04-19T15:17:34Z</time></trkpt>
<trkpt lat="46.63870499" lon="6.37387502"><ele>986.450012</ele><time>2008-04-19T15:17:36Z</time></trkpt>
<trkpt lat="46.63874597" lon="6.37446703"><ele>979.719971</ele><time>2008-04-19T15:17:42Z</time></trkpt>
<trkpt lat="46.63863902" lon="6.37483500"><ele>975.880005</ele><time>2008-04-19T15:17:46Z</time></trkpt>
<trkpt lat="46.63817299" lon="6.37567403"><ele>968.669983</ele><time>2008-04-19T15:17:56Z</time></trkpt>
<trkpt lat="46.63805698" lon="6.37610896"><ele>964.340027</ele><time>2008-04-19T15:18:01Z</time></trkpt>
<trkpt lat="46.63800099" lon="6.37638196"><ele>962.900024</ele><time>2008-04-19T15:18:03Z</time></trkpt>
<trkpt lat="46.63797601" lon="6.37687599"><ele>959.049988</ele><time>2008-04-19T15:18:08Z</time></trkpt>
<trkpt lat="46.63797501" lon="6.37705998"><ele>956.650024</ele><time>2008-04-19T15:18:10Z</time></trkpt>
<trkpt lat="46.63793997" lon="6.37746097"><ele>953.280029</ele><time>2008-04-19T15:18:14Z</time></trkpt>
<trkpt lat="46.63783603" lon="6.37784502"><ele>949.440002</ele><time>2008-04-19T15:18:18Z</time></trkpt>
<trkpt lat="46.63774098" lon="6.37830704"><ele>945.109985</ele><time>2008-04-19T15:18:23Z</time></trkpt>
<trkpt lat="46.63770402" lon="6.37853100"><ele>942.710022</ele><time>2008-04-19T15:18:25Z</time></trkpt>
<trkpt lat="46.63763403" lon="6.37908798"><ele>939.349976</ele><time>2008-04-19T15:18:34Z</time></trkpt>
<trkpt lat="46.63759698" lon="6.37917004"><ele>942.710022</ele><time>2008-04-19T15:19:18Z</time></trkpt>
<trkpt lat="46.63753403" lon="6.37916702"><ele>943.669983</ele><time>2008-04-19T15:19:23Z</time></trkpt>
<trkpt lat="46.63743001" lon="6.37919401"><ele>945.109985</ele><time>2008-04-19T15:19:30Z</time></trkpt>
<trkpt lat="46.63732097" lon="6.37933600"><ele>946.559998</ele><time>2008-04-19T15:19:34Z</time></trkpt>
<trkpt lat="46.63718401" lon="6.37954798"><ele>950.880005</ele><time>2008-04-19T15:19:45Z</time></trkpt>
<trkpt lat="46.63708703" lon="6.37960003"><ele>954.25</ele><time>2008-04-19T15:19:52Z</time></trkpt>
<trkpt lat="46.63692500" lon="6.37959500"><ele>957.609985</ele><time>2008-04-19T15:20:03Z</time></trkpt>
<trkpt lat="46.63689399" lon="6.37958402"><ele>958.570007</ele><time>2008-04-19T15:20:19Z</time></trkpt>
<trkpt lat="46.63710698" lon="6.37953901"><ele>957.609985</ele><time>2008-04-19T15:20:26Z</time></trkpt>
<trkpt lat="46.63718501" lon="6.37947698"><ele>956.650024</ele><time>2008-04-19T15:20:28Z</time></trkpt>
<trkpt lat="46.63744703" lon="6.37918001"><ele>952.799988</ele><time>2008-04-19T15:20:35Z</time></trkpt>
<trkpt lat="46.63773696" lon="6.37935603"><ele>948.47998</ele><time>2008-04-19T15:20:42Z</time></trkpt>
<trkpt lat="46.63774601" lon="6.37961897"><ele>946.070007</ele><time>2008-04-19T15:20:45Z</time></trkpt>
<trkpt lat="46.63751802" lon="6.38112302"><ele>937.900024</ele><time>2008-04-19T15:20:59Z</time></trkpt>
<trkpt lat="46.63743798" lon="6.38144396"><ele>935.97998</ele><time>2008-04-19T15:21:02Z</time></trkpt>
<trkpt lat="46.63737997" lon="6.38162803"><ele>933.580017</ele><time>2008-04-19T15:21:04Z</time></trkpt>
<trkpt lat="46.63688603" lon="6.38216497"><ele>926.849976</ele><time>2008-04-19T15:21:12Z</time></trkpt>
<trkpt lat="46.63657397" lon="6.38249497"><ele>919.159973</ele><time>2008-04-19T15:21:18Z</time></trkpt>
<trkpt lat="46.63615798" lon="6.38341798"><ele>915.309998</ele><time>2008-04-19T15:21:28Z</time></trkpt>
<trkpt lat="46.63584500" lon="6.38430999"><ele>905.219971</ele><time>2008-04-19T15:21:38Z</time></trkpt>
<trkpt lat="46.63546496" lon="6.38554900"><ele>897.049988</ele><time>2008-04-19T15:21:50Z</time></trkpt>
<trkpt lat="46.63524896" lon="6.38594597"><ele>893.679993</ele><time>2008-04-19T15:21:54Z</time></trkpt>
<trkpt lat="46.63512097" lon="6.38612802"><ele>892.23999</ele><time>2008-04-19T15:21:56Z</time></trkpt>
<trkpt lat="46.63450196" lon="6.38663203"><ele>885.51001</ele><time>2008-04-19T15:22:03Z</time></trkpt>
<trkpt lat="46.63415101" lon="6.38712597"><ele>883.590027</ele><time>2008-04-19T15:22:08Z</time></trkpt>
<trkpt lat="46.63381096" lon="6.38746703"><ele>884.549988</ele><time>2008-04-19T15:22:12Z</time></trkpt>
<trkpt lat="46.63343503" lon="6.38765696"><ele>879.73999</ele><time>2008-04-19T15:22:16Z</time></trkpt>
<trkpt lat="46.63286104" lon="6.38779703"><ele>877.340027</ele><time>2008-04-19T15:22:22Z</time></trkpt>
<trkpt lat="46.63260698" lon="6.38809199"><ele>875.900024</ele><time>2008-04-19T15:22:27Z</time></trkpt>
<trkpt lat="46.63247304" lon="6.38858501"><ele>873.01001</ele><time>2008-04-19T15:22:32Z</time></trkpt>
<trkpt lat="46.63227196" lon="6.38894602"><ele>871.090027</ele><time>2008-04-19T15:22:36Z</time></trkpt>
<trkpt lat="46.63205696" lon="6.38911600"><ele>871.570007</ele><time>2008-04-19T15:22:39Z</time></trkpt>
<trkpt lat="46.63190098" lon="6.38943301"><ele>868.690002</ele><time>2008-04-19T15:22:43Z</time></trkpt>
<trkpt lat="46.63182696" lon="6.39051603"><ele>865.799988</ele><time>2008-04-19T15:22:51Z</time></trkpt>
<trkpt lat="46.63158498" lon="6.39129102"><ele>859.559998</ele><time>2008-04-19T15:22:57Z</time></trkpt>
<trkpt lat="46.63144601" lon="6.39281200"><ele>850.900024</ele><time>2008-04-19T15:23:07Z</time></trkpt>
<trkpt lat="46.63126596" lon="6.39349898"><ele>846.099976</ele><time>2008-04-19T15:23:14Z</time></trkpt>
<trkpt lat="46.63121399" lon="6.39367802"><ele>845.140015</ele><time>2008-04-19T15:23:16Z</time></trkpt>
<trkpt lat="46.63118499" lon="6.39390802"><ele>843.690002</ele><time>2008-04-19T15:23:19Z</time></trkpt>
<trkpt lat="46.63121500" lon="6.39420197"><ele>841.289978</ele><time>2008-04-19T15:23:23Z</time></trkpt>
<trkpt lat="46.63123998" lon="6.39438202"><ele>841.77002</ele><time>2008-04-19T15:23:25Z</time></trkpt>
<trkpt lat="46.63176804" lon="6.39503597"><ele>846.580017</ele><time>2008-04-19T15:23:36Z</time></trkpt>
<trkpt lat="46.63202402" lon="6.39530503"><ele>845.140015</ele><time>2008-04-19T15:23:40Z</time></trkpt>
<trkpt lat="46.63235301" lon="6.39563402"><ele>841.77002</ele><time>2008-04-19T15:23:46Z</time></trkpt>
<trkpt lat="46.63233499" lon="6.39600802"><ele>841.289978</ele><time>2008-04-19T15:23:53Z</time></trkpt>
<trkpt lat="46.63222703" lon="6.39599604"><ele>841.77002</ele><time>2008-04-19T15:23:55Z</time></trkpt>
<trkpt lat="46.63196602" lon="6.39592504"><ele>838.409973</ele><time>2008-04-19T15:23:59Z</time></trkpt>
<trkpt lat="46.63151901" lon="6.39593803"><ele>839.849976</ele><time>2008-04-19T15:24:04Z</time></trkpt>
<trkpt lat="46.63110201" lon="6.39581700"><ele>839.369995</ele><time>2008-04-19T15:24:09Z</time></trkpt>
<trkpt lat="46.63087302" lon="6.39567803"><ele>839.369995</ele><time>2008-04-19T15:24:12Z</time></trkpt>
<trkpt lat="46.63056700" lon="6.39556697"><ele>838.890015</ele><time>2008-04-19T15:24:16Z</time></trkpt>
<trkpt lat="46.63011697" lon="6.39558398"><ele>838.890015</ele><time>2008-04-19T15:24:21Z</time></trkpt>
<trkpt lat="46.62950300" lon="6.39574399"><ele>832.640015</ele><time>2008-04-19T15:24:27Z</time></trkpt>
<trkpt lat="46.62890403" lon="6.39565003"><ele>818.700012</ele><time>2008-04-19T15:24:33Z</time></trkpt>
<trkpt lat="46.62862700" lon="6.39601800"><ele>810.530029</ele><time>2008-04-19T15:24:39Z</time></trkpt>
<trkpt lat="46.62864000" lon="6.39611699"><ele>809.570007</ele><time>2008-04-19T15:24:40Z</time></trkpt>
<trkpt lat="46.62867797" lon="6.39640901"><ele>807.640015</ele><time>2008-04-19T15:24:43Z</time></trkpt>
<trkpt lat="46.62866103" lon="6.39673398"><ele>803.320007</ele><time>2008-04-19T15:24:47Z</time></trkpt>
<trkpt lat="46.62856397" lon="6.39695501"><ele>800.440002</ele><time>2008-04-19T15:24:50Z</time></trkpt>
<trkpt lat="46.62851502" lon="6.39712600"><ele>798.030029</ele><time>2008-04-19T15:24:53Z</time></trkpt>
<trkpt lat="46.62866397" lon="6.39770100"><ele>789.859985</ele><time>2008-04-19T15:25:00Z</time></trkpt>
<trkpt lat="46.62870303" lon="6.39803099"><ele>786.97998</ele><time>2008-04-19T15:25:04Z</time></trkpt>
<trkpt lat="46.62873999" lon="6.39839301"><ele>784.570007</ele><time>2008-04-19T15:25:07Z</time></trkpt>
<trkpt lat="46.62887301" lon="6.39877598"><ele>782.169983</ele><time>2008-04-19T15:25:11Z</time></trkpt>
<trkpt lat="46.62892196" lon="6.39908703"><ele>782.169983</ele><time>2008-04-19T15:25:19Z</time></trkpt>
<trkpt lat="46.62893797" lon="6.39936799"><ele>780.25</ele><time>2008-04-19T15:25:35Z</time></trkpt>
<trkpt lat="46.62889799" lon="6.39968701"><ele>778.809998</ele><time>2008-04-19T15:25:38Z</time></trkpt>
<trkpt lat="46.62888802" lon="6.40030500"><ele>777.359985</ele><time>2008-04-19T15:25:43Z</time></trkpt>
<trkpt lat="46.62873999" lon="6.40086098"><ele>772.559998</ele><time>2008-04-19T15:25:49Z</time></trkpt>
<trkpt lat="46.62872901" lon="6.40142399"><ele>765.830017</ele><time>2008-04-19T15:25:55Z</time></trkpt>
<trkpt lat="46.62859499" lon="6.40197300"><ele>761.02002</ele><time>2008-04-19T15:26:00Z</time></trkpt>
<trkpt lat="46.62849901" lon="6.40213100"><ele>758.619995</ele><time>2008-04-19T15:26:02Z</time></trkpt>
<trkpt lat="46.62823398" lon="6.40282704"><ele>752.849976</ele><time>2008-04-19T15:26:09Z</time></trkpt>
<trkpt lat="46.62795897" lon="6.40331101"><ele>745.640015</ele><time>2008-04-19T15:26:17Z</time></trkpt>
<trkpt lat="46.62782704" lon="6.40328603"><ele>744.200012</ele><time>2008-04-19T15:26:19Z</time></trkpt>
<trkpt lat="46.62747902" lon="6.40321101"><ele>741.309998</ele><time>2008-04-19T15:26:23Z</time></trkpt>
<trkpt lat="46.62726201" lon="6.40309501"><ele>740.830017</ele><time>2008-04-19T15:26:26Z</time></trkpt>
<trkpt lat="46.62702103" lon="6.40296198"><ele>742.280029</ele><time>2008-04-19T15:26:30Z</time></trkpt>
<trkpt lat="46.62671098" lon="6.40280399"><ele>739.390015</ele><time>2008-04-19T15:26:38Z</time></trkpt>
<trkpt lat="46.62625803" lon="6.40257600"><ele>730.26001</ele><time>2008-04-19T15:26:48Z</time></trkpt>
<trkpt lat="46.62619198" lon="6.40256996"><ele>732.179993</ele><time>2008-04-19T15:27:04Z</time></trkpt>
<trkpt lat="46.62615996" lon="6.40262101"><ele>733.140015</ele><time>2008-04-19T15:27:23Z</time></trkpt>
<trkpt lat="46.62621503" lon="6.40261900"><ele>734.099976</ele><time>2008-04-19T15:27:27Z</time></trkpt>
<trkpt lat="46.62646598" lon="6.40271103"><ele>737.950012</ele><time>2008-04-19T15:27:38Z</time></trkpt>
<trkpt lat="46.62659397" lon="6.40274196"><ele>739.869995</ele><time>2008-04-19T15:27:43Z</time></trkpt>
<trkpt lat="46.62673303" lon="6.40284397"><ele>743.23999</ele><time>2008-04-19T15:27:48Z</time></trkpt>
<trkpt lat="46.62667897" lon="6.40263702"><ele>742.76001</ele><time>2008-04-19T15:27:56Z</time></trkpt>
<trkpt lat="46.62620304" lon="6.40215204"><ele>741.789978</ele><time>2008-04-19T15:28:08Z</time></trkpt>
<trkpt lat="46.62597204" lon="6.40188499"><ele>738.429993</ele><time>2008-04-19T15:28:13Z</time></trkpt>
<trkpt lat="46.62566903" lon="6.40160697"><ele>736.98999</ele><time>2008-04-19T15:28:19Z</time></trkpt>
<trkpt lat="46.62552302" lon="6.40141502"><ele>734.580017</ele><time>2008-04-19T15:28:22Z</time></trkpt>
<trkpt lat="46.62520199" lon="6.40118502"><ele>731.219971</ele><time>2008-04-19T15:28:28Z</time></trkpt>
<trkpt lat="46.62484903" lon="6.40118502"><ele>732.179993</ele><time>2008-04-19T15:28:36Z</time></trkpt>
<trkpt lat="46.62454904" lon="6.40159599"><ele>730.26001</ele><time>2008-04-19T15:28:42Z</time></trkpt>
<trkpt lat="46.62436397" lon="6.40176698"><ele>729.299988</ele><time>2008-04-19T15:28:45Z</time></trkpt>
<trkpt lat="46.62403104" lon="6.40192104"><ele>725.929993</ele><time>2008-04-19T15:28:49Z</time></trkpt>
<trkpt lat="46.62324398" lon="6.40201399"><ele>717.76001</ele><time>2008-04-19T15:28:57Z</time></trkpt>
<trkpt lat="46.62307500" lon="6.40203796"><ele>716.320007</ele><time>2008-04-19T15:28:59Z</time></trkpt>
<trkpt lat="46.62277702" lon="6.40192598"><ele>713.919983</ele><time>2008-04-19T15:29:03Z</time></trkpt>
<trkpt lat="46.62261902" lon="6.40193696"><ele>712.469971</ele><time>2008-04-19T15:29:08Z</time></trkpt>
<trkpt lat="46.62256404" lon="6.40182104"><ele>710.070007</ele><time>2008-04-19T15:29:14Z</time></trkpt>
<trkpt lat="46.62244300" lon="6.40170897"><ele>709.590027</ele><time>2008-04-19T15:29:25Z</time></trkpt>
<trkpt lat="46.62244996" lon="6.40173102"><ele>708.630005</ele><time>2008-04-19T15:29:28Z</time></trkpt>
<trkpt lat="46.62255197" lon="6.40200402"><ele>708.630005</ele><time>2008-04-19T15:29:37Z</time></trkpt>
<trkpt lat="46.62252297" lon="6.40205598"><ele>708.150024</ele><time>2008-04-19T15:29:38Z</time></trkpt>
<trkpt lat="46.62202097" lon="6.40275897"><ele>705.75</ele><time>2008-04-19T15:29:48Z</time></trkpt>
<trkpt lat="46.62141102" lon="6.40378500"><ele>700.940002</ele><time>2008-04-19T15:30:01Z</time></trkpt>
<trkpt lat="46.62092202" lon="6.40459696"><ele>695.169983</ele><time>2008-04-19T15:30:11Z</time></trkpt>
<trkpt lat="46.62054501" lon="6.40537304"><ele>690.840027</ele><time>2008-04-19T15:30:18Z</time></trkpt>
<trkpt lat="46.62012096" lon="6.40557898"><ele>687.960022</ele><time>2008-04-19T15:30:23Z</time></trkpt>
<trkpt lat="46.61989901" lon="6.40544596"><ele>684.599976</ele><time>2008-04-19T15:30:26Z</time></trkpt>
<trkpt lat="46.61966398" lon="6.40555602"><ele>683.630005</ele><time>2008-04-19T15:30:31Z</time></trkpt>
<trkpt lat="46.61958796" lon="6.40573204"><ele>681.22998</ele><time>2008-04-19T15:30:33Z</time></trkpt>
<trkpt lat="46.61948796" lon="6.40591200"><ele>680.75</ele><time>2008-04-19T15:30:35Z</time></trkpt>
<trkpt lat="46.61929904" lon="6.40612800"><ele>677.390015</ele><time>2008-04-19T15:30:38Z</time></trkpt>
<trkpt lat="46.61900701" lon="6.40638398"><ele>674.97998</ele><time>2008-04-19T15:30:42Z</time></trkpt>
<trkpt lat="46.61893099" lon="6.40698697"><ele>670.659973</ele><time>2008-04-19T15:30:48Z</time></trkpt>
<trkpt lat="46.61889796" lon="6.40775400"><ele>663.450012</ele><time>2008-04-19T15:30:57Z</time></trkpt>
<trkpt lat="46.61863703" lon="6.40780002"><ele>661.52002</ele><time>2008-04-19T15:31:01Z</time></trkpt>
<trkpt lat="46.61830897" lon="6.40767303"><ele>658.159973</ele><time>2008-04-19T15:31:05Z</time></trkpt>
<trkpt lat="46.61816597" lon="6.40793899"><ele>655.76001</ele><time>2008-04-19T15:31:11Z</time></trkpt>
<trkpt lat="46.61818198" lon="6.40812096"><ele>654.309998</ele><time>2008-04-19T15:31:14Z</time></trkpt>
<trkpt lat="46.61815197" lon="6.40828701"><ele>655.280029</ele><time>2008-04-19T15:31:16Z</time></trkpt>
<trkpt lat="46.61808399" lon="6.40852899"><ele>651.909973</ele><time>2008-04-19T15:31:19Z</time></trkpt>
<trkpt lat="46.61782701" lon="6.40935201"><ele>655.76001</ele><time>2008-04-19T15:31:29Z</time></trkpt>
<trkpt lat="46.61756197" lon="6.40961504"><ele>657.200012</ele><time>2008-04-19T15:31:35Z</time></trkpt>
<trkpt lat="46.61711404" lon="6.40976901"><ele>657.200012</ele><time>2008-04-19T15:31:43Z</time></trkpt>
<trkpt lat="46.61684398" lon="6.41004201"><ele>658.640015</ele><time>2008-04-19T15:31:49Z</time></trkpt>
<trkpt lat="46.61649303" lon="6.41006297"><ele>658.159973</ele><time>2008-04-19T15:31:57Z</time></trkpt>
<trkpt lat="46.61622497" lon="6.41003799"><ele>661.52002</ele><time>2008-04-19T15:32:06Z</time></trkpt>
<trkpt lat="46.61571804" lon="6.40979198"><ele>662.48999</ele><time>2008-04-19T15:32:21Z</time></trkpt>
<trkpt lat="46.61528704" lon="6.40945402"><ele>662.48999</ele><time>2008-04-19T15:32:35Z</time></trkpt>
<trkpt lat="46.61487599" lon="6.40905001"><ele>662.48999</ele><time>2008-04-19T15:32:47Z</time></trkpt>
<trkpt lat="46.61418096" lon="6.40844199"><ele>663.929993</ele><time>2008-04-19T15:33:05Z</time></trkpt>
<trkpt lat="46.61340396" lon="6.40809297"><ele>667.289978</ele><time>2008-04-19T15:33:23Z</time></trkpt>
<trkpt lat="46.61282502" lon="6.40793899"><ele>670.179993</ele><time>2008-04-19T15:33:38Z</time></trkpt>
<trkpt lat="46.61198499" lon="6.40765300"><ele>665.849976</ele><time>2008-04-19T15:33:55Z</time></trkpt>
<trkpt lat="46.61114596" lon="6.40701598"><ele>664.890015</ele><time>2008-04-19T15:34:11Z</time></trkpt>
<trkpt lat="46.61031699" lon="6.40640703"><ele>665.369995</ele><time>2008-04-19T15:34:28Z</time></trkpt>
<trkpt lat="46.60946899" lon="6.40601300"><ele>665.369995</ele><time>2008-04-19T15:34:44Z</time></trkpt>
<trkpt lat="46.60865997" lon="6.40561100"><ele>668.25</ele><time>2008-04-19T15:35:02Z</time></trkpt>
<trkpt lat="46.60844497" lon="6.40549500"><ele>669.219971</ele><time>2008-04-19T15:35:13Z</time></trkpt>
<trkpt lat="46.60838102" lon="6.40544998"><ele>670.659973</ele><time>2008-04-19T15:36:04Z</time></trkpt>
<trkpt lat="46.60826703" lon="6.40543104"><ele>670.659973</ele><time>2008-04-19T15:36:08Z</time></trkpt>
<trkpt lat="46.60794902" lon="6.40545996"><ele>670.659973</ele><time>2008-04-19T15:36:17Z</time></trkpt>
<trkpt lat="46.60729498" lon="6.40566397"><ele>663.929993</ele><time>2008-04-19T15:36:29Z</time></trkpt>
<trkpt lat="46.60704302" lon="6.40597100"><ele>665.369995</ele><time>2008-04-19T15:36:34Z</time></trkpt>
<trkpt lat="46.60654304" lon="6.40725704"><ele>659.119995</ele><time>2008-04-19T15:36:46Z</time></trkpt>
<trkpt lat="46.60636199" lon="6.40759801"><ele>657.679993</ele><time>2008-04-19T15:36:49Z</time></trkpt>
<trkpt lat="46.60554701" lon="6.40850200"><ele>655.280029</ele><time>2008-04-19T15:37:01Z</time></trkpt>
<trkpt lat="46.60523403" lon="6.40872597"><ele>654.799988</ele><time>2008-04-19T15:37:06Z</time></trkpt>
<trkpt lat="46.60507796" lon="6.40880803"><ele>657.679993</ele><time>2008-04-19T15:37:09Z</time></trkpt>
<trkpt lat="46.60498702" lon="6.40929803"><ele>657.200012</ele><time>2008-04-19T15:37:17Z</time></trkpt>
<trkpt lat="46.60528097" lon="6.41067501"><ele>655.76001</ele><time>2008-04-19T15:37:31Z</time></trkpt>
<trkpt lat="46.60550804" lon="6.41216800"><ele>654.799988</ele><time>2008-04-19T15:37:45Z</time></trkpt>
<trkpt lat="46.60537502" lon="6.41356199"><ele>649.98999</ele><time>2008-04-19T15:37:58Z</time></trkpt>
<trkpt lat="46.60534400" lon="6.41533904"><ele>649.030029</ele><time>2008-04-19T15:38:13Z</time></trkpt>
<trkpt lat="46.60537602" lon="6.41679397"><ele>647.099976</ele><time>2008-04-19T15:38:28Z</time></trkpt>
<trkpt lat="46.60537703" lon="6.41830397"><ele>646.140015</ele><time>2008-04-19T15:38:42Z</time></trkpt>
<trkpt lat="46.60560904" lon="6.41989402"><ele>645.659973</ele><time>2008-04-19T15:38:56Z</time></trkpt>
<trkpt lat="46.60590098" lon="6.42143402"><ele>641.340027</ele><time>2008-04-19T15:39:09Z</time></trkpt>
<trkpt lat="46.60591104" lon="6.42168397"><ele>639.890015</ele><time>2008-04-19T15:39:11Z</time></trkpt>
<trkpt lat="46.60554299" lon="6.42247397"><ele>632.200012</ele><time>2008-04-19T15:39:18Z</time></trkpt>
<trkpt lat="46.60536798" lon="6.42264504"><ele>630.280029</ele><time>2008-04-19T15:39:20Z</time></trkpt>
<trkpt lat="46.60524401" lon="6.42336697"><ele>627.880005</ele><time>2008-04-19T15:39:25Z</time></trkpt>
<trkpt lat="46.60513496" lon="6.42390702"><ele>624.51001</ele><time>2008-04-19T15:39:29Z</time></trkpt>
<trkpt lat="46.60473003" lon="6.42428798"><ele>623.070007</ele><time>2008-04-19T15:39:35Z</time></trkpt>
<trkpt lat="46.60457899" lon="6.42471202"><ele>620.190002</ele><time>2008-04-19T15:39:39Z</time></trkpt>
<trkpt lat="46.60457203" lon="6.42533597"><ele>619.22998</ele><time>2008-04-19T15:39:44Z</time></trkpt>
<trkpt lat="46.60454496" lon="6.42576504"><ele>618.26001</ele><time>2008-04-19T15:39:48Z</time></trkpt>
<trkpt lat="46.60446499" lon="6.42602496"><ele>619.710022</ele><time>2008-04-19T15:39:51Z</time></trkpt>
<trkpt lat="46.60429903" lon="6.42682099"><ele>625.469971</ele><time>2008-04-19T15:40:04Z</time></trkpt>
<trkpt lat="46.60441102" lon="6.42743303"><ele>632.200012</ele><time>2008-04-19T15:40:17Z</time></trkpt>
<trkpt lat="46.60443197" lon="6.42802496"><ele>636.049988</ele><time>2008-04-19T15:40:29Z</time></trkpt>
<trkpt lat="46.60463699" lon="6.42828799"><ele>637.01001</ele><time>2008-04-19T15:40:37Z</time></trkpt>
<trkpt lat="46.60468896" lon="6.42838698"><ele>636.049988</ele><time>2008-04-19T15:40:39Z</time></trkpt>
<trkpt lat="46.60476297" lon="6.42850298"><ele>635.570007</ele><time>2008-04-19T15:40:41Z</time></trkpt>
<trkpt lat="46.60503798" lon="6.42884597"><ele>634.130005</ele><time>2008-04-19T15:40:47Z</time></trkpt>
<trkpt lat="46.60514401" lon="6.42895200"><ele>632.679993</ele><time>2008-04-19T15:40:49Z</time></trkpt>
<trkpt lat="46.60583502" lon="6.42975499"><ele>630.280029</ele><time>2008-04-19T15:41:02Z</time></trkpt>
<trkpt lat="46.60617398" lon="6.43016897"><ele>633.169983</ele><time>2008-04-19T15:41:08Z</time></trkpt>
<trkpt lat="46.60642996" lon="6.43057901"><ele>632.679993</ele><time>2008-04-19T15:41:14Z</time></trkpt>
<trkpt lat="46.60656097" lon="6.43090096"><ele>629.320007</ele><time>2008-04-19T15:41:18Z</time></trkpt>
<trkpt lat="46.60666700" lon="6.43137404"><ele>624.030029</ele><time>2008-04-19T15:41:23Z</time></trkpt>
<trkpt lat="46.60669902" lon="6.43173002"><ele>622.590027</ele><time>2008-04-19T15:41:27Z</time></trkpt>
<trkpt lat="46.60677999" lon="6.43197502"><ele>620.669983</ele><time>2008-04-19T15:41:33Z</time></trkpt>
<trkpt lat="46.60685099" lon="6.43193998"><ele>619.710022</ele><time>2008-04-19T15:41:35Z</time></trkpt>
<trkpt lat="46.60701896" lon="6.43187704"><ele>616.820007</ele><time>2008-04-19T15:41:38Z</time></trkpt>
<trkpt lat="46.60742397" lon="6.43221499"><ele>613.460022</ele><time>2008-04-19T15:41:46Z</time></trkpt>
<trkpt lat="46.60789303" lon="6.43363003"><ele>613.460022</ele><time>2008-04-19T15:41:58Z</time></trkpt>
<trkpt lat="46.60801096" lon="6.43394301"><ele>613.940002</ele><time>2008-04-19T15:42:01Z</time></trkpt>
<trkpt lat="46.60871303" lon="6.43481397"><ele>611.059998</ele><time>2008-04-19T15:42:11Z</time></trkpt>
<trkpt lat="46.60878302" lon="6.43489997"><ele>610.570007</ele><time>2008-04-19T15:42:12Z</time></trkpt>
<trkpt lat="46.60897404" lon="6.43534304"><ele>602.880005</ele><time>2008-04-19T15:42:16Z</time></trkpt>
<trkpt lat="46.60912097" lon="6.43557002"><ele>602.880005</ele><time>2008-04-19T15:42:18Z</time></trkpt>
<trkpt lat="46.61001499" lon="6.43639698"><ele>591.830017</ele><time>2008-04-19T15:42:29Z</time></trkpt>
<trkpt lat="46.61034599" lon="6.43664399"><ele>589.429993</ele><time>2008-04-19T15:42:34Z</time></trkpt>
<trkpt lat="46.61073600" lon="6.43731304"><ele>586.539978</ele><time>2008-04-19T15:42:42Z</time></trkpt>
<trkpt lat="46.61095100" lon="6.43799398"><ele>591.349976</ele><time>2008-04-19T15:42:48Z</time></trkpt>
<trkpt lat="46.61110396" lon="6.43847200"><ele>592.309998</ele><time>2008-04-19T15:42:54Z</time></trkpt>
<trkpt lat="46.61112199" lon="6.43900802"><ele>595.190002</ele><time>2008-04-19T15:43:03Z</time></trkpt>
<trkpt lat="46.61091797" lon="6.43968704"><ele>597.599976</ele><time>2008-04-19T15:43:13Z</time></trkpt>
<trkpt lat="46.61079300" lon="6.44010102"><ele>594.710022</ele><time>2008-04-19T15:43:17Z</time></trkpt>
<trkpt lat="46.61073902" lon="6.44030303"><ele>594.22998</ele><time>2008-04-19T15:43:19Z</time></trkpt>
<trkpt lat="46.61063299" lon="6.44081902"><ele>598.559998</ele><time>2008-04-19T15:43:26Z</time></trkpt>
<trkpt lat="46.61061304" lon="6.44091398"><ele>599.52002</ele><time>2008-04-19T15:43:28Z</time></trkpt>
<trkpt lat="46.61041900" lon="6.44143601"><ele>605.77002</ele><time>2008-04-19T15:43:41Z</time></trkpt>
<trkpt lat="46.61012001" lon="6.44191101"><ele>603.359985</ele><time>2008-04-19T15:43:54Z</time></trkpt>
<trkpt lat="46.60999898" lon="6.44209902"><ele>603.359985</ele><time>2008-04-19T15:43:59Z</time></trkpt>
<trkpt lat="46.60988901" lon="6.44221704"><ele>600</ele><time>2008-04-19T15:44:12Z</time></trkpt>
<trkpt lat="46.60974601" lon="6.44240596"><ele>600.960022</ele><time>2008-04-19T15:44:28Z</time></trkpt>
<trkpt lat="46.60960704" lon="6.44246900"><ele>599.52002</ele><time>2008-04-19T15:44:45Z</time></trkpt>
<trkpt lat="46.60957402" lon="6.44252800"><ele>601.440002</ele><time>2008-04-19T15:44:53Z</time></trkpt>
<trkpt lat="46.60946698" lon="6.44253404"><ele>601.919983</ele><time>2008-04-19T15:45:05Z</time></trkpt>
<trkpt lat="46.60938500" lon="6.44254996"><ele>603.359985</ele><time>2008-04-19T15:45:14Z</time></trkpt>
<trkpt lat="46.60905903" lon="6.44275499"><ele>604.330017</ele><time>2008-04-19T15:45:24Z</time></trkpt>
<trkpt lat="46.60883700" lon="6.44296998"><ele>601.440002</ele><time>2008-04-19T15:45:35Z</time></trkpt>
<trkpt lat="46.60870297" lon="6.44303997"><ele>600.960022</ele><time>2008-04-19T15:45:40Z</time></trkpt>
<trkpt lat="46.60835998" lon="6.44309102"><ele>603.849976</ele><time>2008-04-19T15:45:54Z</time></trkpt>
<trkpt lat="46.60805203" lon="6.44301097"><ele>604.809998</ele><time>2008-04-19T15:46:04Z</time></trkpt>
<trkpt lat="46.60766001" lon="6.44305003"><ele>603.849976</ele><time>2008-04-19T15:46:11Z</time></trkpt>
<trkpt lat="46.60742297" lon="6.44315103"><ele>602.880005</ele><time>2008-04-19T15:46:16Z</time></trkpt>
<trkpt lat="46.60683498" lon="6.44361002"><ele>596.640015</ele><time>2008-04-19T15:46:25Z</time></trkpt>
<trkpt lat="46.60667899" lon="6.44378202"><ele>595.669983</ele><time>2008-04-19T15:46:27Z</time></trkpt>
<trkpt lat="46.60643499" lon="6.44455098"><ele>587.02002</ele><time>2008-04-19T15:46:35Z</time></trkpt>
<trkpt lat="46.60606099" lon="6.44483898"><ele>581.25</ele><time>2008-04-19T15:46:45Z</time></trkpt>
<trkpt lat="46.60592797" lon="6.44492196"><ele>581.25</ele><time>2008-04-19T15:46:48Z</time></trkpt>
<trkpt lat="46.60563896" lon="6.44516797"><ele>584.140015</ele><time>2008-04-19T15:46:56Z</time></trkpt>
<trkpt lat="46.60533202" lon="6.44554800"><ele>584.140015</ele><time>2008-04-19T15:47:03Z</time></trkpt>
<trkpt lat="46.60467898" lon="6.44662902"><ele>579.809998</ele><time>2008-04-19T15:47:18Z</time></trkpt>
<trkpt lat="46.60464697" lon="6.44668803"><ele>579.809998</ele><time>2008-04-19T15:47:19Z</time></trkpt>
<trkpt lat="46.60458201" lon="6.44688902"><ele>578.849976</ele><time>2008-04-19T15:47:22Z</time></trkpt>
<trkpt lat="46.60457396" lon="6.44719999"><ele>574.039978</ele><time>2008-04-19T15:47:27Z</time></trkpt>
<trkpt lat="46.60448000" lon="6.44784800"><ele>577.890015</ele><time>2008-04-19T15:47:41Z</time></trkpt>
<trkpt lat="46.60445997" lon="6.44851796"><ele>582.219971</ele><time>2008-04-19T15:47:51Z</time></trkpt>
<trkpt lat="46.60438696" lon="6.44879297"><ele>583.659973</ele><time>2008-04-19T15:47:55Z</time></trkpt>
<trkpt lat="46.60392403" lon="6.44970803"><ele>583.659973</ele><time>2008-04-19T15:48:10Z</time></trkpt>
<trkpt lat="46.60362597" lon="6.45011304"><ele>580.289978</ele><time>2008-04-19T15:48:20Z</time></trkpt>
<trkpt lat="46.60350803" lon="6.45014497"><ele>581.72998</ele><time>2008-04-19T15:48:24Z</time></trkpt>
<trkpt lat="46.60317200" lon="6.45080698"><ele>578.369995</ele><time>2008-04-19T15:48:33Z</time></trkpt>
<trkpt lat="46.60317401" lon="6.45099297"><ele>577.890015</ele><time>2008-04-19T15:48:35Z</time></trkpt>
<trkpt lat="46.60319204" lon="6.45117796"><ele>577.409973</ele><time>2008-04-19T15:48:37Z</time></trkpt>
<trkpt lat="46.60336998" lon="6.45188799"><ele>575.969971</ele><time>2008-04-19T15:48:45Z</time></trkpt>
<trkpt lat="46.60385303" lon="6.45274404"><ele>575.48999</ele><time>2008-04-19T15:48:57Z</time></trkpt>
<trkpt lat="46.60409904" lon="6.45301100"><ele>576.929993</ele><time>2008-04-19T15:49:02Z</time></trkpt>
<trkpt lat="46.60460497" lon="6.45339204"><ele>576.450012</ele><time>2008-04-19T15:49:16Z</time></trkpt>
<trkpt lat="46.60474604" lon="6.45352003"><ele>577.409973</ele><time>2008-04-19T15:49:20Z</time></trkpt>
<trkpt lat="46.60486196" lon="6.45362698"><ele>578.849976</ele><time>2008-04-19T15:49:23Z</time></trkpt>
<trkpt lat="46.60541299" lon="6.45425797"><ele>574.039978</ele><time>2008-04-19T15:49:34Z</time></trkpt>
<trkpt lat="46.60626199" lon="6.45529297"><ele>571.640015</ele><time>2008-04-19T15:49:48Z</time></trkpt>
<trkpt lat="46.60680296" lon="6.45594198"><ele>573.080017</ele><time>2008-04-19T15:49:57Z</time></trkpt>
<trkpt lat="46.60695802" lon="6.45630701"><ele>573.080017</ele><time>2008-04-19T15:50:02Z</time></trkpt>
<trkpt lat="46.60694696" lon="6.45672401"><ele>567.799988</ele><time>2008-04-19T15:50:08Z</time></trkpt>
<trkpt lat="46.60685803" lon="6.45708402"><ele>564.429993</ele><time>2008-04-19T15:50:12Z</time></trkpt>
<trkpt lat="46.60684998" lon="6.45760202"><ele>562.030029</ele><time>2008-04-19T15:50:16Z</time></trkpt>
<trkpt lat="46.60697697" lon="6.45860500"><ele>566.830017</ele><time>2008-04-19T15:50:25Z</time></trkpt>
<trkpt lat="46.60686297" lon="6.45883902"><ele>566.830017</ele><time>2008-04-19T15:50:31Z</time></trkpt>
<trkpt lat="46.60665100" lon="6.45896500"><ele>567.320007</ele><time>2008-04-19T15:50:36Z</time></trkpt>
<trkpt lat="46.60657103" lon="6.45928100"><ele>565.869995</ele><time>2008-04-19T15:50:41Z</time></trkpt>
<trkpt lat="46.60667698" lon="6.46066502"><ele>564.429993</ele><time>2008-04-19T15:50:56Z</time></trkpt>
<trkpt lat="46.60667698" lon="6.46074800"><ele>564.429993</ele><time>2008-04-19T15:50:57Z</time></trkpt>
<trkpt lat="46.60666198" lon="6.46097297"><ele>563.469971</ele><time>2008-04-19T15:51:00Z</time></trkpt>
<trkpt lat="46.60658101" lon="6.46122501"><ele>564.909973</ele><time>2008-04-19T15:51:04Z</time></trkpt>
<trkpt lat="46.60651697" lon="6.46160698"><ele>567.799988</ele><time>2008-04-19T15:51:17Z</time></trkpt>
<trkpt lat="46.60654899" lon="6.46202297"><ele>568.76001</ele><time>2008-04-19T15:51:29Z</time></trkpt>
<trkpt lat="46.60665401" lon="6.46274901"><ele>572.599976</ele><time>2008-04-19T15:51:44Z</time></trkpt>
<trkpt lat="46.60676700" lon="6.46363397"><ele>578.849976</ele><time>2008-04-19T15:52:03Z</time></trkpt>
<trkpt lat="46.60679500" lon="6.46395701"><ele>578.849976</ele><time>2008-04-19T15:52:09Z</time></trkpt>
<trkpt lat="46.60669399" lon="6.46509402"><ele>575.01001</ele><time>2008-04-19T15:52:23Z</time></trkpt>
<trkpt lat="46.60649300" lon="6.46624200"><ele>577.890015</ele><time>2008-04-19T15:52:37Z</time></trkpt>
<trkpt lat="46.60629904" lon="6.46771596"><ele>575.01001</ele><time>2008-04-19T15:52:57Z</time></trkpt>
<trkpt lat="46.60614900" lon="6.46878004"><ele>570.200012</ele><time>2008-04-19T15:53:06Z</time></trkpt>
<trkpt lat="46.60598002" lon="6.47048299"><ele>563.950012</ele><time>2008-04-19T15:53:19Z</time></trkpt>
<trkpt lat="46.60582496" lon="6.47208000"><ele>558.659973</ele><time>2008-04-19T15:53:31Z</time></trkpt>
<trkpt lat="46.60576603" lon="6.47243698"><ele>559.619995</ele><time>2008-04-19T15:53:34Z</time></trkpt>
<trkpt lat="46.60562002" lon="6.47273202"><ele>559.140015</ele><time>2008-04-19T15:53:38Z</time></trkpt>
<trkpt lat="46.60521300" lon="6.47322597"><ele>557.219971</ele><time>2008-04-19T15:53:52Z</time></trkpt>
<trkpt lat="46.60471000" lon="6.47394899"><ele>557.700012</ele><time>2008-04-19T15:54:08Z</time></trkpt>
<trkpt lat="46.60463800" lon="6.47404203"><ele>557.700012</ele><time>2008-04-19T15:54:10Z</time></trkpt>
<trkpt lat="46.60417297" lon="6.47453296"><ele>559.619995</ele><time>2008-04-19T15:54:22Z</time></trkpt>
<trkpt lat="46.60345799" lon="6.47538800"><ele>561.070007</ele><time>2008-04-19T15:54:42Z</time></trkpt>
<trkpt lat="46.60290303" lon="6.47616098"><ele>562.51001</ele><time>2008-04-19T15:54:59Z</time></trkpt>
<trkpt lat="46.60272198" lon="6.47688501"><ele>563.469971</ele><time>2008-04-19T15:55:13Z</time></trkpt>
<trkpt lat="46.60266398" lon="6.47765698"><ele>562.030029</ele><time>2008-04-19T15:55:28Z</time></trkpt>
<trkpt lat="46.60263598" lon="6.47788497"><ele>566.349976</ele><time>2008-04-19T15:55:31Z</time></trkpt>
<trkpt lat="46.60242702" lon="6.47894603"><ele>571.159973</ele><time>2008-04-19T15:55:50Z</time></trkpt>
<trkpt lat="46.60224304" lon="6.47983099"><ele>573.080017</ele><time>2008-04-19T15:56:07Z</time></trkpt>
<trkpt lat="46.60202804" lon="6.48081101"><ele>575.48999</ele><time>2008-04-19T15:56:24Z</time></trkpt>
<trkpt lat="46.60182402" lon="6.48176000"><ele>576.929993</ele><time>2008-04-19T15:56:39Z</time></trkpt>
<trkpt lat="46.60171196" lon="6.48228203"><ele>576.450012</ele><time>2008-04-19T15:56:48Z</time></trkpt>
<trkpt lat="46.60151498" lon="6.48323203"><ele>579.330017</ele><time>2008-04-19T15:57:06Z</time></trkpt>
<trkpt lat="46.60136998" lon="6.48404600"><ele>582.219971</ele><time>2008-04-19T15:57:22Z</time></trkpt>
<trkpt lat="46.60129596" lon="6.48457398"><ele>583.659973</ele><time>2008-04-19T15:57:32Z</time></trkpt>
<trkpt lat="46.60126101" lon="6.48476500"><ele>583.179993</ele><time>2008-04-19T15:57:35Z</time></trkpt>
<trkpt lat="46.60108801" lon="6.48593696"><ele>576.929993</ele><time>2008-04-19T15:57:47Z</time></trkpt>
<trkpt lat="46.60100503" lon="6.48673902"><ele>572.599976</ele><time>2008-04-19T15:57:53Z</time></trkpt>
<trkpt lat="46.60073304" lon="6.48687498"><ele>572.119995</ele><time>2008-04-19T15:57:58Z</time></trkpt>
<trkpt lat="46.60061602" lon="6.48683701"><ele>572.119995</ele><time>2008-04-19T15:58:00Z</time></trkpt>
<trkpt lat="46.60036901" lon="6.48672000"><ele>572.599976</ele><time>2008-04-19T15:58:05Z</time></trkpt>
<trkpt lat="46.60032903" lon="6.48705502"><ele>572.599976</ele><time>2008-04-19T15:58:13Z</time></trkpt>
<trkpt lat="46.60027999" lon="6.48716197"><ele>571.159973</ele><time>2008-04-19T15:58:15Z</time></trkpt>
<trkpt lat="46.60018603" lon="6.48735099"><ele>570.679993</ele><time>2008-04-19T15:58:18Z</time></trkpt>
<trkpt lat="46.59987900" lon="6.48848598"><ele>573.559998</ele><time>2008-04-19T15:58:32Z</time></trkpt>
<trkpt lat="46.59953199" lon="6.48959298"><ele>570.200012</ele><time>2008-04-19T15:58:43Z</time></trkpt>
<trkpt lat="46.59898298" lon="6.49125100"><ele>562.51001</ele><time>2008-04-19T15:58:55Z</time></trkpt>
<trkpt lat="46.59843497" lon="6.49284801"><ele>558.659973</ele><time>2008-04-19T15:59:08Z</time></trkpt>
<trkpt lat="46.59804597" lon="6.49372199"><ele>559.619995</ele><time>2008-04-19T15:59:19Z</time></trkpt>
<trkpt lat="46.59799903" lon="6.49407797"><ele>559.619995</ele><time>2008-04-19T15:59:24Z</time></trkpt>
<trkpt lat="46.59776199" lon="6.49562300"><ele>555.299988</ele><time>2008-04-19T15:59:38Z</time></trkpt>
<trkpt lat="46.59774698" lon="6.49597898"><ele>553.380005</ele><time>2008-04-19T15:59:41Z</time></trkpt>
<trkpt lat="46.59744901" lon="6.49648701"><ele>550.48999</ele><time>2008-04-19T15:59:47Z</time></trkpt>
<trkpt lat="46.59649598" lon="6.49652196"><ele>544.719971</ele><time>2008-04-19T15:59:57Z</time></trkpt>
<trkpt lat="46.59610203" lon="6.49693703"><ele>540.400024</ele><time>2008-04-19T16:00:02Z</time></trkpt>
<trkpt lat="46.59568897" lon="6.49815199"><ele>532.22998</ele><time>2008-04-19T16:00:10Z</time></trkpt>
<trkpt lat="46.59534104" lon="6.49862599"><ele>528.859985</ele><time>2008-04-19T16:00:14Z</time></trkpt>
<trkpt lat="46.59437000" lon="6.49980398"><ele>528.380005</ele><time>2008-04-19T16:00:26Z</time></trkpt>
<trkpt lat="46.59361999" lon="6.50101902"><ele>527.900024</ele><time>2008-04-19T16:00:39Z</time></trkpt>
<trkpt lat="46.59299000" lon="6.50183500"><ele>532.22998</ele><time>2008-04-19T16:00:51Z</time></trkpt>
<trkpt lat="46.59243696" lon="6.50243598"><ele>535.109985</ele><time>2008-04-19T16:01:04Z</time></trkpt>
<trkpt lat="46.59221702" lon="6.50261602"><ele>535.590027</ele><time>2008-04-19T16:01:09Z</time></trkpt>
<trkpt lat="46.59182701" lon="6.50282004"><ele>537.030029</ele><time>2008-04-19T16:01:18Z</time></trkpt>
<trkpt lat="46.59148101" lon="6.50291299"><ele>538.47998</ele><time>2008-04-19T16:01:26Z</time></trkpt>
<trkpt lat="46.59075899" lon="6.50315498"><ele>537.98999</ele><time>2008-04-19T16:01:43Z</time></trkpt>
<trkpt lat="46.59010503" lon="6.50352999"><ele>536.549988</ele><time>2008-04-19T16:01:56Z</time></trkpt>
<trkpt lat="46.58944999" lon="6.50409602"><ele>527.900024</ele><time>2008-04-19T16:02:04Z</time></trkpt>
<trkpt lat="46.58851499" lon="6.50434798"><ele>524.059998</ele><time>2008-04-19T16:02:13Z</time></trkpt>
<trkpt lat="46.58811199" lon="6.50429701"><ele>523.090027</ele><time>2008-04-19T16:02:17Z</time></trkpt>
<trkpt lat="46.58765500" lon="6.50453196"><ele>520.690002</ele><time>2008-04-19T16:02:22Z</time></trkpt>
<trkpt lat="46.58719199" lon="6.50461804"><ele>519.25</ele><time>2008-04-19T16:02:27Z</time></trkpt>
<trkpt lat="46.58589598" lon="6.50436499"><ele>511.079987</ele><time>2008-04-19T16:02:41Z</time></trkpt>
<trkpt lat="46.58558199" lon="6.50447496"><ele>508.670013</ele><time>2008-04-19T16:02:46Z</time></trkpt>
<trkpt lat="46.58512099" lon="6.50485701"><ele>507.709991</ele><time>2008-04-19T16:02:53Z</time></trkpt>
<trkpt lat="46.58492904" lon="6.50496304"><ele>505.309998</ele><time>2008-04-19T16:02:56Z</time></trkpt>
<trkpt lat="46.58483600" lon="6.50526999"><ele>500.980011</ele><time>2008-04-19T16:03:01Z</time></trkpt>
<trkpt lat="46.58474296" lon="6.50585001"><ele>499.540009</ele><time>2008-04-19T16:03:09Z</time></trkpt>
<trkpt lat="46.58461397" lon="6.50583803"><ele>498.100006</ele><time>2008-04-19T16:03:16Z</time></trkpt>
<trkpt lat="46.58466099" lon="6.50586099"><ele>498.579987</ele><time>2008-04-19T16:05:15Z</time></trkpt>
</trkseg></trk></gpx>